Darstellungsparameter: Aktuell verwendete Einstellungen:
Skalierung der Graphiken ... ?
xyx+y,   Skalierungsfaktor:      Skalierung: Modus: x, Faktor: 1
Darstellungszeitraum ... ?
Vom - - bis: - -   Zeitraum: 30.09.2018 - 01.04.2019
Min/Max/Avg-Anzeige ... ?
Zeige MMA aktuell
Zeige MMA Monat
Zeige MMA alles
Zeige --A aktuell
Zeige --A Monat
Zeige --A alles
Keine MMA-Anzeige
MMA:
Minimum Maximum Average (ber die Originaldaten)
MMA-Basis: 30.09.2018 - 01.04.2019
Quicknavigation für Darstellung... ?
Tage:      1T, 2T, 3T, 5T -1T -2T -3T -5T +1T +2T +3T +5T
Wochen: 1W, 2W, 3W -1W -2W -3W +1W +2W +3W
Monate: 1M, 3M, 6M -1M -3M -6M +1M +3M +6M
Jahre:    1J, 3J, 5J, 10J -1J -3J -5J -10J +1J +3J +5J +10J
Nutze für die Darstellung ... ?
Originaldaten oder Mittelwerte auf ...
Stundenbasis Tagesbasis Wochenbasis
Monatsbasis Jahresbasis      Datenbasis: Original-Daten
Darstellen als:
Statistik (Auto) Statistik J:M      Darstellung:
Zur Graphik,    zurück zur Übersicht aller Sensoren.
 
Tabellarische Datenbersicht: ?
 
Sensor: Nr:Datum:Temp:Feuchte:Taupunkt:
Aussen-T/F 1 30-09-2018 00:00:00 5.3 C 87 % 3.32 C
2 30-09-2018 00:05:00 5.3 C 87 % 3.32 C
3 30-09-2018 00:10:00 5.3 C 88 % 3.48 C
4 30-09-2018 00:15:00 5.2 C 88 % 3.38 C
5 30-09-2018 00:20:00 5.1 C 88 % 3.28 C
6 30-09-2018 00:25:00 5 C 88 % 3.18 C
7 30-09-2018 00:30:00 4.9 C 88 % 3.08 C
8 30-09-2018 00:35:00 4.8 C 88 % 2.99 C
9 30-09-2018 00:40:00 4.7 C 89 % 3.05 C
10 30-09-2018 00:45:00 4.6 C 89 % 2.95 C
11 30-09-2018 00:50:00 4.6 C 89 % 2.95 C
12 30-09-2018 00:55:00 4.5 C 89 % 2.85 C
13 30-09-2018 01:00:00 4.5 C 89 % 2.85 C
14 30-09-2018 01:05:00 4.5 C 90 % 3.01 C
15 30-09-2018 01:10:00 4.4 C 90 % 2.91 C
16 30-09-2018 01:15:00 4.3 C 90 % 2.81 C
17 30-09-2018 01:20:00 4.3 C 90 % 2.81 C
18 30-09-2018 01:25:00 4.3 C 90 % 2.81 C
19 30-09-2018 01:30:00 4.2 C 90 % 2.71 C
20 30-09-2018 01:35:00 4.2 C 91 % 2.87 C
21 30-09-2018 01:40:00 4.2 C 91 % 2.87 C
22 30-09-2018 01:45:00 4.2 C 91 % 2.87 C
23 30-09-2018 01:50:00 4.1 C 91 % 2.77 C
24 30-09-2018 01:55:00 4.1 C 91 % 2.77 C
25 30-09-2018 02:00:00 3.9 C 91 % 2.57 C
Sensor: Nr:Datum:Temp:Feuchte:Taupunkt:
Aussen-T/F 26 30-09-2018 02:05:00 3.9 C 91 % 2.57 C
27 30-09-2018 02:10:00 3.9 C 91 % 2.57 C
28 30-09-2018 02:15:00 3.9 C 91 % 2.57 C
29 30-09-2018 02:20:00 3.9 C 92 % 2.72 C
30 30-09-2018 02:25:00 3.9 C 92 % 2.72 C
31 30-09-2018 02:30:00 3.9 C 92 % 2.72 C
32 30-09-2018 02:35:00 4 C 92 % 2.82 C
33 30-09-2018 02:40:00 4.1 C 92 % 2.92 C
34 30-09-2018 02:45:00 4.1 C 92 % 2.92 C
35 30-09-2018 02:50:00 4 C 92 % 2.82 C
36 30-09-2018 02:55:00 3.8 C 92 % 2.62 C
37 30-09-2018 03:00:00 3.7 C 92 % 2.52 C
38 30-09-2018 03:05:00 3.7 C 92 % 2.52 C
39 30-09-2018 03:10:00 3.6 C 92 % 2.42 C
40 30-09-2018 03:15:00 3.6 C 92 % 2.42 C
41 30-09-2018 03:20:00 3.5 C 92 % 2.33 C
42 30-09-2018 03:25:00 3.6 C 92 % 2.42 C
43 30-09-2018 03:30:00 3.6 C 93 % 2.58 C
44 30-09-2018 03:35:00 3.4 C 92 % 2.23 C
45 30-09-2018 03:40:00 3.4 C 92 % 2.23 C
46 30-09-2018 03:45:00 3.3 C 92 % 2.13 C
47 30-09-2018 03:50:00 3.2 C 92 % 2.03 C
48 30-09-2018 03:55:00 3.2 C 93 % 2.18 C
49 30-09-2018 04:00:00 3.2 C 93 % 2.18 C
50 30-09-2018 04:05:00 3.2 C 93 % 2.18 C
Sensor: Nr:Datum:Temp:Feuchte:Taupunkt:
Aussen-T/F 51 30-09-2018 04:10:00 3.1 C 93 % 2.08 C
52 30-09-2018 04:15:00 3.1 C 93 % 2.08 C
53 30-09-2018 04:20:00 3.1 C 93 % 2.08 C
54 30-09-2018 04:25:00 3.2 C 94 % 2.33 C
55 30-09-2018 04:30:00 3.3 C 94 % 2.43 C
56 30-09-2018 04:35:00 3.3 C 94 % 2.43 C
57 30-09-2018 04:40:00 3.3 C 94 % 2.43 C
58 30-09-2018 04:45:00 3.2 C 94 % 2.33 C
59 30-09-2018 04:50:00 3.2 C 94 % 2.33 C
60 30-09-2018 04:55:00 3.2 C 94 % 2.33 C
61 30-09-2018 05:00:00 3.2 C 94 % 2.33 C
62 30-09-2018 05:05:00 3 C 93 % 1.98 C
63 30-09-2018 05:10:00 2.8 C 93 % 1.78 C
64 30-09-2018 05:15:00 2.8 C 93 % 1.78 C
65 30-09-2018 05:20:00 2.7 C 93 % 1.68 C
66 30-09-2018 05:25:00 2.7 C 94 % 1.83 C
67 30-09-2018 05:30:00 2.7 C 94 % 1.83 C
68 30-09-2018 05:35:00 2.7 C 94 % 1.83 C
69 30-09-2018 05:40:00 2.6 C 94 % 1.73 C
70 30-09-2018 05:45:00 2.6 C 94 % 1.73 C
71 30-09-2018 05:50:00 2.5 C 94 % 1.63 C
72 30-09-2018 05:55:00 2.4 C 94 % 1.54 C
73 30-09-2018 06:00:00 2.4 C 94 % 1.54 C
74 30-09-2018 06:05:00 2.4 C 94 % 1.54 C
75 30-09-2018 06:10:00 2.3 C 94 % 1.44 C
Sensor: Nr:Datum:Temp:Feuchte:Taupunkt:
Aussen-T/F 76 30-09-2018 06:15:00 2.4 C 94 % 1.54 C
77 30-09-2018 06:20:00 2.4 C 94 % 1.54 C
78 30-09-2018 06:25:00 2.3 C 94 % 1.44 C
79 30-09-2018 06:30:00 2.2 C 94 % 1.34 C
80 30-09-2018 06:35:00 2.1 C 94 % 1.24 C
81 30-09-2018 06:40:00 2 C 94 % 1.14 C
82 30-09-2018 06:45:00 1.9 C 94 % 1.04 C
83 30-09-2018 06:50:00 1.8 C 94 % 0.94 C
84 30-09-2018 06:55:00 1.8 C 94 % 0.94 C
85 30-09-2018 07:00:00 1.8 C 94 % 0.94 C
86 30-09-2018 07:05:00 1.7 C 94 % 0.84 C
87 30-09-2018 07:10:00 1.7 C 94 % 0.84 C
88 30-09-2018 07:15:00 1.7 C 94 % 0.84 C
89 30-09-2018 07:20:00 1.7 C 94 % 0.84 C
90 30-09-2018 07:25:00 1.8 C 94 % 0.94 C
91 30-09-2018 07:30:00 1.9 C 95 % 1.19 C
92 30-09-2018 07:35:00 1.9 C 95 % 1.19 C
93 30-09-2018 07:40:00 2.1 C 95 % 1.38 C
94 30-09-2018 07:45:00 2.2 C 95 % 1.48 C
95 30-09-2018 07:50:00 2.2 C 95 % 1.48 C
96 30-09-2018 07:55:00 2.3 C 95 % 1.58 C
97 30-09-2018 08:00:00 2.3 C 95 % 1.58 C
98 30-09-2018 08:05:00 2.3 C 95 % 1.58 C
99 30-09-2018 08:10:00 2.4 C 95 % 1.68 C
100 30-09-2018 08:15:00 2.5 C 95 % 1.78 C
Sensor: Nr:Datum:Temp:Feuchte:Taupunkt:
Aussen-T/F 101 30-09-2018 08:20:00 2.5 C 95 % 1.78 C
102 30-09-2018 08:25:00 2.5 C 95 % 1.78 C
103 30-09-2018 08:30:00 2.5 C 95 % 1.78 C
104 30-09-2018 08:35:00 2.5 C 95 % 1.78 C
105 30-09-2018 08:40:00 2.6 C 95 % 1.88 C
106 30-09-2018 08:45:00 2.6 C 95 % 1.88 C
107 30-09-2018 08:50:00 2.7 C 95 % 1.98 C
108 30-09-2018 08:55:00 2.8 C 95 % 2.08 C
109 30-09-2018 09:00:00 2.9 C 96 % 2.33 C
110 30-09-2018 09:05:00 2.9 C 95 % 2.18 C
111 30-09-2018 09:10:00 2.9 C 95 % 2.18 C
112 30-09-2018 09:15:00 3 C 95 % 2.28 C
113 30-09-2018 09:20:00 3 C 95 % 2.28 C
114 30-09-2018 09:25:00 3.1 C 96 % 2.53 C
115 30-09-2018 09:30:00 3.2 C 96 % 2.63 C
116 30-09-2018 09:35:00 3.3 C 96 % 2.72 C
117 30-09-2018 09:40:00 3.3 C 95 % 2.58 C
118 30-09-2018 09:45:00 3.3 C 95 % 2.58 C
119 30-09-2018 09:50:00 3.4 C 95 % 2.68 C
120 30-09-2018 09:55:00 3.3 C 95 % 2.58 C
121 30-09-2018 10:00:00 3.3 C 95 % 2.58 C
122 30-09-2018 10:05:00 3.3 C 95 % 2.58 C
123 30-09-2018 10:10:00 3.2 C 95 % 2.48 C
124 30-09-2018 10:15:00 3.3 C 95 % 2.58 C
125 30-09-2018 10:20:00 3.4 C 95 % 2.68 C
Sensor: Nr:Datum:Temp:Feuchte:Taupunkt:
Aussen-T/F 126 30-09-2018 10:25:00 3.6 C 96 % 3.02 C
127 30-09-2018 10:30:00 3.7 C 96 % 3.12 C
128 30-09-2018 10:35:00 3.9 C 96 % 3.32 C
129 30-09-2018 10:40:00 4.1 C 96 % 3.52 C
130 30-09-2018 10:45:00 4.3 C 96 % 3.72 C
131 30-09-2018 10:50:00 4.4 C 96 % 3.82 C
132 30-09-2018 10:55:00 4.6 C 96 % 4.02 C
133 30-09-2018 11:00:00 4.7 C 96 % 4.12 C
134 30-09-2018 11:05:00 4.9 C 96 % 4.32 C
135 30-09-2018 11:10:00 5.1 C 96 % 4.52 C
136 30-09-2018 11:50:00 5.7 C 96 % 5.11 C
137 30-09-2018 11:55:00 5.8 C 96 % 5.21 C
138 30-09-2018 12:00:00 6.1 C 96 % 5.51 C
139 30-09-2018 12:05:00 7 C 96 % 6.41 C
140 30-09-2018 12:10:00 7.3 C 96 % 6.71 C
141 30-09-2018 12:15:00 7.6 C 96 % 7 C
142 30-09-2018 12:20:00 7.8 C 96 % 7.2 C
143 30-09-2018 12:25:00 8.1 C 95 % 7.35 C
144 30-09-2018 12:30:00 8.3 C 94 % 7.39 C
145 30-09-2018 12:35:00 8.6 C 94 % 7.69 C
146 30-09-2018 12:40:00 8.8 C 93 % 7.73 C
147 30-09-2018 12:45:00 9.1 C 93 % 8.03 C
148 30-09-2018 12:50:00 9.2 C 91 % 7.81 C
149 30-09-2018 12:55:00 9.4 C 91 % 8.01 C
150 30-09-2018 13:00:00 9.6 C 90 % 8.04 C
Sensor: Nr:Datum:Temp:Feuchte:Taupunkt:
Aussen-T/F 151 30-09-2018 13:05:00 9.8 C 90 % 8.24 C
152 30-09-2018 13:10:00 9.9 C 90 % 8.34 C
153 30-09-2018 13:15:00 10.2 C 89 % 8.47 C
154 30-09-2018 13:20:00 10.4 C 89 % 8.67 C
155 30-09-2018 13:25:00 10.7 C 88 % 8.8 C
156 30-09-2018 13:30:00 10.9 C 86 % 8.65 C
157 30-09-2018 13:35:00 11.2 C 85 % 8.77 C
158 30-09-2018 13:40:00 11.5 C 80 % 8.17 C
159 30-09-2018 13:45:00 11.9 C 82 % 8.93 C
160 30-09-2018 13:50:00 12.3 C 81 % 9.14 C
161 30-09-2018 13:55:00 12.5 C 74 % 8 C
162 30-09-2018 14:00:00 12.9 C 75 % 8.58 C
163 30-09-2018 14:05:00 13.3 C 73 % 8.57 C
164 30-09-2018 14:10:00 13.6 C 69 % 8.03 C
165 30-09-2018 14:15:00 14.2 C 67 % 8.17 C
166 30-09-2018 14:20:00 14.7 C 63 % 7.74 C
167 30-09-2018 14:25:00 15.1 C 60 % 7.4 C
168 30-09-2018 14:30:00 15.6 C 56 % 6.86 C
169 30-09-2018 14:35:00 15.9 C 54 % 6.61 C
170 30-09-2018 14:40:00 16.2 C 57 % 7.68 C
171 30-09-2018 14:45:00 16.4 C 52 % 6.53 C
172 30-09-2018 14:50:00 16.6 C 56 % 7.8 C
173 30-09-2018 14:55:00 16.6 C 51 % 6.43 C
174 30-09-2018 15:00:00 16.3 C 50 % 5.87 C
175 30-09-2018 15:05:00 16.2 C 57 % 7.68 C
Sensor: Nr:Datum:Temp:Feuchte:Taupunkt:
Aussen-T/F 176 30-09-2018 15:10:00 16 C 53 % 6.44 C
177 30-09-2018 15:15:00 15.9 C 54 % 6.61 C
178 30-09-2018 15:20:00 15.8 C 55 % 6.79 C
179 30-09-2018 15:25:00 15.7 C 60 % 7.97 C
180 30-09-2018 15:30:00 15.6 C 57 % 7.12 C
181 30-09-2018 15:35:00 15.4 C 52 % 5.61 C
182 30-09-2018 15:40:00 15.4 C 56 % 6.68 C
183 30-09-2018 15:45:00 15.5 C 58 % 7.28 C
184 30-09-2018 15:50:00 15.4 C 58 % 7.19 C
185 30-09-2018 15:55:00 15.3 C 60 % 7.59 C
186 30-09-2018 16:00:00 15.3 C 62 % 8.07 C
187 30-09-2018 16:05:00 15.1 C 62 % 7.88 C
188 30-09-2018 16:10:00 14.9 C 63 % 7.93 C
189 30-09-2018 16:15:00 14.8 C 61 % 7.36 C
190 30-09-2018 16:20:00 14.8 C 62 % 7.6 C
191 30-09-2018 16:25:00 14.9 C 65 % 8.39 C
192 30-09-2018 16:30:00 14.9 C 64 % 8.16 C
193 30-09-2018 16:35:00 14.8 C 63 % 7.83 C
194 30-09-2018 16:40:00 14.7 C 64 % 7.97 C
195 30-09-2018 16:45:00 14.7 C 61 % 7.27 C
196 30-09-2018 16:50:00 14.7 C 63 % 7.74 C
197 30-09-2018 16:55:00 14.7 C 62 % 7.5 C
198 30-09-2018 17:00:00 14.7 C 64 % 7.97 C
199 30-09-2018 17:05:00 14.7 C 63 % 7.74 C
200 30-09-2018 17:10:00 14.7 C 64 % 7.97 C
Sensor: Nr:Datum:Temp:Feuchte:Taupunkt:
Aussen-T/F 201 30-09-2018 17:15:00 14.7 C 66 % 8.42 C
202 30-09-2018 17:20:00 14.8 C 66 % 8.52 C
203 30-09-2018 17:25:00 14.9 C 67 % 8.83 C
204 30-09-2018 17:30:00 15.2 C 66 % 8.9 C
205 30-09-2018 17:35:00 15.6 C 64 % 8.82 C
206 30-09-2018 17:40:00 15.8 C 64 % 9.01 C
207 30-09-2018 17:45:00 15.9 C 64 % 9.11 C
208 30-09-2018 17:50:00 15.9 C 62 % 8.64 C
209 30-09-2018 17:55:00 15.9 C 63 % 8.87 C
210 30-09-2018 18:00:00 15.8 C 62 % 8.54 C
211 30-09-2018 18:05:00 15.7 C 65 % 9.15 C
212 30-09-2018 18:10:00 15.5 C 65 % 8.96 C
213 30-09-2018 18:15:00 15.4 C 65 % 8.86 C
214 30-09-2018 18:20:00 15.3 C 65 % 8.77 C
215 30-09-2018 18:25:00 15.2 C 64 % 8.44 C
216 30-09-2018 18:30:00 15 C 65 % 8.48 C
217 30-09-2018 18:35:00 14.9 C 64 % 8.16 C
218 30-09-2018 18:40:00 14.7 C 66 % 8.42 C
219 30-09-2018 18:45:00 14.5 C 67 % 8.45 C
220 30-09-2018 18:50:00 14.3 C 66 % 8.04 C
221 30-09-2018 18:55:00 14.2 C 66 % 7.95 C
222 30-09-2018 19:00:00 13.9 C 65 % 7.44 C
223 30-09-2018 19:05:00 13.7 C 66 % 7.47 C
224 30-09-2018 19:10:00 13.4 C 66 % 7.19 C
225 30-09-2018 19:15:00 13.2 C 67 % 7.21 C
Sensor: Nr:Datum:Temp:Feuchte:Taupunkt:
Aussen-T/F 226 30-09-2018 19:20:00 12.9 C 68 % 7.14 C
227 30-09-2018 19:25:00 12.7 C 69 % 7.17 C
228 30-09-2018 19:30:00 12.5 C 69 % 6.97 C
229 30-09-2018 19:35:00 12.3 C 70 % 6.99 C
230 30-09-2018 19:40:00 12.2 C 71 % 7.1 C
231 30-09-2018 19:45:00 12.1 C 72 % 7.21 C
232 30-09-2018 19:50:00 11.9 C 71 % 6.82 C
233 30-09-2018 19:55:00 11.8 C 72 % 6.92 C
234 30-09-2018 20:00:00 11.8 C 72 % 6.92 C
235 30-09-2018 20:05:00 11.7 C 72 % 6.83 C
236 30-09-2018 20:10:00 11.6 C 73 % 6.93 C
237 30-09-2018 20:15:00 11.6 C 73 % 6.93 C
238 30-09-2018 20:20:00 11.4 C 73 % 6.74 C
239 30-09-2018 20:25:00 11.3 C 73 % 6.64 C
240 30-09-2018 20:30:00 11.2 C 74 % 6.74 C
241 30-09-2018 20:35:00 11.2 C 73 % 6.55 C
242 30-09-2018 20:40:00 11.1 C 74 % 6.65 C
243 30-09-2018 20:45:00 11 C 75 % 6.75 C
244 30-09-2018 20:50:00 10.9 C 75 % 6.65 C
245 30-09-2018 20:55:00 10.8 C 75 % 6.55 C
246 30-09-2018 21:00:00 10.8 C 76 % 6.75 C
247 30-09-2018 21:05:00 10.8 C 76 % 6.75 C
248 30-09-2018 21:10:00 10.7 C 77 % 6.84 C
249 30-09-2018 21:15:00 10.6 C 78 % 6.93 C
250 30-09-2018 21:20:00 10.5 C 77 % 6.64 C
Sensor: Nr:Datum:Temp:Feuchte:Taupunkt:
Aussen-T/F 251 30-09-2018 21:25:00 10.4 C 78 % 6.74 C
252 30-09-2018 21:30:00 10.3 C 78 % 6.64 C
253 30-09-2018 21:35:00 10.2 C 78 % 6.54 C
254 30-09-2018 21:40:00 10.1 C 78 % 6.44 C
255 30-09-2018 21:45:00 9.9 C 78 % 6.25 C
256 30-09-2018 21:50:00 9.9 C 79 % 6.43 C
257 30-09-2018 21:55:00 9.8 C 79 % 6.34 C
258 30-09-2018 22:00:00 9.7 C 80 % 6.42 C
259 30-09-2018 22:05:00 9.7 C 80 % 6.42 C
260 30-09-2018 22:10:00 9.7 C 80 % 6.42 C
261 30-09-2018 22:15:00 9.7 C 80 % 6.42 C
262 30-09-2018 22:20:00 9.7 C 81 % 6.6 C
263 30-09-2018 22:25:00 9.7 C 82 % 6.78 C
264 30-09-2018 22:30:00 9.7 C 82 % 6.78 C
265 30-09-2018 22:35:00 9.7 C 81 % 6.6 C
266 30-09-2018 22:40:00 9.6 C 81 % 6.5 C
267 30-09-2018 22:45:00 9.6 C 81 % 6.5 C
268 30-09-2018 22:50:00 9.5 C 82 % 6.59 C
269 30-09-2018 22:55:00 9.4 C 81 % 6.31 C
270 30-09-2018 23:00:00 9.3 C 82 % 6.39 C
271 30-09-2018 23:05:00 9.2 C 82 % 6.29 C
272 30-09-2018 23:10:00 9.1 C 82 % 6.19 C
273 30-09-2018 23:15:00 8.9 C 82 % 6 C
274 30-09-2018 23:20:00 8.8 C 82 % 5.9 C
275 30-09-2018 23:25:00 8.8 C 82 % 5.9 C
Sensor: Nr:Datum:Temp:Feuchte:Taupunkt:
Aussen-T/F 276 30-09-2018 23:30:00 8.7 C 82 % 5.8 C
277 30-09-2018 23:35:00 8.7 C 83 % 5.98 C
278 30-09-2018 23:40:00 8.7 C 83 % 5.98 C
279 30-09-2018 23:45:00 8.6 C 83 % 5.88 C
280 30-09-2018 23:50:00 8.5 C 83 % 5.78 C
281 30-09-2018 23:55:00 8.4 C 83 % 5.69 C
282 01-10-2018 00:00:00 8.3 C 84 % 5.76 C
283 01-10-2018 00:05:00 8.2 C 84 % 5.66 C
284 01-10-2018 00:10:00 8.1 C 85 % 5.73 C
285 01-10-2018 00:15:00 8.1 C 85 % 5.73 C
286 01-10-2018 00:20:00 8 C 85 % 5.64 C
287 01-10-2018 00:25:00 7.9 C 86 % 5.71 C
288 01-10-2018 00:30:00 7.9 C 86 % 5.71 C
289 01-10-2018 00:35:00 7.8 C 86 % 5.61 C
290 01-10-2018 00:40:00 7.8 C 86 % 5.61 C
291 01-10-2018 00:45:00 7.8 C 86 % 5.61 C
292 01-10-2018 00:50:00 7.8 C 87 % 5.78 C
293 01-10-2018 00:55:00 7.8 C 87 % 5.78 C
294 01-10-2018 01:00:00 7.8 C 87 % 5.78 C
295 01-10-2018 01:05:00 7.8 C 87 % 5.78 C
296 01-10-2018 01:10:00 7.7 C 87 % 5.68 C
297 01-10-2018 01:15:00 7.7 C 87 % 5.68 C
298 01-10-2018 01:20:00 7.7 C 87 % 5.68 C
299 01-10-2018 01:25:00 7.6 C 87 % 5.58 C
300 01-10-2018 01:30:00 7.6 C 88 % 5.74 C
Sensor: Nr:Datum:Temp:Feuchte:Taupunkt:
Aussen-T/F 301 01-10-2018 01:35:00 7.6 C 88 % 5.74 C
302 01-10-2018 01:40:00 7.4 C 88 % 5.55 C
303 01-10-2018 01:45:00 7.4 C 88 % 5.55 C
304 01-10-2018 01:50:00 7.3 C 88 % 5.45 C
305 01-10-2018 01:55:00 7.3 C 89 % 5.61 C
306 01-10-2018 02:00:00 7.3 C 89 % 5.61 C
307 01-10-2018 02:05:00 7.3 C 89 % 5.61 C
308 01-10-2018 02:10:00 7.3 C 89 % 5.61 C
309 01-10-2018 02:15:00 7.3 C 89 % 5.61 C
310 01-10-2018 02:20:00 7.3 C 89 % 5.61 C
311 01-10-2018 02:25:00 7.3 C 89 % 5.61 C
312 01-10-2018 02:30:00 7.3 C 90 % 5.77 C
313 01-10-2018 02:35:00 7.3 C 90 % 5.77 C
314 01-10-2018 02:40:00 7.2 C 90 % 5.67 C
315 01-10-2018 02:45:00 7.2 C 90 % 5.67 C
316 01-10-2018 02:50:00 7.3 C 90 % 5.77 C
317 01-10-2018 02:55:00 7.3 C 90 % 5.77 C
318 01-10-2018 03:00:00 7.3 C 90 % 5.77 C
319 01-10-2018 03:05:00 7.3 C 91 % 5.93 C
320 01-10-2018 03:10:00 7.3 C 91 % 5.93 C
321 01-10-2018 03:15:00 7.4 C 91 % 6.03 C
322 01-10-2018 03:20:00 7.4 C 91 % 6.03 C
323 01-10-2018 03:25:00 7.4 C 91 % 6.03 C
324 01-10-2018 03:30:00 7.4 C 91 % 6.03 C
325 01-10-2018 03:35:00 7.4 C 91 % 6.03 C
Sensor: Nr:Datum:Temp:Feuchte:Taupunkt:
Aussen-T/F 326 01-10-2018 03:40:00 7.4 C 91 % 6.03 C
327 01-10-2018 03:45:00 7.4 C 91 % 6.03 C
328 01-10-2018 03:50:00 7.3 C 91 % 5.93 C
329 01-10-2018 03:55:00 7.3 C 90 % 5.77 C
330 01-10-2018 04:00:00 7.3 C 91 % 5.93 C
331 01-10-2018 04:05:00 7.2 C 91 % 5.83 C
332 01-10-2018 04:10:00 7.2 C 91 % 5.83 C
333 01-10-2018 04:15:00 7.3 C 91 % 5.93 C
334 01-10-2018 04:20:00 7.3 C 91 % 5.93 C
335 01-10-2018 04:25:00 7.3 C 91 % 5.93 C
336 01-10-2018 04:30:00 7.3 C 91 % 5.93 C
337 01-10-2018 04:35:00 7.3 C 91 % 5.93 C
338 01-10-2018 04:40:00 7.3 C 92 % 6.09 C
339 01-10-2018 04:45:00 7.3 C 92 % 6.09 C
340 01-10-2018 04:50:00 7.4 C 92 % 6.19 C
341 01-10-2018 04:55:00 7.4 C 92 % 6.19 C
342 01-10-2018 05:00:00 7.5 C 92 % 6.29 C
343 01-10-2018 05:05:00 7.6 C 92 % 6.39 C
344 01-10-2018 05:10:00 7.7 C 92 % 6.48 C
345 01-10-2018 05:15:00 7.8 C 92 % 6.58 C
346 01-10-2018 05:20:00 7.8 C 92 % 6.58 C
347 01-10-2018 05:25:00 7.9 C 92 % 6.68 C
348 01-10-2018 05:30:00 7.9 C 92 % 6.68 C
349 01-10-2018 05:35:00 7.9 C 92 % 6.68 C
350 01-10-2018 05:40:00 7.9 C 92 % 6.68 C
Sensor: Nr:Datum:Temp:Feuchte:Taupunkt:
Aussen-T/F 351 01-10-2018 05:45:00 8 C 92 % 6.78 C
352 01-10-2018 05:50:00 8 C 92 % 6.78 C
353 01-10-2018 05:55:00 8 C 92 % 6.78 C
354 01-10-2018 06:00:00 8.1 C 92 % 6.88 C
355 01-10-2018 06:05:00 8.1 C 92 % 6.88 C
356 01-10-2018 06:10:00 8.2 C 92 % 6.98 C
357 01-10-2018 06:15:00 8.2 C 92 % 6.98 C
358 01-10-2018 06:20:00 8.2 C 92 % 6.98 C
359 01-10-2018 06:25:00 8.2 C 92 % 6.98 C
360 01-10-2018 06:30:00 8.3 C 92 % 7.08 C
361 01-10-2018 06:35:00 8.3 C 92 % 7.08 C
362 01-10-2018 06:40:00 8.3 C 92 % 7.08 C
363 01-10-2018 06:45:00 8.3 C 92 % 7.08 C
364 01-10-2018 06:50:00 8.3 C 92 % 7.08 C
365 01-10-2018 06:55:00 8.3 C 92 % 7.08 C
366 01-10-2018 07:00:00 8.4 C 92 % 7.18 C
367 01-10-2018 07:05:00 8.5 C 92 % 7.28 C
368 01-10-2018 07:10:00 8.5 C 92 % 7.28 C
369 01-10-2018 07:15:00 8.6 C 92 % 7.38 C
370 01-10-2018 07:20:00 8.6 C 92 % 7.38 C
371 01-10-2018 07:25:00 8.6 C 92 % 7.38 C
372 01-10-2018 07:30:00 8.6 C 92 % 7.38 C
373 01-10-2018 07:35:00 8.5 C 91 % 7.12 C
374 01-10-2018 07:40:00 8.4 C 91 % 7.02 C
375 01-10-2018 07:45:00 8.4 C 91 % 7.02 C
Sensor: Nr:Datum:Temp:Feuchte:Taupunkt:
Aussen-T/F 376 01-10-2018 07:50:00 8.4 C 92 % 7.18 C
377 01-10-2018 07:55:00 8.4 C 92 % 7.18 C
378 01-10-2018 08:00:00 8.4 C 92 % 7.18 C
379 01-10-2018 08:05:00 8.4 C 92 % 7.18 C
380 01-10-2018 08:10:00 8.4 C 92 % 7.18 C
381 01-10-2018 08:15:00 8.5 C 92 % 7.28 C
382 01-10-2018 08:20:00 8.5 C 92 % 7.28 C
383 01-10-2018 08:25:00 8.5 C 92 % 7.28 C
384 01-10-2018 08:30:00 8.5 C 92 % 7.28 C
385 01-10-2018 08:35:00 8.7 C 92 % 7.47 C
386 01-10-2018 08:40:00 8.8 C 92 % 7.57 C
387 01-10-2018 08:45:00 8.9 C 92 % 7.67 C
388 01-10-2018 08:50:00 9 C 92 % 7.77 C
389 01-10-2018 08:55:00 9.1 C 92 % 7.87 C
390 01-10-2018 09:00:00 9.2 C 92 % 7.97 C
391 01-10-2018 09:05:00 9.3 C 92 % 8.07 C
392 01-10-2018 09:10:00 9.4 C 92 % 8.17 C
393 01-10-2018 09:15:00 9.5 C 92 % 8.27 C
394 01-10-2018 09:20:00 9.6 C 91 % 8.21 C
395 01-10-2018 09:25:00 9.7 C 91 % 8.3 C
396 01-10-2018 09:30:00 9.8 C 91 % 8.4 C
397 01-10-2018 09:35:00 9.8 C 91 % 8.4 C
398 01-10-2018 09:40:00 9.9 C 90 % 8.34 C
399 01-10-2018 09:45:00 10.1 C 89 % 8.37 C
400 01-10-2018 09:50:00 10.2 C 89 % 8.47 C
Sensor: Nr:Datum:Temp:Feuchte:Taupunkt:
Aussen-T/F 401 01-10-2018 09:55:00 10.3 C 89 % 8.57 C
402 01-10-2018 10:00:00 10.4 C 88 % 8.5 C
403 01-10-2018 10:05:00 10.6 C 87 % 8.53 C
404 01-10-2018 10:10:00 10.7 C 86 % 8.46 C
405 01-10-2018 10:15:00 10.8 C 85 % 8.38 C
406 01-10-2018 10:20:00 10.8 C 85 % 8.38 C
407 01-10-2018 10:25:00 10.9 C 85 % 8.48 C
408 01-10-2018 10:30:00 11.1 C 85 % 8.68 C
409 01-10-2018 10:35:00 11.2 C 84 % 8.6 C
410 01-10-2018 10:40:00 11.3 C 82 % 8.34 C
411 01-10-2018 10:45:00 11.3 C 82 % 8.34 C
412 01-10-2018 10:50:00 11.4 C 82 % 8.44 C
413 01-10-2018 10:55:00 11.4 C 81 % 8.26 C
414 01-10-2018 11:00:00 11.5 C 80 % 8.17 C
415 01-10-2018 11:05:00 11.6 C 80 % 8.27 C
416 01-10-2018 11:10:00 11.7 C 79 % 8.18 C
417 01-10-2018 11:15:00 11.8 C 79 % 8.28 C
418 01-10-2018 11:20:00 11.9 C 79 % 8.38 C
419 01-10-2018 11:25:00 12 C 79 % 8.48 C
420 01-10-2018 11:30:00 12.1 C 77 % 8.2 C
421 01-10-2018 11:35:00 12.1 C 75 % 7.81 C
422 01-10-2018 11:40:00 12.1 C 74 % 7.61 C
423 01-10-2018 11:45:00 12 C 75 % 7.71 C
424 01-10-2018 11:50:00 12 C 75 % 7.71 C
425 01-10-2018 11:55:00 12.2 C 76 % 8.1 C
Sensor: Nr:Datum:Temp:Feuchte:Taupunkt:
Aussen-T/F 426 01-10-2018 12:00:00 12.4 C 74 % 7.9 C
427 01-10-2018 12:05:00 12.7 C 70 % 7.38 C
428 01-10-2018 12:10:00 12.8 C 70 % 7.47 C
429 01-10-2018 12:15:00 12.8 C 68 % 7.05 C
430 01-10-2018 12:20:00 12.9 C 69 % 7.36 C
431 01-10-2018 12:25:00 13 C 69 % 7.45 C
432 01-10-2018 12:30:00 12.9 C 69 % 7.36 C
433 01-10-2018 12:35:00 12.8 C 70 % 7.47 C
434 01-10-2018 12:40:00 12.8 C 72 % 7.88 C
435 01-10-2018 12:45:00 12.7 C 72 % 7.79 C
436 01-10-2018 12:50:00 12.7 C 72 % 7.79 C
437 01-10-2018 12:55:00 12.6 C 72 % 7.69 C
438 01-10-2018 13:00:00 12.8 C 72 % 7.88 C
439 01-10-2018 13:05:00 12.9 C 70 % 7.57 C
440 01-10-2018 13:10:00 12.8 C 69 % 7.26 C
441 01-10-2018 13:15:00 12.7 C 71 % 7.58 C
442 01-10-2018 13:20:00 12.7 C 71 % 7.58 C
443 01-10-2018 13:25:00 12.7 C 70 % 7.38 C
444 01-10-2018 13:30:00 12.7 C 69 % 7.17 C
445 01-10-2018 13:35:00 12.8 C 70 % 7.47 C
446 01-10-2018 13:40:00 12.9 C 70 % 7.57 C
447 01-10-2018 13:45:00 13 C 66 % 6.8 C
448 01-10-2018 13:50:00 13.2 C 66 % 7 C
449 01-10-2018 13:55:00 13.4 C 65 % 6.96 C
450 01-10-2018 14:00:00 13.7 C 62 % 6.56 C
Sensor: Nr:Datum:Temp:Feuchte:Taupunkt:
Aussen-T/F 451 01-10-2018 14:05:00 13.8 C 60 % 6.18 C
452 01-10-2018 14:10:00 13.8 C 61 % 6.42 C
453 01-10-2018 14:15:00 14 C 60 % 6.37 C
454 01-10-2018 14:20:00 14.1 C 60 % 6.46 C
455 01-10-2018 14:25:00 14 C 62 % 6.84 C
456 01-10-2018 14:30:00 13.3 C 70 % 7.95 C
457 01-10-2018 14:35:00 12.6 C 75 % 8.29 C
458 01-10-2018 14:40:00 11.9 C 77 % 8 C
459 01-10-2018 14:45:00 11.6 C 77 % 7.71 C
460 01-10-2018 14:50:00 11.6 C 78 % 7.9 C
461 01-10-2018 14:55:00 11.8 C 79 % 8.28 C
462 01-10-2018 15:00:00 12 C 75 % 7.71 C
463 01-10-2018 15:05:00 12.3 C 72 % 7.4 C
464 01-10-2018 15:10:00 12.6 C 72 % 7.69 C
465 01-10-2018 15:15:00 12.7 C 71 % 7.58 C
466 01-10-2018 15:20:00 12.8 C 70 % 7.47 C
467 01-10-2018 15:25:00 12.7 C 69 % 7.17 C
468 01-10-2018 15:30:00 12.7 C 69 % 7.17 C
469 01-10-2018 15:35:00 12.8 C 69 % 7.26 C
470 01-10-2018 15:40:00 12.8 C 71 % 7.68 C
471 01-10-2018 15:45:00 12.6 C 70 % 7.28 C
472 01-10-2018 15:50:00 12.4 C 72 % 7.5 C
473 01-10-2018 15:55:00 12.2 C 72 % 7.31 C
474 01-10-2018 16:00:00 11.9 C 72 % 7.02 C
475 01-10-2018 16:05:00 11.7 C 73 % 7.03 C
Sensor: Nr:Datum:Temp:Feuchte:Taupunkt:
Aussen-T/F 476 01-10-2018 16:10:00 11.6 C 73 % 6.93 C
477 01-10-2018 16:15:00 11.5 C 74 % 7.03 C
478 01-10-2018 16:20:00 11.5 C 73 % 6.84 C
479 01-10-2018 16:25:00 11.4 C 72 % 6.54 C
480 01-10-2018 16:30:00 11.4 C 72 % 6.54 C
481 01-10-2018 16:35:00 11.4 C 73 % 6.74 C
482 01-10-2018 16:40:00 11.6 C 72 % 6.73 C
483 01-10-2018 16:45:00 11.6 C 71 % 6.53 C
484 01-10-2018 16:50:00 11.7 C 72 % 6.83 C
485 01-10-2018 16:55:00 11.6 C 72 % 6.73 C
486 01-10-2018 17:00:00 11.6 C 72 % 6.73 C
487 01-10-2018 17:05:00 11.6 C 73 % 6.93 C
488 01-10-2018 17:10:00 11.4 C 70 % 6.13 C
489 01-10-2018 17:15:00 11.4 C 71 % 6.34 C
490 01-10-2018 17:20:00 11.3 C 71 % 6.24 C
491 01-10-2018 17:25:00 11.3 C 70 % 6.03 C
492 01-10-2018 17:30:00 11.2 C 70 % 5.94 C
493 01-10-2018 17:35:00 11.1 C 71 % 6.05 C
494 01-10-2018 17:40:00 11 C 71 % 5.95 C
495 01-10-2018 17:45:00 10.9 C 71 % 5.86 C
496 01-10-2018 17:50:00 10.8 C 72 % 5.96 C
497 01-10-2018 17:55:00 10.7 C 72 % 5.87 C
498 01-10-2018 18:00:00 10.6 C 73 % 5.97 C
499 01-10-2018 18:05:00 10.6 C 69 % 5.16 C
500 01-10-2018 18:10:00 10.6 C 69 % 5.16 C
Sensor: Nr:Datum:Temp:Feuchte:Taupunkt:
Aussen-T/F 501 01-10-2018 18:15:00 10.9 C 72 % 6.06 C
502 01-10-2018 18:20:00 11.2 C 70 % 5.94 C
503 01-10-2018 18:25:00 11.3 C 68 % 5.62 C
504 01-10-2018 18:30:00 11.4 C 70 % 6.13 C
505 01-10-2018 18:35:00 11.4 C 71 % 6.34 C
506 01-10-2018 18:40:00 11.3 C 72 % 6.44 C
507 01-10-2018 18:45:00 11.1 C 73 % 6.45 C
508 01-10-2018 18:50:00 10.9 C 74 % 6.45 C
509 01-10-2018 18:55:00 10.7 C 75 % 6.46 C
510 01-10-2018 19:00:00 10.5 C 76 % 6.45 C
511 01-10-2018 19:05:00 10.3 C 77 % 6.45 C
512 01-10-2018 19:10:00 10.1 C 78 % 6.44 C
513 01-10-2018 19:15:00 9.9 C 78 % 6.25 C
514 01-10-2018 19:20:00 9.8 C 79 % 6.34 C
515 01-10-2018 19:25:00 9.8 C 77 % 5.97 C
516 01-10-2018 19:30:00 9.8 C 76 % 5.78 C
517 01-10-2018 19:35:00 9.9 C 77 % 6.06 C
518 01-10-2018 19:40:00 9.8 C 77 % 5.97 C
519 01-10-2018 19:45:00 9.8 C 77 % 5.97 C
520 01-10-2018 19:50:00 9.8 C 76 % 5.78 C
521 01-10-2018 19:55:00 9.8 C 76 % 5.78 C
522 01-10-2018 20:00:00 9.8 C 75 % 5.59 C
523 01-10-2018 20:05:00 9.9 C 74 % 5.49 C
524 01-10-2018 20:10:00 9.9 C 73 % 5.29 C
525 01-10-2018 20:15:00 9.9 C 73 % 5.29 C
Sensor: Nr:Datum:Temp:Feuchte:Taupunkt:
Aussen-T/F 526 01-10-2018 20:20:00 9.9 C 73 % 5.29 C
527 01-10-2018 20:25:00 9.8 C 73 % 5.2 C
528 01-10-2018 20:30:00 9.8 C 73 % 5.2 C
529 01-10-2018 20:35:00 9.8 C 74 % 5.39 C
530 01-10-2018 20:40:00 9.8 C 74 % 5.39 C
531 01-10-2018 20:45:00 9.8 C 74 % 5.39 C
532 01-10-2018 20:50:00 9.8 C 74 % 5.39 C
533 01-10-2018 20:55:00 9.8 C 75 % 5.59 C
534 01-10-2018 21:00:00 9.8 C 75 % 5.59 C
535 01-10-2018 21:05:00 9.8 C 76 % 5.78 C
536 01-10-2018 21:10:00 9.7 C 76 % 5.68 C
537 01-10-2018 21:15:00 9.7 C 76 % 5.68 C
538 01-10-2018 21:20:00 9.6 C 76 % 5.58 C
539 01-10-2018 21:25:00 9.6 C 76 % 5.58 C
540 01-10-2018 21:30:00 9.4 C 76 % 5.39 C
541 01-10-2018 21:35:00 9.4 C 76 % 5.39 C
542 01-10-2018 21:40:00 9.3 C 76 % 5.29 C
543 01-10-2018 21:45:00 9.2 C 76 % 5.2 C
544 01-10-2018 21:50:00 9.1 C 77 % 5.29 C
545 01-10-2018 21:55:00 8.9 C 77 % 5.09 C
546 01-10-2018 22:00:00 8.8 C 78 % 5.18 C
547 01-10-2018 22:05:00 8.8 C 78 % 5.18 C
548 01-10-2018 22:10:00 8.8 C 79 % 5.36 C
549 01-10-2018 22:15:00 8.7 C 79 % 5.27 C
550 01-10-2018 22:20:00 8.7 C 80 % 5.45 C
Sensor: Nr:Datum:Temp:Feuchte:Taupunkt:
Aussen-T/F 551 01-10-2018 22:25:00 8.6 C 80 % 5.35 C
552 01-10-2018 22:30:00 8.5 C 80 % 5.25 C
553 01-10-2018 22:35:00 8.3 C 80 % 5.06 C
554 01-10-2018 22:40:00 8.2 C 81 % 5.14 C
555 01-10-2018 22:45:00 8.1 C 82 % 5.22 C
556 01-10-2018 22:50:00 8 C 82 % 5.12 C
557 01-10-2018 22:55:00 7.9 C 82 % 5.02 C
558 01-10-2018 23:00:00 7.8 C 83 % 5.1 C
559 01-10-2018 23:05:00 7.8 C 83 % 5.1 C
560 01-10-2018 23:10:00 7.7 C 83 % 5 C
561 01-10-2018 23:15:00 7.5 C 83 % 4.81 C
562 01-10-2018 23:20:00 7.3 C 84 % 4.78 C
563 01-10-2018 23:25:00 7.2 C 84 % 4.68 C
564 01-10-2018 23:30:00 7.1 C 85 % 4.75 C
565 01-10-2018 23:35:00 7 C 86 % 4.82 C
566 01-10-2018 23:40:00 6.9 C 86 % 4.72 C
567 01-10-2018 23:45:00 6.9 C 86 % 4.72 C
568 01-10-2018 23:50:00 6.8 C 87 % 4.79 C
569 01-10-2018 23:55:00 6.8 C 87 % 4.79 C
570 02-10-2018 00:00:00 6.8 C 87 % 4.79 C
571 02-10-2018 00:05:00 6.8 C 87 % 4.79 C
572 02-10-2018 00:10:00 6.8 C 87 % 4.79 C
573 02-10-2018 00:15:00 6.8 C 87 % 4.79 C
574 02-10-2018 00:20:00 6.8 C 87 % 4.79 C
575 02-10-2018 00:25:00 6.9 C 88 % 5.05 C
Sensor: Nr:Datum:Temp:Feuchte:Taupunkt:
Aussen-T/F 576 02-10-2018 00:30:00 7 C 87 % 4.99 C
577 02-10-2018 00:35:00 7.1 C 87 % 5.09 C
578 02-10-2018 00:40:00 7.1 C 87 % 5.09 C
579 02-10-2018 00:45:00 7.2 C 87 % 5.19 C
580 02-10-2018 00:50:00 7.2 C 87 % 5.19 C
581 02-10-2018 00:55:00 7.2 C 87 % 5.19 C
582 02-10-2018 01:00:00 7.2 C 87 % 5.19 C
583 02-10-2018 01:05:00 7.2 C 87 % 5.19 C
584 02-10-2018 01:10:00 7.2 C 87 % 5.19 C
585 02-10-2018 01:15:00 7.2 C 87 % 5.19 C
586 02-10-2018 01:20:00 7.2 C 87 % 5.19 C
587 02-10-2018 01:25:00 7.3 C 87 % 5.28 C
588 02-10-2018 01:30:00 7.3 C 87 % 5.28 C
589 02-10-2018 01:35:00 7.3 C 87 % 5.28 C
590 02-10-2018 01:40:00 7.3 C 87 % 5.28 C
591 02-10-2018 01:45:00 7.3 C 87 % 5.28 C
592 02-10-2018 01:50:00 7.3 C 87 % 5.28 C
593 02-10-2018 01:55:00 7.3 C 86 % 5.12 C
594 02-10-2018 02:00:00 7.4 C 86 % 5.22 C
595 02-10-2018 02:05:00 7.5 C 86 % 5.31 C
596 02-10-2018 02:10:00 7.6 C 86 % 5.41 C
597 02-10-2018 02:15:00 7.6 C 86 % 5.41 C
598 02-10-2018 02:20:00 7.7 C 87 % 5.68 C
599 02-10-2018 02:25:00 7.7 C 87 % 5.68 C
600 02-10-2018 02:30:00 7.7 C 87 % 5.68 C
Sensor: Nr:Datum:Temp:Feuchte:Taupunkt:
Aussen-T/F 601 02-10-2018 02:35:00 7.7 C 87 % 5.68 C
602 02-10-2018 02:40:00 7.7 C 87 % 5.68 C
603 02-10-2018 02:45:00 7.7 C 87 % 5.68 C
604 02-10-2018 02:50:00 7.7 C 88 % 5.84 C
605 02-10-2018 02:55:00 7.7 C 88 % 5.84 C
606 02-10-2018 03:00:00 7.7 C 87 % 5.68 C
607 02-10-2018 03:05:00 7.6 C 87 % 5.58 C
608 02-10-2018 03:10:00 7.6 C 87 % 5.58 C
609 02-10-2018 03:15:00 7.6 C 87 % 5.58 C
610 02-10-2018 03:20:00 7.6 C 87 % 5.58 C
611 02-10-2018 03:25:00 7.6 C 87 % 5.58 C
612 02-10-2018 03:30:00 7.6 C 87 % 5.58 C
613 02-10-2018 03:35:00 7.6 C 87 % 5.58 C
614 02-10-2018 03:40:00 7.6 C 87 % 5.58 C
615 02-10-2018 03:45:00 7.6 C 86 % 5.41 C
616 02-10-2018 03:50:00 7.7 C 86 % 5.51 C
617 02-10-2018 03:55:00 7.7 C 86 % 5.51 C
618 02-10-2018 04:00:00 7.7 C 86 % 5.51 C
619 02-10-2018 04:05:00 7.7 C 85 % 5.34 C
620 02-10-2018 04:10:00 7.8 C 85 % 5.44 C
621 02-10-2018 04:15:00 7.7 C 85 % 5.34 C
622 02-10-2018 04:20:00 7.8 C 85 % 5.44 C
623 02-10-2018 04:25:00 7.7 C 85 % 5.34 C
624 02-10-2018 04:30:00 7.7 C 85 % 5.34 C
625 02-10-2018 04:35:00 7.7 C 85 % 5.34 C
Sensor: Nr:Datum:Temp:Feuchte:Taupunkt:
Aussen-T/F 626 02-10-2018 04:40:00 7.8 C 85 % 5.44 C
627 02-10-2018 04:45:00 7.8 C 85 % 5.44 C
628 02-10-2018 04:50:00 7.8 C 85 % 5.44 C
629 02-10-2018 04:55:00 7.8 C 85 % 5.44 C
630 02-10-2018 05:00:00 7.8 C 85 % 5.44 C
631 02-10-2018 05:05:00 7.8 C 85 % 5.44 C
632 02-10-2018 05:10:00 7.7 C 85 % 5.34 C
633 02-10-2018 05:15:00 7.7 C 85 % 5.34 C
634 02-10-2018 05:20:00 7.7 C 85 % 5.34 C
635 02-10-2018 05:25:00 7.7 C 85 % 5.34 C
636 02-10-2018 05:30:00 7.7 C 85 % 5.34 C
637 02-10-2018 05:35:00 7.7 C 85 % 5.34 C
638 02-10-2018 05:40:00 7.7 C 85 % 5.34 C
639 02-10-2018 05:45:00 7.7 C 85 % 5.34 C
640 02-10-2018 05:50:00 7.7 C 85 % 5.34 C
641 02-10-2018 05:55:00 7.7 C 85 % 5.34 C
642 02-10-2018 06:00:00 7.7 C 85 % 5.34 C
643 02-10-2018 06:05:00 7.7 C 85 % 5.34 C
644 02-10-2018 06:10:00 7.7 C 85 % 5.34 C
645 02-10-2018 06:15:00 7.7 C 85 % 5.34 C
646 02-10-2018 06:20:00 7.7 C 85 % 5.34 C
647 02-10-2018 06:25:00 7.8 C 85 % 5.44 C
648 02-10-2018 06:30:00 7.8 C 85 % 5.44 C
649 02-10-2018 06:35:00 7.8 C 85 % 5.44 C
650 02-10-2018 06:40:00 7.8 C 85 % 5.44 C
Sensor: Nr:Datum:Temp:Feuchte:Taupunkt:
Aussen-T/F 651 02-10-2018 06:45:00 7.8 C 85 % 5.44 C
652 02-10-2018 06:50:00 7.8 C 85 % 5.44 C
653 02-10-2018 06:55:00 7.8 C 85 % 5.44 C
654 02-10-2018 07:00:00 7.8 C 85 % 5.44 C
655 02-10-2018 07:05:00 7.8 C 85 % 5.44 C
656 02-10-2018 07:10:00 7.8 C 85 % 5.44 C
657 02-10-2018 07:15:00 7.8 C 85 % 5.44 C
658 02-10-2018 07:20:00 7.8 C 85 % 5.44 C
659 02-10-2018 07:25:00 7.8 C 85 % 5.44 C
660 02-10-2018 07:30:00 7.8 C 85 % 5.44 C
661 02-10-2018 07:35:00 7.9 C 85 % 5.54 C
662 02-10-2018 07:40:00 7.9 C 85 % 5.54 C
663 02-10-2018 07:45:00 7.9 C 85 % 5.54 C
664 02-10-2018 07:50:00 8 C 85 % 5.64 C
665 02-10-2018 07:55:00 8.1 C 85 % 5.73 C
666 02-10-2018 08:00:00 8.1 C 84 % 5.56 C
667 02-10-2018 08:05:00 8.2 C 84 % 5.66 C
668 02-10-2018 08:10:00 8.2 C 84 % 5.66 C
669 02-10-2018 08:15:00 8.2 C 84 % 5.66 C
670 02-10-2018 08:20:00 8.2 C 83 % 5.49 C
671 02-10-2018 08:25:00 8.3 C 83 % 5.59 C
672 02-10-2018 08:30:00 8.3 C 83 % 5.59 C
673 02-10-2018 08:35:00 8.4 C 83 % 5.69 C
674 02-10-2018 08:40:00 8.4 C 83 % 5.69 C
675 02-10-2018 08:45:00 8.4 C 83 % 5.69 C
Sensor: Nr:Datum:Temp:Feuchte:Taupunkt:
Aussen-T/F 676 02-10-2018 08:50:00 8.5 C 83 % 5.78 C
677 02-10-2018 08:55:00 8.6 C 82 % 5.71 C
678 02-10-2018 09:00:00 8.7 C 82 % 5.8 C
679 02-10-2018 09:05:00 8.7 C 82 % 5.8 C
680 02-10-2018 09:10:00 8.7 C 82 % 5.8 C
681 02-10-2018 09:15:00 8.7 C 81 % 5.63 C
682 02-10-2018 09:20:00 8.8 C 80 % 5.55 C
683 02-10-2018 09:25:00 8.8 C 80 % 5.55 C
684 02-10-2018 09:30:00 8.8 C 80 % 5.55 C
685 02-10-2018 09:35:00 8.8 C 80 % 5.55 C
686 02-10-2018 09:40:00 8.8 C 81 % 5.72 C
687 02-10-2018 09:45:00 8.9 C 81 % 5.82 C
688 02-10-2018 09:50:00 8.9 C 81 % 5.82 C
689 02-10-2018 09:55:00 8.9 C 82 % 6 C
690 02-10-2018 10:00:00 8.8 C 83 % 6.08 C
691 02-10-2018 10:05:00 8.7 C 83 % 5.98 C
692 02-10-2018 10:10:00 8.7 C 83 % 5.98 C
693 02-10-2018 10:15:00 8.7 C 83 % 5.98 C
694 02-10-2018 10:20:00 8.8 C 84 % 6.25 C
695 02-10-2018 10:25:00 8.8 C 85 % 6.42 C
696 02-10-2018 10:30:00 8.8 C 86 % 6.59 C
697 02-10-2018 10:35:00 8.7 C 87 % 6.66 C
698 02-10-2018 10:40:00 8.7 C 87 % 6.66 C
699 02-10-2018 10:45:00 8.6 C 88 % 6.73 C
700 02-10-2018 10:50:00 8.6 C 88 % 6.73 C
Sensor: Nr:Datum:Temp:Feuchte:Taupunkt:
Aussen-T/F 701 02-10-2018 10:55:00 8.5 C 88 % 6.63 C
702 02-10-2018 11:00:00 8.4 C 88 % 6.53 C
703 02-10-2018 11:05:00 8.4 C 87 % 6.37 C
704 02-10-2018 11:10:00 8.4 C 88 % 6.53 C
705 02-10-2018 11:15:00 8.4 C 88 % 6.53 C
706 02-10-2018 11:20:00 8.5 C 89 % 6.79 C
707 02-10-2018 11:25:00 8.6 C 89 % 6.89 C
708 02-10-2018 11:30:00 8.6 C 88 % 6.73 C
709 02-10-2018 11:35:00 8.6 C 88 % 6.73 C
710 02-10-2018 11:40:00 8.6 C 88 % 6.73 C
711 02-10-2018 11:45:00 8.6 C 88 % 6.73 C
712 02-10-2018 11:50:00 8.6 C 88 % 6.73 C
713 02-10-2018 11:55:00 8.7 C 88 % 6.83 C
714 02-10-2018 12:00:00 8.7 C 88 % 6.83 C
715 02-10-2018 12:05:00 8.7 C 87 % 6.66 C
716 02-10-2018 12:10:00 8.7 C 87 % 6.66 C
717 02-10-2018 12:15:00 8.7 C 88 % 6.83 C
718 02-10-2018 12:20:00 8.7 C 88 % 6.83 C
719 02-10-2018 12:25:00 8.7 C 88 % 6.83 C
720 02-10-2018 12:30:00 8.8 C 87 % 6.76 C
721 02-10-2018 12:35:00 8.8 C 88 % 6.93 C
722 02-10-2018 12:40:00 8.8 C 89 % 7.09 C
723 02-10-2018 12:45:00 8.8 C 89 % 7.09 C
724 02-10-2018 12:50:00 8.8 C 90 % 7.25 C
725 02-10-2018 12:55:00 8.8 C 90 % 7.25 C
Sensor: Nr:Datum:Temp:Feuchte:Taupunkt:
Aussen-T/F 726 02-10-2018 13:00:00 8.8 C 91 % 7.41 C
727 02-10-2018 13:05:00 8.8 C 91 % 7.41 C
728 02-10-2018 13:10:00 8.7 C 90 % 7.15 C
729 02-10-2018 13:15:00 8.7 C 91 % 7.32 C
730 02-10-2018 13:20:00 8.7 C 91 % 7.32 C
731 02-10-2018 13:25:00 8.7 C 91 % 7.32 C
732 02-10-2018 13:30:00 8.7 C 91 % 7.32 C
733 02-10-2018 13:35:00 8.7 C 91 % 7.32 C
734 02-10-2018 13:40:00 8.7 C 91 % 7.32 C
735 02-10-2018 13:45:00 8.8 C 91 % 7.41 C
736 02-10-2018 13:50:00 8.9 C 91 % 7.51 C
737 02-10-2018 13:55:00 8.9 C 91 % 7.51 C
738 02-10-2018 14:00:00 8.9 C 91 % 7.51 C
739 02-10-2018 14:05:00 9 C 91 % 7.61 C
740 02-10-2018 14:10:00 9.1 C 91 % 7.71 C
741 02-10-2018 14:15:00 9.2 C 91 % 7.81 C
742 02-10-2018 14:20:00 9.2 C 91 % 7.81 C
743 02-10-2018 14:25:00 9.2 C 90 % 7.65 C
744 02-10-2018 14:30:00 9.3 C 90 % 7.75 C
745 02-10-2018 14:35:00 9.3 C 90 % 7.75 C
746 02-10-2018 14:40:00 9.3 C 90 % 7.75 C
747 02-10-2018 14:45:00 9.4 C 90 % 7.85 C
748 02-10-2018 14:50:00 9.4 C 90 % 7.85 C
749 02-10-2018 14:55:00 9.6 C 90 % 8.04 C
750 02-10-2018 15:00:00 9.6 C 90 % 8.04 C
Sensor: Nr:Datum:Temp:Feuchte:Taupunkt:
Aussen-T/F 751 02-10-2018 15:05:00 9.6 C 90 % 8.04 C
752 02-10-2018 15:10:00 9.7 C 90 % 8.14 C
753 02-10-2018 15:15:00 9.7 C 90 % 8.14 C
754 02-10-2018 15:20:00 9.7 C 90 % 8.14 C
755 02-10-2018 15:25:00 9.7 C 90 % 8.14 C
756 02-10-2018 15:30:00 9.7 C 90 % 8.14 C
757 02-10-2018 15:35:00 9.8 C 89 % 8.08 C
758 02-10-2018 15:40:00 9.8 C 89 % 8.08 C
759 02-10-2018 15:45:00 9.9 C 89 % 8.17 C
760 02-10-2018 15:50:00 9.9 C 89 % 8.17 C
761 02-10-2018 15:55:00 9.9 C 89 % 8.17 C
762 02-10-2018 16:00:00 9.9 C 89 % 8.17 C
763 02-10-2018 16:05:00 10 C 89 % 8.27 C
764 02-10-2018 16:10:00 10.1 C 89 % 8.37 C
765 02-10-2018 16:15:00 10.1 C 88 % 8.21 C
766 02-10-2018 16:20:00 10.2 C 89 % 8.47 C
767 02-10-2018 16:25:00 10.2 C 88 % 8.3 C
768 02-10-2018 16:30:00 10.3 C 88 % 8.4 C
769 02-10-2018 16:35:00 10.3 C 88 % 8.4 C
770 02-10-2018 16:40:00 10.4 C 88 % 8.5 C
771 02-10-2018 16:45:00 10.4 C 88 % 8.5 C
772 02-10-2018 16:50:00 10.5 C 88 % 8.6 C
773 02-10-2018 16:55:00 10.5 C 89 % 8.77 C
774 02-10-2018 17:00:00 10.5 C 88 % 8.6 C
775 02-10-2018 17:05:00 10.5 C 89 % 8.77 C
Sensor: Nr:Datum:Temp:Feuchte:Taupunkt:
Aussen-T/F 776 02-10-2018 17:10:00 10.6 C 89 % 8.86 C
777 02-10-2018 17:15:00 10.6 C 89 % 8.86 C
778 02-10-2018 17:20:00 10.7 C 89 % 8.96 C
779 02-10-2018 17:25:00 10.8 C 88 % 8.89 C
780 02-10-2018 17:30:00 10.8 C 88 % 8.89 C
781 02-10-2018 17:35:00 10.9 C 88 % 8.99 C
782 02-10-2018 17:40:00 10.9 C 88 % 8.99 C
783 02-10-2018 17:45:00 10.9 C 88 % 8.99 C
784 02-10-2018 17:50:00 10.9 C 88 % 8.99 C
785 02-10-2018 17:55:00 10.9 C 88 % 8.99 C
786 02-10-2018 18:00:00 10.9 C 88 % 8.99 C
787 02-10-2018 18:05:00 10.9 C 88 % 8.99 C
788 02-10-2018 18:10:00 11 C 88 % 9.09 C
789 02-10-2018 18:15:00 10.9 C 88 % 8.99 C
790 02-10-2018 18:20:00 11 C 89 % 9.26 C
791 02-10-2018 18:25:00 11 C 89 % 9.26 C
792 02-10-2018 18:30:00 11 C 89 % 9.26 C
793 02-10-2018 18:35:00 11 C 89 % 9.26 C
794 02-10-2018 18:40:00 11 C 89 % 9.26 C
795 02-10-2018 18:45:00 11 C 89 % 9.26 C
796 02-10-2018 18:50:00 11 C 89 % 9.26 C
797 02-10-2018 18:55:00 11 C 89 % 9.26 C
798 02-10-2018 19:00:00 11 C 89 % 9.26 C
799 02-10-2018 19:05:00 10.9 C 89 % 9.16 C
800 02-10-2018 19:10:00 10.9 C 90 % 9.33 C
Sensor: Nr:Datum:Temp:Feuchte:Taupunkt:
Aussen-T/F 801 02-10-2018 19:15:00 10.9 C 90 % 9.33 C
802 02-10-2018 19:20:00 11 C 90 % 9.42 C
803 02-10-2018 19:25:00 11.1 C 90 % 9.52 C
804 02-10-2018 19:30:00 11 C 90 % 9.42 C
805 02-10-2018 19:35:00 11.1 C 90 % 9.52 C
806 02-10-2018 19:40:00 11.1 C 90 % 9.52 C
807 02-10-2018 19:45:00 11.1 C 90 % 9.52 C
808 02-10-2018 19:50:00 11.1 C 90 % 9.52 C
809 02-10-2018 19:55:00 11.1 C 90 % 9.52 C
810 02-10-2018 20:00:00 11.1 C 90 % 9.52 C
811 02-10-2018 20:05:00 11.2 C 90 % 9.62 C
812 02-10-2018 20:10:00 11.2 C 90 % 9.62 C
813 02-10-2018 20:15:00 11.2 C 90 % 9.62 C
814 02-10-2018 20:20:00 11.2 C 90 % 9.62 C
815 02-10-2018 20:25:00 11.2 C 90 % 9.62 C
816 02-10-2018 20:30:00 11.3 C 90 % 9.72 C
817 02-10-2018 20:35:00 11.3 C 90 % 9.72 C
818 02-10-2018 20:40:00 11.3 C 90 % 9.72 C
819 02-10-2018 20:45:00 11.4 C 90 % 9.82 C
820 02-10-2018 20:50:00 11.4 C 90 % 9.82 C
821 02-10-2018 20:55:00 11.5 C 90 % 9.92 C
822 02-10-2018 21:00:00 11.5 C 90 % 9.92 C
823 02-10-2018 21:05:00 11.6 C 90 % 10.02 C
824 02-10-2018 21:10:00 11.5 C 89 % 9.75 C
825 02-10-2018 21:15:00 11.4 C 89 % 9.65 C
Sensor: Nr:Datum:Temp:Feuchte:Taupunkt:
Aussen-T/F 826 02-10-2018 21:20:00 11.3 C 90 % 9.72 C
827 02-10-2018 21:25:00 11.3 C 90 % 9.72 C
828 02-10-2018 21:30:00 11.3 C 90 % 9.72 C
829 02-10-2018 21:35:00 11.2 C 90 % 9.62 C
830 02-10-2018 21:40:00 11.2 C 91 % 9.79 C
831 02-10-2018 21:45:00 11.2 C 91 % 9.79 C
832 02-10-2018 21:50:00 11.2 C 91 % 9.79 C
833 02-10-2018 21:55:00 11.2 C 91 % 9.79 C
834 02-10-2018 22:00:00 11.2 C 91 % 9.79 C
835 02-10-2018 22:05:00 11.2 C 91 % 9.79 C
836 02-10-2018 22:10:00 11.3 C 91 % 9.89 C
837 02-10-2018 22:15:00 11.4 C 91 % 9.98 C
838 02-10-2018 22:20:00 11.4 C 91 % 9.98 C
839 02-10-2018 22:25:00 11.5 C 91 % 10.08 C
840 02-10-2018 22:30:00 11.5 C 91 % 10.08 C
841 02-10-2018 22:35:00 11.5 C 91 % 10.08 C
842 02-10-2018 22:40:00 11.6 C 91 % 10.18 C
843 02-10-2018 22:45:00 11.6 C 91 % 10.18 C
844 02-10-2018 22:50:00 11.7 C 91 % 10.28 C
845 02-10-2018 22:55:00 11.8 C 91 % 10.38 C
846 02-10-2018 23:00:00 11.8 C 90 % 10.21 C
847 02-10-2018 23:05:00 11.8 C 90 % 10.21 C
848 02-10-2018 23:10:00 11.8 C 90 % 10.21 C
849 02-10-2018 23:15:00 11.7 C 90 % 10.12 C
850 02-10-2018 23:20:00 11.7 C 90 % 10.12 C
Sensor: Nr:Datum:Temp:Feuchte:Taupunkt:
Aussen-T/F 851 02-10-2018 23:25:00 11.7 C 90 % 10.12 C
852 02-10-2018 23:30:00 11.7 C 91 % 10.28 C
853 02-10-2018 23:35:00 11.7 C 91 % 10.28 C
854 02-10-2018 23:40:00 11.7 C 91 % 10.28 C
855 02-10-2018 23:45:00 11.7 C 91 % 10.28 C
856 02-10-2018 23:50:00 11.7 C 91 % 10.28 C
857 02-10-2018 23:55:00 11.7 C 91 % 10.28 C
858 03-10-2018 00:00:00 11.8 C 91 % 10.38 C
859 03-10-2018 00:05:00 11.8 C 91 % 10.38 C
860 03-10-2018 00:10:00 11.8 C 91 % 10.38 C
861 03-10-2018 00:15:00 11.8 C 91 % 10.38 C
862 03-10-2018 00:20:00 11.8 C 91 % 10.38 C
863 03-10-2018 00:25:00 11.8 C 91 % 10.38 C
864 03-10-2018 00:30:00 11.8 C 91 % 10.38 C
865 03-10-2018 00:35:00 11.7 C 91 % 10.28 C
866 03-10-2018 00:40:00 11.8 C 91 % 10.38 C
867 03-10-2018 00:45:00 11.8 C 92 % 10.54 C
868 03-10-2018 00:50:00 11.8 C 92 % 10.54 C
869 03-10-2018 00:55:00 11.8 C 92 % 10.54 C
870 03-10-2018 01:00:00 11.8 C 92 % 10.54 C
871 03-10-2018 01:05:00 11.8 C 91 % 10.38 C
872 03-10-2018 01:10:00 11.8 C 92 % 10.54 C
873 03-10-2018 01:15:00 11.7 C 92 % 10.44 C
874 03-10-2018 01:20:00 11.7 C 92 % 10.44 C
875 03-10-2018 01:25:00 11.7 C 92 % 10.44 C
Sensor: Nr:Datum:Temp:Feuchte:Taupunkt:
Aussen-T/F 876 03-10-2018 01:30:00 11.6 C 92 % 10.35 C
877 03-10-2018 01:35:00 11.5 C 92 % 10.25 C
878 03-10-2018 01:40:00 11.4 C 92 % 10.15 C
879 03-10-2018 01:45:00 11.4 C 92 % 10.15 C
880 03-10-2018 01:50:00 11.4 C 93 % 10.31 C
881 03-10-2018 01:55:00 11.4 C 93 % 10.31 C
882 03-10-2018 02:00:00 11.4 C 93 % 10.31 C
883 03-10-2018 02:05:00 11.4 C 93 % 10.31 C
884 03-10-2018 02:10:00 11.3 C 93 % 10.21 C
885 03-10-2018 02:15:00 11.4 C 93 % 10.31 C
886 03-10-2018 02:20:00 11.5 C 93 % 10.41 C
887 03-10-2018 02:25:00 11.4 C 93 % 10.31 C
888 03-10-2018 02:30:00 11.6 C 94 % 10.67 C
889 03-10-2018 02:35:00 11.7 C 94 % 10.77 C
890 03-10-2018 02:40:00 11.7 C 93 % 10.61 C
891 03-10-2018 02:45:00 11.7 C 93 % 10.61 C
892 03-10-2018 02:50:00 11.8 C 93 % 10.71 C
893 03-10-2018 02:55:00 11.9 C 93 % 10.81 C
894 03-10-2018 03:00:00 11.9 C 93 % 10.81 C
895 03-10-2018 03:05:00 11.9 C 93 % 10.81 C
896 03-10-2018 03:10:00 12 C 93 % 10.9 C
897 03-10-2018 03:15:00 12.1 C 93 % 11 C
898 03-10-2018 03:20:00 12 C 93 % 10.9 C
899 03-10-2018 03:25:00 12 C 93 % 10.9 C
900 03-10-2018 03:30:00 12 C 93 % 10.9 C
Sensor: Nr:Datum:Temp:Feuchte:Taupunkt:
Aussen-T/F 901 03-10-2018 03:35:00 11.9 C 92 % 10.64 C
902 03-10-2018 03:40:00 11.9 C 93 % 10.81 C
903 03-10-2018 03:45:00 11.8 C 93 % 10.71 C
904 03-10-2018 03:50:00 11.7 C 93 % 10.61 C
905 03-10-2018 03:55:00 11.7 C 93 % 10.61 C
906 03-10-2018 04:00:00 11.6 C 93 % 10.51 C
907 03-10-2018 04:05:00 11.6 C 93 % 10.51 C
908 03-10-2018 04:10:00 11.6 C 93 % 10.51 C
909 03-10-2018 04:15:00 11.5 C 93 % 10.41 C
910 03-10-2018 04:20:00 11.4 C 93 % 10.31 C
911 03-10-2018 04:25:00 11.4 C 93 % 10.31 C
912 03-10-2018 04:30:00 11.4 C 93 % 10.31 C
913 03-10-2018 04:35:00 11.4 C 94 % 10.47 C
914 03-10-2018 04:40:00 11.4 C 94 % 10.47 C
915 03-10-2018 04:45:00 11.4 C 94 % 10.47 C
916 03-10-2018 04:50:00 11.3 C 94 % 10.37 C
917 03-10-2018 04:55:00 11.3 C 94 % 10.37 C
918 03-10-2018 05:00:00 11.3 C 94 % 10.37 C
919 03-10-2018 05:05:00 11.4 C 94 % 10.47 C
920 03-10-2018 05:10:00 11.4 C 94 % 10.47 C
921 03-10-2018 05:15:00 11.4 C 94 % 10.47 C
922 03-10-2018 05:20:00 11.4 C 94 % 10.47 C
923 03-10-2018 05:25:00 11.3 C 94 % 10.37 C
924 03-10-2018 05:30:00 11.2 C 94 % 10.27 C
925 03-10-2018 05:35:00 11.1 C 94 % 10.17 C
Sensor: Nr:Datum:Temp:Feuchte:Taupunkt:
Aussen-T/F 926 03-10-2018 05:40:00 11 C 94 % 10.07 C
927 03-10-2018 05:45:00 10.9 C 94 % 9.97 C
928 03-10-2018 05:50:00 10.9 C 94 % 9.97 C
929 03-10-2018 05:55:00 11 C 94 % 10.07 C
930 03-10-2018 06:00:00 11.1 C 95 % 10.33 C
931 03-10-2018 06:05:00 11.1 C 95 % 10.33 C
932 03-10-2018 06:10:00 11.1 C 95 % 10.33 C
933 03-10-2018 06:15:00 11.1 C 95 % 10.33 C
934 03-10-2018 06:20:00 10.9 C 94 % 9.97 C
935 03-10-2018 06:25:00 10.8 C 94 % 9.87 C
936 03-10-2018 06:30:00 10.8 C 94 % 9.87 C
937 03-10-2018 06:35:00 10.7 C 94 % 9.77 C
938 03-10-2018 06:40:00 10.6 C 94 % 9.68 C
939 03-10-2018 06:45:00 10.5 C 94 % 9.58 C
940 03-10-2018 06:50:00 10.4 C 94 % 9.48 C
941 03-10-2018 06:55:00 10.4 C 94 % 9.48 C
942 03-10-2018 07:00:00 10.3 C 94 % 9.38 C
943 03-10-2018 07:05:00 10.4 C 95 % 9.63 C
944 03-10-2018 07:10:00 10.4 C 95 % 9.63 C
945 03-10-2018 07:15:00 10.5 C 95 % 9.73 C
946 03-10-2018 07:20:00 10.6 C 95 % 9.83 C
947 03-10-2018 07:25:00 10.6 C 95 % 9.83 C
948 03-10-2018 07:30:00 10.6 C 95 % 9.83 C
949 03-10-2018 07:35:00 10.5 C 95 % 9.73 C
950 03-10-2018 07:40:00 10.4 C 95 % 9.63 C
Sensor: Nr:Datum:Temp:Feuchte:Taupunkt:
Aussen-T/F 951 03-10-2018 07:45:00 10.4 C 95 % 9.63 C
952 03-10-2018 07:50:00 10.4 C 95 % 9.63 C
953 03-10-2018 07:55:00 10.4 C 95 % 9.63 C
954 03-10-2018 08:00:00 10.4 C 95 % 9.63 C
955 03-10-2018 08:05:00 10.4 C 95 % 9.63 C
956 03-10-2018 08:10:00 10.3 C 95 % 9.54 C
957 03-10-2018 08:15:00 10.4 C 95 % 9.63 C
958 03-10-2018 08:20:00 10.4 C 95 % 9.63 C
959 03-10-2018 08:25:00 10.4 C 95 % 9.63 C
960 03-10-2018 08:30:00 10.4 C 95 % 9.63 C
961 03-10-2018 08:35:00 10.4 C 95 % 9.63 C
962 03-10-2018 08:40:00 10.4 C 95 % 9.63 C
963 03-10-2018 08:45:00 10.4 C 95 % 9.63 C
964 03-10-2018 08:50:00 10.4 C 95 % 9.63 C
965 03-10-2018 08:55:00 10.5 C 95 % 9.73 C
966 03-10-2018 09:00:00 10.6 C 95 % 9.83 C
967 03-10-2018 09:05:00 10.6 C 95 % 9.83 C
968 03-10-2018 09:10:00 10.6 C 95 % 9.83 C
969 03-10-2018 09:15:00 10.7 C 95 % 9.93 C
970 03-10-2018 09:20:00 10.7 C 95 % 9.93 C
971 03-10-2018 09:25:00 10.8 C 95 % 10.03 C
972 03-10-2018 09:30:00 10.9 C 95 % 10.13 C
973 03-10-2018 09:35:00 11 C 95 % 10.23 C
974 03-10-2018 09:40:00 11.2 C 95 % 10.43 C
975 03-10-2018 09:45:00 11.3 C 95 % 10.53 C
Sensor: Nr:Datum:Temp:Feuchte:Taupunkt:
Aussen-T/F 976 03-10-2018 09:50:00 11.4 C 95 % 10.63 C
977 03-10-2018 09:55:00 11.5 C 94 % 10.57 C
978 03-10-2018 10:00:00 11.6 C 94 % 10.67 C
979 03-10-2018 10:05:00 11.7 C 94 % 10.77 C
980 03-10-2018 10:10:00 11.8 C 93 % 10.71 C
981 03-10-2018 10:15:00 11.8 C 93 % 10.71 C
982 03-10-2018 10:20:00 11.9 C 92 % 10.64 C
983 03-10-2018 10:25:00 12.1 C 92 % 10.84 C
984 03-10-2018 10:30:00 12.2 C 92 % 10.94 C
985 03-10-2018 10:35:00 12.3 C 92 % 11.04 C
986 03-10-2018 10:40:00 12.4 C 90 % 10.81 C
987 03-10-2018 10:45:00 12.6 C 89 % 10.84 C
988 03-10-2018 10:50:00 12.7 C 88 % 10.77 C
989 03-10-2018 10:55:00 12.9 C 88 % 10.96 C
990 03-10-2018 11:00:00 13.1 C 86 % 10.81 C
991 03-10-2018 11:05:00 13.2 C 85 % 10.74 C
992 03-10-2018 11:10:00 13.3 C 83 % 10.48 C
993 03-10-2018 11:15:00 13.5 C 80 % 10.12 C
994 03-10-2018 11:20:00 13.6 C 78 % 9.84 C
995 03-10-2018 11:25:00 13.8 C 77 % 9.84 C
996 03-10-2018 11:30:00 13.9 C 78 % 10.13 C
997 03-10-2018 11:35:00 13.9 C 76 % 9.74 C
998 03-10-2018 11:40:00 14 C 76 % 9.84 C
999 03-10-2018 11:45:00 14 C 76 % 9.84 C
1000 03-10-2018 11:50:00 14.1 C 75 % 9.74 C
Sensor: Nr:Datum:Temp:Feuchte:Taupunkt:
Aussen-T/F 1001 03-10-2018 11:55:00 14.2 C 74 % 9.64 C
1002 03-10-2018 12:00:00 14.3 C 74 % 9.73 C
1003 03-10-2018 12:05:00 14.4 C 74 % 9.83 C
1004 03-10-2018 12:10:00 14.4 C 73 % 9.63 C
1005 03-10-2018 12:15:00 14.6 C 73 % 9.82 C
1006 03-10-2018 12:20:00 14.6 C 73 % 9.82 C
1007 03-10-2018 12:25:00 14.6 C 71 % 9.41 C
1008 03-10-2018 12:30:00 14.7 C 71 % 9.5 C
1009 03-10-2018 12:35:00 14.7 C 71 % 9.5 C
1010 03-10-2018 12:40:00 14.7 C 72 % 9.71 C
1011 03-10-2018 12:45:00 14.7 C 72 % 9.71 C
1012 03-10-2018 12:50:00 14.6 C 72 % 9.61 C
1013 03-10-2018 12:55:00 14.7 C 72 % 9.71 C
1014 03-10-2018 13:00:00 14.7 C 72 % 9.71 C
1015 03-10-2018 13:05:00 14.7 C 71 % 9.5 C
1016 03-10-2018 13:10:00 14.8 C 71 % 9.6 C
1017 03-10-2018 13:15:00 14.9 C 70 % 9.48 C
1018 03-10-2018 13:20:00 15.1 C 68 % 9.24 C
1019 03-10-2018 13:25:00 15.1 C 68 % 9.24 C
1020 03-10-2018 13:30:00 14.9 C 67 % 8.83 C
1021 03-10-2018 13:35:00 14.9 C 67 % 8.83 C
1022 03-10-2018 13:40:00 14.8 C 66 % 8.52 C
1023 03-10-2018 13:45:00 14.8 C 66 % 8.52 C
1024 03-10-2018 13:50:00 14.9 C 65 % 8.39 C
1025 03-10-2018 13:55:00 14.9 C 67 % 8.83 C
Sensor: Nr:Datum:Temp:Feuchte:Taupunkt:
Aussen-T/F 1026 03-10-2018 14:00:00 15 C 65 % 8.48 C
1027 03-10-2018 14:05:00 15.1 C 65 % 8.58 C
1028 03-10-2018 14:10:00 15.1 C 62 % 7.88 C
1029 03-10-2018 14:15:00 15.2 C 64 % 8.44 C
1030 03-10-2018 14:20:00 15.3 C 63 % 8.31 C
1031 03-10-2018 14:25:00 15.6 C 62 % 8.35 C
1032 03-10-2018 14:30:00 15.6 C 61 % 8.11 C
1033 03-10-2018 14:35:00 15.6 C 61 % 8.11 C
1034 03-10-2018 14:40:00 15.6 C 61 % 8.11 C
1035 03-10-2018 14:45:00 15.7 C 62 % 8.45 C
1036 03-10-2018 14:50:00 15.8 C 61 % 8.3 C
1037 03-10-2018 14:55:00 15.8 C 59 % 7.81 C
1038 03-10-2018 15:00:00 15.7 C 59 % 7.72 C
1039 03-10-2018 15:05:00 15.7 C 59 % 7.72 C
1040 03-10-2018 15:10:00 15.7 C 60 % 7.97 C
1041 03-10-2018 15:15:00 15.7 C 60 % 7.97 C
1042 03-10-2018 15:20:00 15.7 C 61 % 8.21 C
1043 03-10-2018 15:25:00 15.7 C 63 % 8.68 C
1044 03-10-2018 15:30:00 15.6 C 61 % 8.11 C
1045 03-10-2018 15:35:00 15.6 C 60 % 7.87 C
1046 03-10-2018 15:40:00 15.6 C 61 % 8.11 C
1047 03-10-2018 15:45:00 15.6 C 62 % 8.35 C
1048 03-10-2018 15:50:00 15.7 C 59 % 7.72 C
1049 03-10-2018 15:55:00 15.7 C 60 % 7.97 C
1050 03-10-2018 16:00:00 15.7 C 60 % 7.97 C
Sensor: Nr:Datum:Temp:Feuchte:Taupunkt:
Aussen-T/F 1051 03-10-2018 16:05:00 15.7 C 60 % 7.97 C
1052 03-10-2018 16:10:00 15.7 C 61 % 8.21 C
1053 03-10-2018 16:15:00 15.7 C 59 % 7.72 C
1054 03-10-2018 16:20:00 15.8 C 60 % 8.06 C
1055 03-10-2018 16:25:00 15.8 C 58 % 7.56 C
1056 03-10-2018 16:30:00 15.8 C 59 % 7.81 C
1057 03-10-2018 16:35:00 15.7 C 58 % 7.47 C
1058 03-10-2018 16:40:00 15.7 C 58 % 7.47 C
1059 03-10-2018 16:45:00 15.7 C 59 % 7.72 C
1060 03-10-2018 16:50:00 15.7 C 59 % 7.72 C
1061 03-10-2018 16:55:00 15.7 C 58 % 7.47 C
1062 03-10-2018 17:00:00 15.6 C 59 % 7.62 C
1063 03-10-2018 17:05:00 15.6 C 59 % 7.62 C
1064 03-10-2018 17:10:00 15.6 C 60 % 7.87 C
1065 03-10-2018 17:15:00 15.5 C 61 % 8.02 C
1066 03-10-2018 17:20:00 15.4 C 60 % 7.68 C
1067 03-10-2018 17:25:00 15.4 C 60 % 7.68 C
1068 03-10-2018 17:30:00 15.3 C 60 % 7.59 C
1069 03-10-2018 17:35:00 15.3 C 61 % 7.83 C
1070 03-10-2018 17:40:00 15.3 C 61 % 7.83 C
1071 03-10-2018 17:45:00 15.2 C 62 % 7.98 C
1072 03-10-2018 17:50:00 15.2 C 61 % 7.74 C
1073 03-10-2018 17:55:00 15.2 C 63 % 8.21 C
1074 03-10-2018 18:00:00 15.1 C 62 % 7.88 C
1075 03-10-2018 18:05:00 15 C 63 % 8.02 C
Sensor: Nr:Datum:Temp:Feuchte:Taupunkt:
Aussen-T/F 1076 03-10-2018 18:10:00 14.9 C 64 % 8.16 C
1077 03-10-2018 18:15:00 14.9 C 65 % 8.39 C
1078 03-10-2018 18:20:00 14.9 C 64 % 8.16 C
1079 03-10-2018 18:25:00 14.9 C 63 % 7.93 C
1080 03-10-2018 18:30:00 15 C 63 % 8.02 C
1081 03-10-2018 18:35:00 14.9 C 63 % 7.93 C
1082 03-10-2018 18:40:00 14.9 C 64 % 8.16 C
1083 03-10-2018 18:45:00 14.9 C 66 % 8.61 C
1084 03-10-2018 18:50:00 14.8 C 68 % 8.96 C
1085 03-10-2018 18:55:00 14.5 C 68 % 8.67 C
1086 03-10-2018 19:00:00 14.2 C 68 % 8.39 C
1087 03-10-2018 19:05:00 13.9 C 68 % 8.1 C
1088 03-10-2018 19:10:00 13.7 C 70 % 8.33 C
1089 03-10-2018 19:15:00 13.4 C 71 % 8.26 C
1090 03-10-2018 19:20:00 13.1 C 72 % 8.17 C
1091 03-10-2018 19:25:00 12.8 C 73 % 8.09 C
1092 03-10-2018 19:30:00 12.6 C 75 % 8.29 C
1093 03-10-2018 19:35:00 12.3 C 75 % 8 C
1094 03-10-2018 19:40:00 12.1 C 77 % 8.2 C
1095 03-10-2018 19:45:00 11.9 C 77 % 8 C
1096 03-10-2018 19:50:00 11.7 C 78 % 8 C
1097 03-10-2018 19:55:00 11.6 C 78 % 7.9 C
1098 03-10-2018 20:00:00 11.5 C 79 % 7.99 C
1099 03-10-2018 20:05:00 11.4 C 79 % 7.89 C
1100 03-10-2018 20:10:00 11.3 C 79 % 7.8 C
Sensor: Nr:Datum:Temp:Feuchte:Taupunkt:
Aussen-T/F 1101 03-10-2018 20:15:00 11.3 C 78 % 7.61 C
1102 03-10-2018 20:20:00 11.2 C 79 % 7.7 C
1103 03-10-2018 20:25:00 11.2 C 79 % 7.7 C
1104 03-10-2018 20:30:00 11.2 C 79 % 7.7 C
1105 03-10-2018 20:35:00 11.2 C 79 % 7.7 C
1106 03-10-2018 20:40:00 11.1 C 79 % 7.6 C
1107 03-10-2018 20:45:00 11.1 C 80 % 7.79 C
1108 03-10-2018 20:50:00 10.9 C 80 % 7.59 C
1109 03-10-2018 20:55:00 10.8 C 80 % 7.49 C
1110 03-10-2018 21:00:00 10.7 C 81 % 7.58 C
1111 03-10-2018 21:05:00 10.4 C 82 % 7.46 C
1112 03-10-2018 21:10:00 10.2 C 82 % 7.27 C
1113 03-10-2018 21:15:00 9.9 C 83 % 7.15 C
1114 03-10-2018 21:20:00 9.7 C 84 % 7.13 C
1115 03-10-2018 21:25:00 9.6 C 85 % 7.21 C
1116 03-10-2018 21:30:00 9.4 C 85 % 7.01 C
1117 03-10-2018 21:35:00 9.3 C 86 % 7.08 C
1118 03-10-2018 21:40:00 9.2 C 86 % 6.98 C
1119 03-10-2018 21:45:00 9 C 87 % 6.96 C
1120 03-10-2018 21:50:00 8.9 C 87 % 6.86 C
1121 03-10-2018 21:55:00 8.8 C 88 % 6.93 C
1122 03-10-2018 22:00:00 8.8 C 88 % 6.93 C
1123 03-10-2018 22:05:00 8.7 C 88 % 6.83 C
1124 03-10-2018 22:10:00 8.7 C 88 % 6.83 C
1125 03-10-2018 22:15:00 8.7 C 88 % 6.83 C
Sensor: Nr:Datum:Temp:Feuchte:Taupunkt:
Aussen-T/F 1126 03-10-2018 22:20:00 8.6 C 89 % 6.89 C
1127 03-10-2018 22:25:00 8.6 C 89 % 6.89 C
1128 03-10-2018 22:30:00 8.6 C 89 % 6.89 C
1129 03-10-2018 22:35:00 8.5 C 89 % 6.79 C
1130 03-10-2018 22:40:00 8.4 C 89 % 6.7 C
1131 03-10-2018 22:45:00 8.4 C 89 % 6.7 C
1132 03-10-2018 22:50:00 8.4 C 89 % 6.7 C
1133 03-10-2018 22:55:00 8.3 C 89 % 6.6 C
1134 03-10-2018 23:00:00 8.3 C 90 % 6.76 C
1135 03-10-2018 23:05:00 8.3 C 90 % 6.76 C
1136 03-10-2018 23:10:00 8.3 C 90 % 6.76 C
1137 03-10-2018 23:15:00 8.2 C 90 % 6.66 C
1138 03-10-2018 23:20:00 8.2 C 90 % 6.66 C
1139 03-10-2018 23:25:00 8.1 C 90 % 6.56 C
1140 03-10-2018 23:30:00 8.1 C 90 % 6.56 C
1141 03-10-2018 23:35:00 8 C 90 % 6.46 C
1142 03-10-2018 23:40:00 8 C 90 % 6.46 C
1143 03-10-2018 23:45:00 7.9 C 90 % 6.36 C
1144 03-10-2018 23:50:00 7.8 C 90 % 6.27 C
1145 03-10-2018 23:55:00 7.8 C 90 % 6.27 C
1146 04-10-2018 00:00:00 7.8 C 91 % 6.43 C
1147 04-10-2018 00:05:00 7.7 C 91 % 6.33 C
1148 04-10-2018 00:10:00 7.7 C 91 % 6.33 C
1149 04-10-2018 00:15:00 7.7 C 91 % 6.33 C
1150 04-10-2018 00:20:00 7.7 C 91 % 6.33 C
Sensor: Nr:Datum:Temp:Feuchte:Taupunkt:
Aussen-T/F 1151 04-10-2018 00:25:00 7.7 C 91 % 6.33 C
1152 04-10-2018 00:30:00 7.6 C 91 % 6.23 C
1153 04-10-2018 00:35:00 7.5 C 91 % 6.13 C
1154 04-10-2018 00:40:00 7.4 C 91 % 6.03 C
1155 04-10-2018 00:45:00 7.2 C 91 % 5.83 C
1156 04-10-2018 00:50:00 7.1 C 91 % 5.73 C
1157 04-10-2018 00:55:00 7 C 91 % 5.63 C
1158 04-10-2018 01:00:00 6.9 C 91 % 5.54 C
1159 04-10-2018 01:05:00 6.8 C 92 % 5.59 C
1160 04-10-2018 01:10:00 6.8 C 92 % 5.59 C
1161 04-10-2018 01:15:00 6.8 C 92 % 5.59 C
1162 04-10-2018 01:20:00 6.7 C 92 % 5.49 C
1163 04-10-2018 01:25:00 6.7 C 92 % 5.49 C
1164 04-10-2018 01:30:00 6.7 C 92 % 5.49 C
1165 04-10-2018 01:35:00 6.6 C 92 % 5.4 C
1166 04-10-2018 01:40:00 6.6 C 92 % 5.4 C
1167 04-10-2018 01:45:00 6.5 C 92 % 5.3 C
1168 04-10-2018 01:50:00 6.4 C 92 % 5.2 C
1169 04-10-2018 01:55:00 6.3 C 93 % 5.25 C
1170 04-10-2018 02:00:00 6.3 C 92 % 5.1 C
1171 04-10-2018 02:05:00 6.3 C 93 % 5.25 C
1172 04-10-2018 02:10:00 6.2 C 93 % 5.15 C
1173 04-10-2018 02:15:00 6.2 C 93 % 5.15 C
1174 04-10-2018 02:20:00 6.1 C 93 % 5.06 C
1175 04-10-2018 02:25:00 6 C 93 % 4.96 C
Sensor: Nr:Datum:Temp:Feuchte:Taupunkt:
Aussen-T/F 1176 04-10-2018 02:30:00 6 C 93 % 4.96 C
1177 04-10-2018 02:35:00 5.9 C 93 % 4.86 C
1178 04-10-2018 02:40:00 5.9 C 93 % 4.86 C
1179 04-10-2018 02:45:00 5.9 C 93 % 4.86 C
1180 04-10-2018 02:50:00 5.9 C 93 % 4.86 C
1181 04-10-2018 02:55:00 5.8 C 94 % 4.91 C
1182 04-10-2018 03:00:00 5.8 C 94 % 4.91 C
1183 04-10-2018 03:05:00 5.9 C 94 % 5.01 C
1184 04-10-2018 03:10:00 5.9 C 94 % 5.01 C
1185 04-10-2018 03:15:00 5.9 C 94 % 5.01 C
1186 04-10-2018 03:20:00 5.9 C 94 % 5.01 C
1187 04-10-2018 03:25:00 5.8 C 94 % 4.91 C
1188 04-10-2018 03:30:00 5.8 C 94 % 4.91 C
1189 04-10-2018 03:35:00 5.7 C 94 % 4.81 C
1190 04-10-2018 03:40:00 5.7 C 94 % 4.81 C
1191 04-10-2018 03:45:00 5.6 C 94 % 4.71 C
1192 04-10-2018 03:50:00 5.6 C 94 % 4.71 C
1193 04-10-2018 03:55:00 5.6 C 94 % 4.71 C
1194 04-10-2018 04:00:00 5.7 C 94 % 4.81 C
1195 04-10-2018 04:05:00 5.7 C 94 % 4.81 C
1196 04-10-2018 04:10:00 5.7 C 94 % 4.81 C
1197 04-10-2018 04:15:00 5.7 C 94 % 4.81 C
1198 04-10-2018 04:20:00 5.5 C 94 % 4.61 C
1199 04-10-2018 04:25:00 5.4 C 94 % 4.51 C
1200 04-10-2018 04:30:00 5.4 C 94 % 4.51 C
Sensor: Nr:Datum:Temp:Feuchte:Taupunkt:
Aussen-T/F 1201 04-10-2018 04:35:00 5.4 C 95 % 4.66 C
1202 04-10-2018 04:40:00 5.5 C 95 % 4.76 C
1203 04-10-2018 04:45:00 5.4 C 95 % 4.66 C
1204 04-10-2018 04:50:00 5.3 C 94 % 4.41 C
1205 04-10-2018 04:55:00 5.3 C 94 % 4.41 C
1206 04-10-2018 05:00:00 5.2 C 94 % 4.32 C
1207 04-10-2018 05:05:00 5.2 C 94 % 4.32 C
1208 04-10-2018 05:10:00 5.2 C 94 % 4.32 C
1209 04-10-2018 05:15:00 5.2 C 94 % 4.32 C
1210 04-10-2018 05:20:00 5.2 C 94 % 4.32 C
1211 04-10-2018 05:25:00 5.1 C 95 % 4.37 C
1212 04-10-2018 05:30:00 5.1 C 94 % 4.22 C
1213 04-10-2018 05:35:00 5 C 94 % 4.12 C
1214 04-10-2018 05:40:00 5.1 C 95 % 4.37 C
1215 04-10-2018 05:45:00 5.1 C 95 % 4.37 C
1216 04-10-2018 05:50:00 5.1 C 95 % 4.37 C
1217 04-10-2018 05:55:00 5 C 95 % 4.27 C
1218 04-10-2018 06:00:00 4.9 C 95 % 4.17 C
1219 04-10-2018 06:05:00 4.8 C 95 % 4.07 C
1220 04-10-2018 06:10:00 4.8 C 95 % 4.07 C
1221 04-10-2018 06:15:00 4.8 C 95 % 4.07 C
1222 04-10-2018 06:20:00 4.8 C 95 % 4.07 C
1223 04-10-2018 06:25:00 4.9 C 95 % 4.17 C
1224 04-10-2018 06:30:00 4.9 C 95 % 4.17 C
1225 04-10-2018 06:35:00 4.8 C 95 % 4.07 C
Sensor: Nr:Datum:Temp:Feuchte:Taupunkt:
Aussen-T/F 1226 04-10-2018 06:40:00 4.7 C 95 % 3.97 C
1227 04-10-2018 06:45:00 4.6 C 95 % 3.87 C
1228 04-10-2018 06:50:00 4.6 C 95 % 3.87 C
1229 04-10-2018 06:55:00 4.7 C 95 % 3.97 C
1230 04-10-2018 07:00:00 4.7 C 95 % 3.97 C
1231 04-10-2018 07:05:00 4.7 C 95 % 3.97 C
1232 04-10-2018 07:10:00 4.7 C 95 % 3.97 C
1233 04-10-2018 07:15:00 4.6 C 95 % 3.87 C
1234 04-10-2018 07:20:00 4.6 C 95 % 3.87 C
1235 04-10-2018 07:25:00 4.4 C 95 % 3.67 C
1236 04-10-2018 07:30:00 4.4 C 95 % 3.67 C
1237 04-10-2018 07:35:00 4.3 C 95 % 3.57 C
1238 04-10-2018 07:40:00 4.3 C 95 % 3.57 C
1239 04-10-2018 07:45:00 4.3 C 95 % 3.57 C
1240 04-10-2018 07:50:00 4.3 C 95 % 3.57 C
1241 04-10-2018 07:55:00 4.3 C 95 % 3.57 C
1242 04-10-2018 08:00:00 4.3 C 95 % 3.57 C
1243 04-10-2018 08:05:00 4.4 C 95 % 3.67 C
1244 04-10-2018 08:10:00 4.4 C 95 % 3.67 C
1245 04-10-2018 08:15:00 4.4 C 95 % 3.67 C
1246 04-10-2018 08:20:00 4.4 C 95 % 3.67 C
1247 04-10-2018 08:25:00 4.5 C 96 % 3.92 C
1248 04-10-2018 08:30:00 4.7 C 96 % 4.12 C
1249 04-10-2018 08:35:00 4.8 C 96 % 4.22 C
1250 04-10-2018 08:40:00 4.9 C 96 % 4.32 C
Sensor: Nr:Datum:Temp:Feuchte:Taupunkt:
Aussen-T/F 1251 04-10-2018 08:45:00 5.1 C 96 % 4.52 C
1252 04-10-2018 08:50:00 5.2 C 96 % 4.62 C
1253 04-10-2018 08:55:00 5.4 C 96 % 4.81 C
1254 04-10-2018 09:00:00 5.6 C 96 % 5.01 C
1255 04-10-2018 09:05:00 5.8 C 96 % 5.21 C
1256 04-10-2018 09:10:00 5.9 C 96 % 5.31 C
1257 04-10-2018 09:15:00 6.1 C 96 % 5.51 C
1258 04-10-2018 09:20:00 6.2 C 96 % 5.61 C
1259 04-10-2018 09:25:00 6.3 C 96 % 5.71 C
1260 04-10-2018 09:30:00 6.5 C 96 % 5.91 C
1261 04-10-2018 09:35:00 6.6 C 96 % 6.01 C
1262 04-10-2018 09:40:00 6.7 C 96 % 6.11 C
1263 04-10-2018 09:45:00 6.8 C 96 % 6.21 C
1264 04-10-2018 09:50:00 7 C 96 % 6.41 C
1265 04-10-2018 09:55:00 7.1 C 96 % 6.51 C
1266 04-10-2018 10:00:00 7.2 C 96 % 6.61 C
1267 04-10-2018 10:05:00 7.3 C 96 % 6.71 C
1268 04-10-2018 10:10:00 7.4 C 96 % 6.8 C
1269 04-10-2018 10:15:00 7.6 C 96 % 7 C
1270 04-10-2018 10:20:00 7.7 C 95 % 6.95 C
1271 04-10-2018 10:25:00 7.8 C 95 % 7.05 C
1272 04-10-2018 10:30:00 8 C 95 % 7.25 C
1273 04-10-2018 10:35:00 8.2 C 95 % 7.45 C
1274 04-10-2018 10:40:00 8.3 C 94 % 7.39 C
1275 04-10-2018 10:45:00 8.4 C 94 % 7.49 C
Sensor: Nr:Datum:Temp:Feuchte:Taupunkt:
Aussen-T/F 1276 04-10-2018 10:50:00 8.6 C 93 % 7.53 C
1277 04-10-2018 10:55:00 8.8 C 93 % 7.73 C
1278 04-10-2018 11:00:00 9.1 C 93 % 8.03 C
1279 04-10-2018 11:05:00 9.2 C 92 % 7.97 C
1280 04-10-2018 11:10:00 9.5 C 92 % 8.27 C
1281 04-10-2018 11:15:00 9.7 C 92 % 8.46 C
1282 04-10-2018 11:20:00 9.9 C 91 % 8.5 C
1283 04-10-2018 11:25:00 10.2 C 90 % 8.64 C
1284 04-10-2018 11:30:00 10.4 C 90 % 8.83 C
1285 04-10-2018 11:35:00 10.7 C 89 % 8.96 C
1286 04-10-2018 11:40:00 10.9 C 88 % 8.99 C
1287 04-10-2018 11:45:00 11.2 C 88 % 9.29 C
1288 04-10-2018 11:50:00 11.4 C 86 % 9.14 C
1289 04-10-2018 11:55:00 11.7 C 85 % 9.27 C
1290 04-10-2018 12:00:00 11.7 C 84 % 9.09 C
1291 04-10-2018 12:05:00 11.8 C 85 % 9.36 C
1292 04-10-2018 12:10:00 11.8 C 84 % 9.19 C
1293 04-10-2018 12:15:00 11.9 C 84 % 9.29 C
1294 04-10-2018 12:20:00 11.9 C 85 % 9.46 C
1295 04-10-2018 12:25:00 11.9 C 86 % 9.64 C
1296 04-10-2018 12:30:00 12 C 86 % 9.73 C
1297 04-10-2018 12:35:00 12.1 C 87 % 10 C
1298 04-10-2018 12:40:00 12.2 C 87 % 10.1 C
1299 04-10-2018 12:45:00 12.3 C 86 % 10.03 C
1300 04-10-2018 12:50:00 12.4 C 87 % 10.3 C
Sensor: Nr:Datum:Temp:Feuchte:Taupunkt:
Aussen-T/F 1301 04-10-2018 12:55:00 12.6 C 87 % 10.5 C
1302 04-10-2018 13:00:00 12.7 C 85 % 10.25 C
1303 04-10-2018 13:05:00 12.7 C 85 % 10.25 C
1304 04-10-2018 13:10:00 12.8 C 86 % 10.52 C
1305 04-10-2018 13:15:00 12.8 C 86 % 10.52 C
1306 04-10-2018 13:20:00 12.8 C 86 % 10.52 C
1307 04-10-2018 13:25:00 12.8 C 86 % 10.52 C
1308 04-10-2018 13:30:00 12.9 C 86 % 10.62 C
1309 04-10-2018 13:35:00 12.9 C 86 % 10.62 C
1310 04-10-2018 13:40:00 12.8 C 86 % 10.52 C
1311 04-10-2018 13:45:00 12.9 C 86 % 10.62 C
1312 04-10-2018 13:50:00 12.9 C 86 % 10.62 C
1313 04-10-2018 13:55:00 12.9 C 87 % 10.79 C
1314 04-10-2018 14:00:00 13.1 C 87 % 10.99 C
1315 04-10-2018 14:05:00 13.3 C 86 % 11.01 C
1316 04-10-2018 14:10:00 13.5 C 86 % 11.21 C
1317 04-10-2018 14:15:00 13.7 C 86 % 11.4 C
1318 04-10-2018 14:20:00 13.9 C 85 % 11.42 C
1319 04-10-2018 14:25:00 14.2 C 85 % 11.72 C
1320 04-10-2018 14:30:00 14.6 C 80 % 11.19 C
1321 04-10-2018 14:35:00 15.1 C 76 % 10.9 C
1322 04-10-2018 14:40:00 15.8 C 72 % 10.77 C
1323 04-10-2018 14:45:00 16.2 C 72 % 11.15 C
1324 04-10-2018 14:50:00 16.5 C 69 % 10.8 C
1325 04-10-2018 14:55:00 16.6 C 69 % 10.89 C
Sensor: Nr:Datum:Temp:Feuchte:Taupunkt:
Aussen-T/F 1326 04-10-2018 15:00:00 16.7 C 70 % 11.21 C
1327 04-10-2018 15:05:00 16.7 C 68 % 10.77 C
1328 04-10-2018 15:10:00 16.6 C 67 % 10.45 C
1329 04-10-2018 15:15:00 16.6 C 70 % 11.11 C
1330 04-10-2018 15:20:00 16.5 C 67 % 10.36 C
1331 04-10-2018 15:25:00 16.5 C 67 % 10.36 C
1332 04-10-2018 15:30:00 16.6 C 68 % 10.67 C
1333 04-10-2018 15:35:00 16.6 C 67 % 10.45 C
1334 04-10-2018 15:40:00 16.7 C 67 % 10.55 C
1335 04-10-2018 15:45:00 16.7 C 67 % 10.55 C
1336 04-10-2018 15:50:00 16.7 C 68 % 10.77 C
1337 04-10-2018 15:55:00 16.8 C 67 % 10.64 C
1338 04-10-2018 16:00:00 16.8 C 67 % 10.64 C
1339 04-10-2018 16:05:00 16.9 C 66 % 10.51 C
1340 04-10-2018 16:10:00 17 C 66 % 10.61 C
1341 04-10-2018 16:15:00 17 C 65 % 10.38 C
1342 04-10-2018 16:20:00 17 C 65 % 10.38 C
1343 04-10-2018 16:25:00 17 C 67 % 10.83 C
1344 04-10-2018 16:30:00 17 C 66 % 10.61 C
1345 04-10-2018 16:35:00 17 C 67 % 10.83 C
1346 04-10-2018 16:40:00 16.9 C 69 % 11.18 C
1347 04-10-2018 16:45:00 16.9 C 67 % 10.74 C
1348 04-10-2018 16:50:00 17.2 C 66 % 10.8 C
1349 04-10-2018 16:55:00 17.4 C 65 % 10.76 C
1350 04-10-2018 17:00:00 17.5 C 65 % 10.85 C
Sensor: Nr:Datum:Temp:Feuchte:Taupunkt:
Aussen-T/F 1351 04-10-2018 17:05:00 17.5 C 65 % 10.85 C
1352 04-10-2018 17:10:00 17.5 C 65 % 10.85 C
1353 04-10-2018 17:15:00 17.5 C 64 % 10.62 C
1354 04-10-2018 17:20:00 17.5 C 66 % 11.08 C
1355 04-10-2018 17:25:00 17.5 C 68 % 11.53 C
1356 04-10-2018 17:30:00 17.4 C 67 % 11.21 C
1357 04-10-2018 17:35:00 17.6 C 69 % 11.85 C
1358 04-10-2018 17:40:00 17.6 C 70 % 12.07 C
1359 04-10-2018 17:45:00 17.5 C 70 % 11.97 C
1360 04-10-2018 17:50:00 17.4 C 70 % 11.88 C
1361 04-10-2018 17:55:00 17.3 C 71 % 12 C
1362 04-10-2018 18:00:00 17.1 C 72 % 12.02 C
1363 04-10-2018 18:05:00 17 C 72 % 11.92 C
1364 04-10-2018 18:10:00 16.9 C 73 % 12.03 C
1365 04-10-2018 18:15:00 16.8 C 72 % 11.73 C
1366 04-10-2018 18:20:00 16.7 C 72 % 11.63 C
1367 04-10-2018 18:25:00 16.5 C 73 % 11.65 C
1368 04-10-2018 18:30:00 16.2 C 73 % 11.36 C
1369 04-10-2018 18:35:00 16 C 74 % 11.37 C
1370 04-10-2018 18:40:00 15.7 C 75 % 11.28 C
1371 04-10-2018 18:45:00 15.4 C 76 % 11.19 C
1372 04-10-2018 18:50:00 15.2 C 76 % 11 C
1373 04-10-2018 18:55:00 14.9 C 77 % 10.91 C
1374 04-10-2018 19:00:00 14.7 C 78 % 10.91 C
1375 04-10-2018 19:05:00 14.4 C 78 % 10.62 C
Sensor: Nr:Datum:Temp:Feuchte:Taupunkt:
Aussen-T/F 1376 04-10-2018 19:10:00 14.1 C 79 % 10.52 C
1377 04-10-2018 19:15:00 13.9 C 80 % 10.51 C
1378 04-10-2018 19:20:00 13.7 C 80 % 10.32 C
1379 04-10-2018 19:25:00 13.6 C 81 % 10.4 C
1380 04-10-2018 19:30:00 13.4 C 81 % 10.21 C
1381 04-10-2018 19:35:00 13.3 C 82 % 10.3 C
1382 04-10-2018 19:40:00 13.2 C 82 % 10.2 C
1383 04-10-2018 19:45:00 13 C 83 % 10.18 C
1384 04-10-2018 19:50:00 12.9 C 83 % 10.09 C
1385 04-10-2018 19:55:00 12.7 C 84 % 10.07 C
1386 04-10-2018 20:00:00 12.5 C 84 % 9.87 C
1387 04-10-2018 20:05:00 12.3 C 85 % 9.85 C
1388 04-10-2018 20:10:00 12.1 C 85 % 9.66 C
1389 04-10-2018 20:15:00 11.8 C 86 % 9.54 C
1390 04-10-2018 20:20:00 11.7 C 86 % 9.44 C
1391 04-10-2018 20:25:00 11.6 C 86 % 9.34 C
1392 04-10-2018 20:30:00 11.4 C 87 % 9.32 C
1393 04-10-2018 20:35:00 11.3 C 88 % 9.39 C
1394 04-10-2018 20:40:00 11.2 C 88 % 9.29 C
1395 04-10-2018 20:45:00 11.1 C 88 % 9.19 C
1396 04-10-2018 20:50:00 11 C 89 % 9.26 C
1397 04-10-2018 20:55:00 10.9 C 88 % 8.99 C
1398 04-10-2018 21:00:00 10.7 C 89 % 8.96 C
1399 04-10-2018 21:05:00 10.6 C 89 % 8.86 C
1400 04-10-2018 21:10:00 10.6 C 89 % 8.86 C
Sensor: Nr:Datum:Temp:Feuchte:Taupunkt:
Aussen-T/F 1401 04-10-2018 21:15:00 10.4 C 90 % 8.83 C
1402 04-10-2018 21:20:00 10.3 C 89 % 8.57 C
1403 04-10-2018 21:25:00 10.2 C 90 % 8.64 C
1404 04-10-2018 21:30:00 10.2 C 90 % 8.64 C
1405 04-10-2018 21:35:00 10 C 90 % 8.44 C
1406 04-10-2018 21:40:00 9.9 C 90 % 8.34 C
1407 04-10-2018 21:45:00 9.8 C 90 % 8.24 C
1408 04-10-2018 21:50:00 9.7 C 90 % 8.14 C
1409 04-10-2018 21:55:00 9.6 C 90 % 8.04 C
1410 04-10-2018 22:00:00 9.4 C 90 % 7.85 C
1411 04-10-2018 22:05:00 9.3 C 91 % 7.91 C
1412 04-10-2018 22:10:00 9.3 C 91 % 7.91 C
1413 04-10-2018 22:15:00 9.3 C 92 % 8.07 C
1414 04-10-2018 22:20:00 9.2 C 91 % 7.81 C
1415 04-10-2018 22:25:00 9.1 C 91 % 7.71 C
1416 04-10-2018 22:30:00 9.1 C 92 % 7.87 C
1417 04-10-2018 22:35:00 9 C 92 % 7.77 C
1418 04-10-2018 22:40:00 8.9 C 92 % 7.67 C
1419 04-10-2018 22:45:00 8.8 C 92 % 7.57 C
1420 04-10-2018 22:50:00 8.7 C 92 % 7.47 C
1421 04-10-2018 22:55:00 8.6 C 92 % 7.38 C
1422 04-10-2018 23:00:00 8.5 C 92 % 7.28 C
1423 04-10-2018 23:05:00 8.4 C 92 % 7.18 C
1424 04-10-2018 23:10:00 8.3 C 92 % 7.08 C
1425 04-10-2018 23:15:00 8.3 C 92 % 7.08 C
Sensor: Nr:Datum:Temp:Feuchte:Taupunkt:
Aussen-T/F 1426 04-10-2018 23:20:00 8.2 C 93 % 7.14 C
1427 04-10-2018 23:25:00 8.2 C 93 % 7.14 C
1428 04-10-2018 23:30:00 8.3 C 93 % 7.24 C
1429 04-10-2018 23:35:00 8.3 C 93 % 7.24 C
1430 04-10-2018 23:40:00 8.2 C 93 % 7.14 C
1431 04-10-2018 23:45:00 8.2 C 93 % 7.14 C
1432 04-10-2018 23:50:00 8.1 C 93 % 7.04 C
1433 04-10-2018 23:55:00 8 C 93 % 6.94 C
1434 05-10-2018 00:00:00 8 C 93 % 6.94 C
1435 05-10-2018 00:05:00 7.9 C 93 % 6.84 C
1436 05-10-2018 00:10:00 7.8 C 93 % 6.74 C
1437 05-10-2018 00:15:00 7.8 C 93 % 6.74 C
1438 05-10-2018 00:20:00 7.7 C 93 % 6.64 C
1439 05-10-2018 00:25:00 7.7 C 94 % 6.8 C
1440 05-10-2018 00:30:00 7.6 C 93 % 6.54 C
1441 05-10-2018 00:35:00 7.5 C 93 % 6.44 C
1442 05-10-2018 00:40:00 7.5 C 94 % 6.6 C
1443 05-10-2018 00:45:00 7.5 C 94 % 6.6 C
1444 05-10-2018 00:50:00 7.3 C 93 % 6.25 C
1445 05-10-2018 00:55:00 7.2 C 93 % 6.15 C
1446 05-10-2018 01:00:00 7.1 C 94 % 6.2 C
1447 05-10-2018 01:05:00 7.2 C 94 % 6.3 C
1448 05-10-2018 01:10:00 7.3 C 95 % 6.55 C
1449 05-10-2018 01:15:00 7.7 C 95 % 6.95 C
1450 05-10-2018 01:20:00 7.7 C 95 % 6.95 C
Sensor: Nr:Datum:Temp:Feuchte:Taupunkt:
Aussen-T/F 1451 05-10-2018 01:25:00 7.8 C 95 % 7.05 C
1452 05-10-2018 01:30:00 7.6 C 94 % 6.7 C
1453 05-10-2018 01:35:00 7.4 C 94 % 6.5 C
1454 05-10-2018 01:40:00 7.4 C 94 % 6.5 C
1455 05-10-2018 01:45:00 7.2 C 94 % 6.3 C
1456 05-10-2018 01:50:00 7 C 94 % 6.1 C
1457 05-10-2018 01:55:00 6.9 C 94 % 6 C
1458 05-10-2018 02:00:00 6.8 C 94 % 5.9 C
1459 05-10-2018 02:05:00 6.7 C 94 % 5.8 C
1460 05-10-2018 02:10:00 6.7 C 94 % 5.8 C
1461 05-10-2018 02:15:00 6.8 C 95 % 6.06 C
1462 05-10-2018 02:20:00 6.9 C 95 % 6.16 C
1463 05-10-2018 02:25:00 6.8 C 94 % 5.9 C
1464 05-10-2018 02:30:00 6.7 C 95 % 5.96 C
1465 05-10-2018 02:35:00 6.6 C 94 % 5.71 C
1466 05-10-2018 02:40:00 6.4 C 94 % 5.51 C
1467 05-10-2018 02:45:00 6.4 C 94 % 5.51 C
1468 05-10-2018 02:50:00 6.4 C 94 % 5.51 C
1469 05-10-2018 02:55:00 6.3 C 94 % 5.41 C
1470 05-10-2018 03:00:00 6.3 C 95 % 5.56 C
1471 05-10-2018 03:05:00 6.3 C 95 % 5.56 C
1472 05-10-2018 03:10:00 6.2 C 95 % 5.46 C
1473 05-10-2018 03:15:00 6.1 C 94 % 5.21 C
1474 05-10-2018 03:20:00 6 C 95 % 5.26 C
1475 05-10-2018 03:25:00 5.9 C 95 % 5.16 C
Sensor: Nr:Datum:Temp:Feuchte:Taupunkt:
Aussen-T/F 1476 05-10-2018 03:30:00 5.9 C 95 % 5.16 C
1477 05-10-2018 03:35:00 5.9 C 95 % 5.16 C
1478 05-10-2018 03:40:00 5.8 C 95 % 5.06 C
1479 05-10-2018 03:45:00 5.8 C 95 % 5.06 C
1480 05-10-2018 03:50:00 5.8 C 95 % 5.06 C
1481 05-10-2018 03:55:00 5.8 C 95 % 5.06 C
1482 05-10-2018 04:00:00 5.9 C 95 % 5.16 C
1483 05-10-2018 04:05:00 5.9 C 95 % 5.16 C
1484 05-10-2018 04:10:00 5.9 C 95 % 5.16 C
1485 05-10-2018 04:15:00 5.8 C 95 % 5.06 C
1486 05-10-2018 04:20:00 5.6 C 95 % 4.86 C
1487 05-10-2018 04:25:00 5.6 C 95 % 4.86 C
1488 05-10-2018 04:30:00 5.6 C 95 % 4.86 C
1489 05-10-2018 04:35:00 5.6 C 95 % 4.86 C
1490 05-10-2018 04:40:00 5.7 C 95 % 4.96 C
1491 05-10-2018 04:45:00 5.6 C 95 % 4.86 C
1492 05-10-2018 04:50:00 5.5 C 95 % 4.76 C
1493 05-10-2018 04:55:00 5.4 C 95 % 4.66 C
1494 05-10-2018 05:00:00 5.6 C 95 % 4.86 C
1495 05-10-2018 05:05:00 5.7 C 95 % 4.96 C
1496 05-10-2018 05:10:00 5.7 C 95 % 4.96 C
1497 05-10-2018 05:15:00 5.6 C 95 % 4.86 C
1498 05-10-2018 05:20:00 5.5 C 95 % 4.76 C
1499 05-10-2018 05:25:00 5.3 C 95 % 4.57 C
1500 05-10-2018 05:30:00 5.2 C 95 % 4.47 C
Sensor: Nr:Datum:Temp:Feuchte:Taupunkt:
Aussen-T/F 1501 05-10-2018 05:35:00 5.1 C 95 % 4.37 C
1502 05-10-2018 05:40:00 5.2 C 95 % 4.47 C
1503 05-10-2018 05:45:00 5.2 C 95 % 4.47 C
1504 05-10-2018 05:50:00 5.3 C 96 % 4.72 C
1505 05-10-2018 05:55:00 5.3 C 96 % 4.72 C
1506 05-10-2018 06:00:00 5.6 C 96 % 5.01 C
1507 05-10-2018 06:05:00 5.7 C 96 % 5.11 C
1508 05-10-2018 06:10:00 5.8 C 96 % 5.21 C
1509 05-10-2018 06:15:00 5.8 C 96 % 5.21 C
1510 05-10-2018 06:20:00 5.8 C 96 % 5.21 C
1511 05-10-2018 06:25:00 5.8 C 96 % 5.21 C
1512 05-10-2018 06:30:00 5.8 C 96 % 5.21 C
1513 05-10-2018 06:35:00 5.8 C 96 % 5.21 C
1514 05-10-2018 06:40:00 5.8 C 96 % 5.21 C
1515 05-10-2018 06:45:00 5.8 C 96 % 5.21 C
1516 05-10-2018 06:50:00 5.8 C 96 % 5.21 C
1517 05-10-2018 06:55:00 5.8 C 96 % 5.21 C
1518 05-10-2018 07:00:00 5.8 C 96 % 5.21 C
1519 05-10-2018 07:05:00 5.7 C 96 % 5.11 C
1520 05-10-2018 07:10:00 5.7 C 96 % 5.11 C
1521 05-10-2018 07:15:00 5.7 C 96 % 5.11 C
1522 05-10-2018 07:20:00 5.7 C 96 % 5.11 C
1523 05-10-2018 07:25:00 5.7 C 96 % 5.11 C
1524 05-10-2018 07:30:00 5.7 C 96 % 5.11 C
1525 05-10-2018 07:35:00 5.7 C 96 % 5.11 C
Sensor: Nr:Datum:Temp:Feuchte:Taupunkt:
Aussen-T/F 1526 05-10-2018 07:40:00 5.7 C 96 % 5.11 C
1527 05-10-2018 07:45:00 5.7 C 96 % 5.11 C
1528 05-10-2018 07:50:00 5.6 C 96 % 5.01 C
1529 05-10-2018 07:55:00 5.6 C 96 % 5.01 C
1530 05-10-2018 08:00:00 5.5 C 96 % 4.91 C
1531 05-10-2018 08:05:00 5.5 C 96 % 4.91 C
1532 05-10-2018 08:10:00 5.5 C 96 % 4.91 C
1533 05-10-2018 08:15:00 5.6 C 96 % 5.01 C
1534 05-10-2018 08:20:00 5.6 C 96 % 5.01 C
1535 05-10-2018 08:25:00 5.6 C 96 % 5.01 C
1536 05-10-2018 08:30:00 5.6 C 96 % 5.01 C
1537 05-10-2018 08:35:00 5.6 C 96 % 5.01 C
1538 05-10-2018 08:40:00 5.6 C 96 % 5.01 C
1539 05-10-2018 08:45:00 5.6 C 96 % 5.01 C
1540 05-10-2018 08:50:00 5.6 C 96 % 5.01 C
1541 05-10-2018 08:55:00 5.5 C 96 % 4.91 C
1542 05-10-2018 09:00:00 5.5 C 96 % 4.91 C
1543 05-10-2018 09:05:00 5.5 C 96 % 4.91 C
1544 05-10-2018 09:10:00 5.6 C 96 % 5.01 C
1545 05-10-2018 09:15:00 5.6 C 96 % 5.01 C
1546 05-10-2018 09:20:00 5.6 C 96 % 5.01 C
1547 05-10-2018 09:25:00 5.6 C 96 % 5.01 C
1548 05-10-2018 09:30:00 5.6 C 96 % 5.01 C
1549 05-10-2018 09:35:00 5.6 C 96 % 5.01 C
1550 05-10-2018 09:40:00 5.7 C 96 % 5.11 C
Sensor: Nr:Datum:Temp:Feuchte:Taupunkt:
Aussen-T/F 1551 05-10-2018 09:45:00 5.8 C 96 % 5.21 C
1552 05-10-2018 09:50:00 5.9 C 96 % 5.31 C
1553 05-10-2018 09:55:00 6.1 C 97 % 5.66 C
1554 05-10-2018 10:00:00 6.2 C 96 % 5.61 C
1555 05-10-2018 10:05:00 6.3 C 96 % 5.71 C
1556 05-10-2018 10:10:00 6.4 C 97 % 5.96 C
1557 05-10-2018 10:15:00 6.6 C 97 % 6.16 C
1558 05-10-2018 10:20:00 6.7 C 97 % 6.26 C
1559 05-10-2018 10:25:00 6.7 C 97 % 6.26 C
1560 05-10-2018 10:30:00 6.8 C 97 % 6.36 C
1561 05-10-2018 10:35:00 6.9 C 97 % 6.46 C
1562 05-10-2018 10:40:00 7 C 97 % 6.56 C
1563 05-10-2018 10:45:00 7.1 C 97 % 6.66 C
1564 05-10-2018 10:50:00 7.2 C 97 % 6.76 C
1565 05-10-2018 10:55:00 7.2 C 97 % 6.76 C
1566 05-10-2018 11:00:00 7.2 C 97 % 6.76 C
1567 05-10-2018 11:05:00 7.3 C 97 % 6.86 C
1568 05-10-2018 11:10:00 7.3 C 97 % 6.86 C
1569 05-10-2018 11:15:00 7.4 C 97 % 6.96 C
1570 05-10-2018 11:20:00 7.5 C 97 % 7.06 C
1571 05-10-2018 11:25:00 7.7 C 97 % 7.25 C
1572 05-10-2018 11:30:00 7.8 C 97 % 7.35 C
1573 05-10-2018 11:35:00 8.1 C 97 % 7.65 C
1574 05-10-2018 11:40:00 8.2 C 97 % 7.75 C
1575 05-10-2018 11:45:00 8.4 C 97 % 7.95 C
Sensor: Nr:Datum:Temp:Feuchte:Taupunkt:
Aussen-T/F 1576 05-10-2018 11:50:00 8.8 C 97 % 8.35 C
1577 05-10-2018 11:55:00 9.2 C 97 % 8.75 C
1578 05-10-2018 12:00:00 9.4 C 97 % 8.95 C
1579 05-10-2018 12:05:00 9.6 C 97 % 9.15 C
1580 05-10-2018 12:10:00 9.7 C 97 % 9.25 C
1581 05-10-2018 12:15:00 9.9 C 97 % 9.45 C
1582 05-10-2018 12:20:00 10.2 C 97 % 9.75 C
1583 05-10-2018 12:25:00 10.3 C 97 % 9.85 C
1584 05-10-2018 12:30:00 10.4 C 97 % 9.94 C
1585 05-10-2018 12:35:00 10.6 C 97 % 10.14 C
1586 05-10-2018 12:40:00 10.7 C 97 % 10.24 C
1587 05-10-2018 12:45:00 10.8 C 97 % 10.34 C
1588 05-10-2018 12:50:00 11.1 C 97 % 10.64 C
1589 05-10-2018 12:55:00 11.2 C 97 % 10.74 C
1590 05-10-2018 13:00:00 11.5 C 97 % 11.04 C
1591 05-10-2018 13:05:00 11.7 C 97 % 11.24 C
1592 05-10-2018 13:10:00 11.9 C 97 % 11.44 C
1593 05-10-2018 13:15:00 12.1 C 97 % 11.64 C
1594 05-10-2018 13:20:00 12.3 C 97 % 11.84 C
1595 05-10-2018 13:25:00 12.6 C 97 % 12.14 C
1596 05-10-2018 13:30:00 12.8 C 97 % 12.34 C
1597 05-10-2018 13:35:00 12.9 C 97 % 12.44 C
1598 05-10-2018 13:40:00 13.2 C 97 % 12.73 C
1599 05-10-2018 13:45:00 13.4 C 97 % 12.93 C
1600 05-10-2018 13:50:00 13.6 C 96 % 12.97 C
Sensor: Nr:Datum:Temp:Feuchte:Taupunkt:
Aussen-T/F 1601 05-10-2018 13:55:00 13.8 C 95 % 13.01 C
1602 05-10-2018 14:00:00 14.1 C 95 % 13.31 C
1603 05-10-2018 14:05:00 14.3 C 93 % 13.18 C
1604 05-10-2018 14:10:00 14.7 C 92 % 13.41 C
1605 05-10-2018 14:15:00 15.1 C 90 % 13.47 C
1606 05-10-2018 14:20:00 15.7 C 87 % 13.54 C
1607 05-10-2018 14:25:00 16.1 C 81 % 12.84 C
1608 05-10-2018 14:30:00 16.9 C 81 % 13.62 C
1609 05-10-2018 14:35:00 17.4 C 77 % 13.33 C
1610 05-10-2018 14:40:00 18 C 74 % 13.3 C
1611 05-10-2018 14:45:00 18.4 C 70 % 12.83 C
1612 05-10-2018 14:50:00 18.7 C 69 % 12.9 C
1613 05-10-2018 14:55:00 18.9 C 71 % 13.53 C
1614 05-10-2018 15:00:00 18.9 C 70 % 13.31 C
1615 05-10-2018 15:05:00 18.8 C 71 % 13.43 C
1616 05-10-2018 15:10:00 18.8 C 71 % 13.43 C
1617 05-10-2018 15:15:00 18.8 C 69 % 13 C
1618 05-10-2018 15:20:00 18.8 C 67 % 12.55 C
1619 05-10-2018 15:25:00 18.8 C 68 % 12.77 C
1620 05-10-2018 15:30:00 18.9 C 66 % 12.41 C
1621 05-10-2018 15:35:00 19.1 C 66 % 12.6 C
1622 05-10-2018 15:40:00 19.3 C 68 % 13.25 C
1623 05-10-2018 15:45:00 19.3 C 68 % 13.25 C
1624 05-10-2018 15:50:00 19.3 C 66 % 12.79 C
1625 05-10-2018 15:55:00 19.2 C 65 % 12.47 C
Sensor: Nr:Datum:Temp:Feuchte:Taupunkt:
Aussen-T/F 1626 05-10-2018 16:00:00 19.4 C 64 % 12.42 C
1627 05-10-2018 16:05:00 19.4 C 63 % 12.18 C
1628 05-10-2018 16:10:00 19.6 C 64 % 12.61 C
1629 05-10-2018 16:15:00 19.7 C 62 % 12.22 C
1630 05-10-2018 16:20:00 19.7 C 62 % 12.22 C
1631 05-10-2018 16:25:00 19.8 C 63 % 12.56 C
1632 05-10-2018 16:30:00 19.7 C 64 % 12.7 C
1633 05-10-2018 16:35:00 19.6 C 62 % 12.13 C
1634 05-10-2018 16:40:00 19.7 C 63 % 12.46 C
1635 05-10-2018 16:45:00 19.7 C 61 % 11.97 C
1636 05-10-2018 16:50:00 19.7 C 63 % 12.46 C
1637 05-10-2018 16:55:00 19.7 C 65 % 12.94 C
1638 05-10-2018 17:00:00 19.6 C 65 % 12.84 C
1639 05-10-2018 17:05:00 19.4 C 66 % 12.89 C
1640 05-10-2018 17:10:00 19.3 C 65 % 12.56 C
1641 05-10-2018 17:15:00 19.1 C 67 % 12.83 C
1642 05-10-2018 17:20:00 19 C 68 % 12.96 C
1643 05-10-2018 17:25:00 18.9 C 69 % 13.09 C
1644 05-10-2018 17:30:00 18.8 C 70 % 13.22 C
1645 05-10-2018 17:35:00 18.7 C 71 % 13.34 C
1646 05-10-2018 17:40:00 18.7 C 71 % 13.34 C
1647 05-10-2018 17:45:00 18.7 C 70 % 13.12 C
1648 05-10-2018 17:50:00 18.7 C 72 % 13.55 C
1649 05-10-2018 17:55:00 18.7 C 71 % 13.34 C
1650 05-10-2018 18:00:00 18.7 C 71 % 13.34 C
Sensor: Nr:Datum:Temp:Feuchte:Taupunkt:
Aussen-T/F 1651 05-10-2018 18:05:00 18.7 C 69 % 12.9 C
1652 05-10-2018 18:10:00 18.7 C 66 % 12.22 C
1653 05-10-2018 18:15:00 18.9 C 69 % 13.09 C
1654 05-10-2018 18:20:00 19 C 69 % 13.19 C
1655 05-10-2018 18:25:00 18.8 C 69 % 13 C
1656 05-10-2018 18:30:00 18.6 C 70 % 13.02 C
1657 05-10-2018 18:35:00 18.2 C 70 % 12.64 C
1658 05-10-2018 18:40:00 17.8 C 72 % 12.69 C
1659 05-10-2018 18:45:00 17.4 C 73 % 12.51 C
1660 05-10-2018 18:50:00 17.1 C 74 % 12.43 C
1661 05-10-2018 18:55:00 16.6 C 75 % 12.15 C
1662 05-10-2018 19:00:00 16.3 C 76 % 12.07 C
1663 05-10-2018 19:05:00 16 C 77 % 11.97 C
1664 05-10-2018 19:10:00 15.7 C 78 % 11.88 C
1665 05-10-2018 19:15:00 15.4 C 78 % 11.59 C
1666 05-10-2018 19:20:00 15.2 C 79 % 11.59 C
1667 05-10-2018 19:25:00 14.9 C 80 % 11.48 C
1668 05-10-2018 19:30:00 14.8 C 80 % 11.39 C
1669 05-10-2018 19:35:00 14.6 C 81 % 11.38 C
1670 05-10-2018 19:40:00 14.5 C 81 % 11.28 C
1671 05-10-2018 19:45:00 14.4 C 81 % 11.18 C
1672 05-10-2018 19:50:00 14.3 C 82 % 11.27 C
1673 05-10-2018 19:55:00 14.2 C 82 % 11.17 C
1674 05-10-2018 20:00:00 14.1 C 83 % 11.26 C
1675 05-10-2018 20:05:00 13.9 C 83 % 11.06 C
Sensor: Nr:Datum:Temp:Feuchte:Taupunkt:
Aussen-T/F 1676 05-10-2018 20:10:00 13.8 C 83 % 10.97 C
1677 05-10-2018 20:15:00 13.8 C 84 % 11.15 C
1678 05-10-2018 20:20:00 13.7 C 84 % 11.05 C
1679 05-10-2018 20:25:00 13.7 C 84 % 11.05 C
1680 05-10-2018 20:30:00 13.7 C 84 % 11.05 C
1681 05-10-2018 20:35:00 13.6 C 84 % 10.95 C
1682 05-10-2018 20:40:00 13.6 C 85 % 11.13 C
1683 05-10-2018 20:45:00 13.5 C 85 % 11.03 C
1684 05-10-2018 20:50:00 13.4 C 85 % 10.93 C
1685 05-10-2018 20:55:00 13.4 C 85 % 10.93 C
1686 05-10-2018 21:00:00 13.3 C 85 % 10.83 C
1687 05-10-2018 21:05:00 13.3 C 85 % 10.83 C
1688 05-10-2018 21:10:00 13.2 C 85 % 10.74 C
1689 05-10-2018 21:15:00 13.2 C 85 % 10.74 C
1690 05-10-2018 21:20:00 13.2 C 85 % 10.74 C
1691 05-10-2018 21:25:00 13.1 C 85 % 10.64 C
1692 05-10-2018 21:30:00 12.9 C 85 % 10.44 C
1693 05-10-2018 21:35:00 12.8 C 85 % 10.34 C
1694 05-10-2018 21:40:00 12.7 C 86 % 10.42 C
1695 05-10-2018 21:45:00 12.5 C 86 % 10.22 C
1696 05-10-2018 21:50:00 12.4 C 87 % 10.3 C
1697 05-10-2018 21:55:00 12.3 C 87 % 10.2 C
1698 05-10-2018 22:00:00 12.3 C 88 % 10.37 C
1699 05-10-2018 22:05:00 12.2 C 87 % 10.1 C
1700 05-10-2018 22:10:00 12.1 C 87 % 10 C
Sensor: Nr:Datum:Temp:Feuchte:Taupunkt:
Aussen-T/F 1701 05-10-2018 22:15:00 11.9 C 88 % 9.98 C
1702 05-10-2018 22:20:00 12 C 88 % 10.08 C
1703 05-10-2018 22:25:00 11.9 C 87 % 9.81 C
1704 05-10-2018 22:30:00 11.8 C 87 % 9.71 C
1705 05-10-2018 22:35:00 11.6 C 87 % 9.51 C
1706 05-10-2018 22:40:00 11.3 C 88 % 9.39 C
1707 05-10-2018 22:45:00 11.2 C 89 % 9.46 C
1708 05-10-2018 22:50:00 11.1 C 89 % 9.36 C
1709 05-10-2018 22:55:00 10.9 C 90 % 9.33 C
1710 05-10-2018 23:00:00 10.9 C 90 % 9.33 C
1711 05-10-2018 23:05:00 10.8 C 90 % 9.23 C
1712 05-10-2018 23:10:00 10.7 C 90 % 9.13 C
1713 05-10-2018 23:15:00 10.6 C 91 % 9.19 C
1714 05-10-2018 23:20:00 10.6 C 91 % 9.19 C
1715 05-10-2018 23:25:00 10.5 C 91 % 9.09 C
1716 05-10-2018 23:30:00 10.4 C 91 % 9 C
1717 05-10-2018 23:35:00 10.3 C 91 % 8.9 C
1718 05-10-2018 23:40:00 10.3 C 92 % 9.06 C
1719 05-10-2018 23:45:00 10.3 C 92 % 9.06 C
1720 05-10-2018 23:50:00 10.1 C 91 % 8.7 C
1721 05-10-2018 23:55:00 10.1 C 92 % 8.86 C
1722 06-10-2018 00:00:00 9.9 C 92 % 8.66 C
1723 06-10-2018 00:05:00 10 C 93 % 8.92 C
1724 06-10-2018 00:10:00 10.1 C 93 % 9.02 C
1725 06-10-2018 00:15:00 9.9 C 93 % 8.82 C
Sensor: Nr:Datum:Temp:Feuchte:Taupunkt:
Aussen-T/F 1726 06-10-2018 00:20:00 9.9 C 93 % 8.82 C
1727 06-10-2018 00:25:00 10 C 93 % 8.92 C
1728 06-10-2018 00:30:00 9.8 C 92 % 8.56 C
1729 06-10-2018 00:35:00 9.7 C 93 % 8.62 C
1730 06-10-2018 00:40:00 9.7 C 93 % 8.62 C
1731 06-10-2018 00:45:00 9.6 C 93 % 8.53 C
1732 06-10-2018 00:50:00 9.4 C 93 % 8.33 C
1733 06-10-2018 00:55:00 9.4 C 93 % 8.33 C
1734 06-10-2018 01:00:00 9.5 C 94 % 8.58 C
1735 06-10-2018 01:05:00 9.4 C 93 % 8.33 C
1736 06-10-2018 01:10:00 9.2 C 93 % 8.13 C
1737 06-10-2018 01:15:00 9.1 C 93 % 8.03 C
1738 06-10-2018 01:20:00 9.1 C 94 % 8.19 C
1739 06-10-2018 01:25:00 9.1 C 94 % 8.19 C
1740 06-10-2018 01:30:00 9.1 C 94 % 8.19 C
1741 06-10-2018 01:35:00 9.2 C 94 % 8.29 C
1742 06-10-2018 01:40:00 9.2 C 94 % 8.29 C
1743 06-10-2018 01:45:00 9.2 C 94 % 8.29 C
1744 06-10-2018 01:50:00 9.1 C 94 % 8.19 C
1745 06-10-2018 01:55:00 9.1 C 94 % 8.19 C
1746 06-10-2018 02:00:00 8.9 C 94 % 7.99 C
1747 06-10-2018 02:05:00 8.7 C 94 % 7.79 C
1748 06-10-2018 02:10:00 8.6 C 93 % 7.53 C
1749 06-10-2018 02:15:00 8.4 C 94 % 7.49 C
1750 06-10-2018 02:20:00 8.6 C 94 % 7.69 C
Sensor: Nr:Datum:Temp:Feuchte:Taupunkt:
Aussen-T/F 1751 06-10-2018 02:25:00 8.8 C 95 % 8.04 C
1752 06-10-2018 02:30:00 8.9 C 95 % 8.14 C
1753 06-10-2018 02:35:00 8.8 C 95 % 8.04 C
1754 06-10-2018 02:40:00 8.7 C 94 % 7.79 C
1755 06-10-2018 02:45:00 8.7 C 95 % 7.94 C
1756 06-10-2018 02:50:00 8.6 C 95 % 7.85 C
1757 06-10-2018 02:55:00 8.7 C 95 % 7.94 C
1758 06-10-2018 03:00:00 8.6 C 95 % 7.85 C
1759 06-10-2018 03:05:00 8.5 C 94 % 7.59 C
1760 06-10-2018 03:10:00 8.4 C 94 % 7.49 C
1761 06-10-2018 03:15:00 8.4 C 95 % 7.65 C
1762 06-10-2018 03:20:00 8.7 C 95 % 7.94 C
1763 06-10-2018 03:25:00 8.9 C 96 % 8.3 C
1764 06-10-2018 03:30:00 9.1 C 96 % 8.5 C
1765 06-10-2018 03:35:00 9.1 C 96 % 8.5 C
1766 06-10-2018 03:40:00 8.9 C 95 % 8.14 C
1767 06-10-2018 03:45:00 8.7 C 95 % 7.94 C
1768 06-10-2018 03:50:00 8.6 C 95 % 7.85 C
1769 06-10-2018 03:55:00 8.4 C 95 % 7.65 C
1770 06-10-2018 04:00:00 8.5 C 95 % 7.75 C
1771 06-10-2018 04:05:00 8.4 C 95 % 7.65 C
1772 06-10-2018 04:10:00 8.2 C 95 % 7.45 C
1773 06-10-2018 04:15:00 8.2 C 95 % 7.45 C
1774 06-10-2018 04:20:00 8.2 C 95 % 7.45 C
1775 06-10-2018 04:25:00 8.2 C 95 % 7.45 C
Sensor: Nr:Datum:Temp:Feuchte:Taupunkt:
Aussen-T/F 1776 06-10-2018 04:30:00 8.1 C 95 % 7.35 C
1777 06-10-2018 04:35:00 8.1 C 95 % 7.35 C
1778 06-10-2018 04:40:00 8.1 C 95 % 7.35 C
1779 06-10-2018 04:45:00 8.1 C 95 % 7.35 C
1780 06-10-2018 04:50:00 8 C 95 % 7.25 C
1781 06-10-2018 04:55:00 7.9 C 95 % 7.15 C
1782 06-10-2018 05:00:00 7.8 C 95 % 7.05 C
1783 06-10-2018 05:05:00 7.8 C 95 % 7.05 C
1784 06-10-2018 05:10:00 7.8 C 95 % 7.05 C
1785 06-10-2018 05:15:00 7.8 C 95 % 7.05 C
1786 06-10-2018 05:20:00 8 C 96 % 7.4 C
1787 06-10-2018 05:25:00 8 C 96 % 7.4 C
1788 06-10-2018 05:30:00 7.9 C 95 % 7.15 C
1789 06-10-2018 05:35:00 8 C 96 % 7.4 C
1790 06-10-2018 05:40:00 7.9 C 95 % 7.15 C
1791 06-10-2018 05:45:00 7.8 C 95 % 7.05 C
1792 06-10-2018 05:50:00 7.7 C 96 % 7.1 C
1793 06-10-2018 05:55:00 7.7 C 95 % 6.95 C
1794 06-10-2018 06:00:00 7.6 C 95 % 6.85 C
1795 06-10-2018 06:05:00 7.4 C 95 % 6.65 C
1796 06-10-2018 06:10:00 7.3 C 95 % 6.55 C
1797 06-10-2018 06:15:00 7.3 C 95 % 6.55 C
1798 06-10-2018 06:20:00 7.4 C 95 % 6.65 C
1799 06-10-2018 06:25:00 7.4 C 96 % 6.8 C
1800 06-10-2018 06:30:00 7.3 C 95 % 6.55 C
Sensor: Nr:Datum:Temp:Feuchte:Taupunkt:
Aussen-T/F 1801 06-10-2018 06:35:00 7.4 C 96 % 6.8 C
1802 06-10-2018 06:40:00 7.4 C 96 % 6.8 C
1803 06-10-2018 06:45:00 7.3 C 95 % 6.55 C
1804 06-10-2018 06:50:00 7.2 C 96 % 6.61 C
1805 06-10-2018 06:55:00 7.1 C 96 % 6.51 C
1806 06-10-2018 07:00:00 7.1 C 96 % 6.51 C
1807 06-10-2018 07:05:00 7.1 C 95 % 6.35 C
1808 06-10-2018 07:10:00 7.1 C 96 % 6.51 C
1809 06-10-2018 07:15:00 7.1 C 96 % 6.51 C
1810 06-10-2018 07:20:00 7 C 95 % 6.26 C
1811 06-10-2018 07:25:00 7 C 96 % 6.41 C
1812 06-10-2018 07:30:00 6.9 C 96 % 6.31 C
1813 06-10-2018 07:35:00 6.9 C 96 % 6.31 C
1814 06-10-2018 07:40:00 6.9 C 96 % 6.31 C
1815 06-10-2018 07:45:00 6.8 C 96 % 6.21 C
1816 06-10-2018 07:50:00 6.9 C 96 % 6.31 C
1817 06-10-2018 07:55:00 6.9 C 96 % 6.31 C
1818 06-10-2018 08:00:00 6.9 C 96 % 6.31 C
1819 06-10-2018 08:05:00 7.2 C 96 % 6.61 C
1820 06-10-2018 08:10:00 7.2 C 96 % 6.61 C
1821 06-10-2018 08:15:00 7.1 C 96 % 6.51 C
1822 06-10-2018 08:20:00 7.3 C 96 % 6.71 C
1823 06-10-2018 08:25:00 7.4 C 96 % 6.8 C
1824 06-10-2018 08:30:00 7.5 C 96 % 6.9 C
1825 06-10-2018 08:35:00 7.4 C 96 % 6.8 C
Sensor: Nr:Datum:Temp:Feuchte:Taupunkt:
Aussen-T/F 1826 06-10-2018 08:40:00 7.4 C 96 % 6.8 C
1827 06-10-2018 08:45:00 7.5 C 96 % 6.9 C
1828 06-10-2018 08:50:00 7.5 C 96 % 6.9 C
1829 06-10-2018 08:55:00 7.4 C 96 % 6.8 C
1830 06-10-2018 09:00:00 7.3 C 96 % 6.71 C
1831 06-10-2018 09:05:00 7.3 C 96 % 6.71 C
1832 06-10-2018 09:10:00 7.4 C 96 % 6.8 C
1833 06-10-2018 09:15:00 7.4 C 96 % 6.8 C
1834 06-10-2018 09:20:00 7.5 C 96 % 6.9 C
1835 06-10-2018 09:25:00 7.6 C 97 % 7.16 C
1836 06-10-2018 09:30:00 7.7 C 97 % 7.25 C
1837 06-10-2018 09:35:00 7.7 C 97 % 7.25 C
1838 06-10-2018 09:40:00 7.7 C 96 % 7.1 C
1839 06-10-2018 09:45:00 7.8 C 96 % 7.2 C
1840 06-10-2018 09:50:00 7.9 C 96 % 7.3 C
1841 06-10-2018 09:55:00 7.9 C 96 % 7.3 C
1842 06-10-2018 10:00:00 8 C 97 % 7.55 C
1843 06-10-2018 10:05:00 8.1 C 97 % 7.65 C
1844 06-10-2018 10:10:00 8.1 C 97 % 7.65 C
1845 06-10-2018 10:15:00 8.3 C 97 % 7.85 C
1846 06-10-2018 10:20:00 8.6 C 97 % 8.15 C
1847 06-10-2018 10:25:00 8.8 C 97 % 8.35 C
1848 06-10-2018 10:30:00 9 C 97 % 8.55 C
1849 06-10-2018 10:35:00 9.2 C 97 % 8.75 C
1850 06-10-2018 10:40:00 9.4 C 97 % 8.95 C
Sensor: Nr:Datum:Temp:Feuchte:Taupunkt:
Aussen-T/F 1851 06-10-2018 10:45:00 9.6 C 97 % 9.15 C
1852 06-10-2018 10:50:00 9.9 C 97 % 9.45 C
1853 06-10-2018 10:55:00 10.1 C 97 % 9.65 C
1854 06-10-2018 11:00:00 10.3 C 97 % 9.85 C
1855 06-10-2018 11:05:00 10.4 C 97 % 9.94 C
1856 06-10-2018 11:10:00 10.7 C 97 % 10.24 C
1857 06-10-2018 11:15:00 10.8 C 97 % 10.34 C
1858 06-10-2018 11:20:00 10.9 C 97 % 10.44 C
1859 06-10-2018 11:25:00 11.2 C 97 % 10.74 C
1860 06-10-2018 11:30:00 11.4 C 97 % 10.94 C
1861 06-10-2018 11:35:00 11.6 C 97 % 11.14 C
1862 06-10-2018 11:40:00 11.7 C 97 % 11.24 C
1863 06-10-2018 11:45:00 11.8 C 97 % 11.34 C
1864 06-10-2018 11:50:00 12 C 97 % 11.54 C
1865 06-10-2018 11:55:00 12.3 C 98 % 11.99 C
1866 06-10-2018 12:00:00 12.5 C 97 % 12.04 C
1867 06-10-2018 12:05:00 12.7 C 98 % 12.39 C
1868 06-10-2018 12:10:00 12.8 C 97 % 12.34 C
1869 06-10-2018 12:15:00 13.1 C 97 % 12.63 C
1870 06-10-2018 12:20:00 13.2 C 97 % 12.73 C
1871 06-10-2018 12:25:00 13.3 C 98 % 12.99 C
1872 06-10-2018 12:30:00 13.5 C 97 % 13.03 C
1873 06-10-2018 12:35:00 13.6 C 98 % 13.29 C
1874 06-10-2018 12:40:00 13.7 C 97 % 13.23 C
1875 06-10-2018 12:45:00 13.9 C 97 % 13.43 C
Sensor: Nr:Datum:Temp:Feuchte:Taupunkt:
Aussen-T/F 1876 06-10-2018 12:50:00 14.1 C 98 % 13.79 C
1877 06-10-2018 12:55:00 14.2 C 97 % 13.73 C
1878 06-10-2018 13:00:00 14.4 C 97 % 13.93 C
1879 06-10-2018 13:05:00 14.7 C 98 % 14.39 C
1880 06-10-2018 13:10:00 14.8 C 97 % 14.33 C
1881 06-10-2018 13:15:00 15.1 C 97 % 14.63 C
1882 06-10-2018 13:20:00 15.3 C 97 % 14.83 C
1883 06-10-2018 13:25:00 15.5 C 97 % 15.03 C
1884 06-10-2018 13:30:00 15.7 C 97 % 15.23 C
1885 06-10-2018 13:35:00 15.8 C 96 % 15.16 C
1886 06-10-2018 13:40:00 16.1 C 95 % 15.3 C
1887 06-10-2018 13:45:00 16.3 C 95 % 15.5 C
1888 06-10-2018 13:50:00 16.7 C 93 % 15.56 C
1889 06-10-2018 13:55:00 17 C 91 % 15.52 C
1890 06-10-2018 14:00:00 17.3 C 90 % 15.64 C
1891 06-10-2018 14:05:00 17.7 C 88 % 15.69 C
1892 06-10-2018 14:10:00 18.2 C 87 % 16 C
1893 06-10-2018 14:15:00 18.5 C 82 % 15.37 C
1894 06-10-2018 14:20:00 18.9 C 80 % 15.38 C
1895 06-10-2018 14:25:00 19.4 C 78 % 15.47 C
1896 06-10-2018 14:30:00 19.9 C 73 % 14.92 C
1897 06-10-2018 14:35:00 20.7 C 71 % 15.25 C
1898 06-10-2018 14:40:00 21.2 C 67 % 14.83 C
1899 06-10-2018 14:45:00 21.4 C 67 % 15.02 C
1900 06-10-2018 14:50:00 21.3 C 67 % 14.93 C
Sensor: Nr:Datum:Temp:Feuchte:Taupunkt:
Aussen-T/F 1901 06-10-2018 14:55:00 21.2 C 65 % 14.36 C
1902 06-10-2018 15:00:00 21.2 C 67 % 14.83 C
1903 06-10-2018 15:05:00 21.2 C 67 % 14.83 C
1904 06-10-2018 15:10:00 21.2 C 69 % 15.29 C
1905 06-10-2018 15:15:00 21.2 C 64 % 14.12 C
1906 06-10-2018 15:20:00 21.2 C 68 % 15.06 C
1907 06-10-2018 15:25:00 21.2 C 68 % 15.06 C
1908 06-10-2018 15:30:00 21.1 C 69 % 15.19 C
1909 06-10-2018 15:35:00 21.1 C 70 % 15.42 C
1910 06-10-2018 15:40:00 21.1 C 70 % 15.42 C
1911 06-10-2018 15:45:00 21.1 C 70 % 15.42 C
1912 06-10-2018 15:50:00 21.1 C 71 % 15.64 C
1913 06-10-2018 15:55:00 21.1 C 72 % 15.86 C
1914 06-10-2018 16:00:00 21.1 C 72 % 15.86 C
1915 06-10-2018 16:05:00 21.1 C 73 % 16.07 C
1916 06-10-2018 16:10:00 21.1 C 71 % 15.64 C
1917 06-10-2018 16:15:00 21.1 C 70 % 15.42 C
1918 06-10-2018 16:20:00 21.2 C 71 % 15.73 C
1919 06-10-2018 16:25:00 21.2 C 70 % 15.51 C
1920 06-10-2018 16:30:00 21.1 C 71 % 15.64 C
1921 06-10-2018 16:35:00 21.1 C 72 % 15.86 C
1922 06-10-2018 16:40:00 21.1 C 71 % 15.64 C
1923 06-10-2018 16:45:00 21.1 C 71 % 15.64 C
1924 06-10-2018 16:50:00 21.1 C 73 % 16.07 C
1925 06-10-2018 16:55:00 21 C 72 % 15.76 C
Sensor: Nr:Datum:Temp:Feuchte:Taupunkt:
Aussen-T/F 1926 06-10-2018 17:00:00 20.8 C 72 % 15.57 C
1927 06-10-2018 17:05:00 20.7 C 72 % 15.47 C
1928 06-10-2018 17:10:00 20.6 C 73 % 15.59 C
1929 06-10-2018 17:15:00 20.4 C 73 % 15.4 C
1930 06-10-2018 17:20:00 20.3 C 73 % 15.3 C
1931 06-10-2018 17:25:00 20.2 C 73 % 15.21 C
1932 06-10-2018 17:30:00 20.1 C 70 % 14.46 C
1933 06-10-2018 17:35:00 20.2 C 74 % 15.42 C
1934 06-10-2018 17:40:00 20.2 C 73 % 15.21 C
1935 06-10-2018 17:45:00 20.2 C 73 % 15.21 C
1936 06-10-2018 17:50:00 20.2 C 73 % 15.21 C
1937 06-10-2018 17:55:00 20.1 C 73 % 15.11 C
1938 06-10-2018 18:00:00 19.9 C 73 % 14.92 C
1939 06-10-2018 18:05:00 19.8 C 73 % 14.82 C
1940 06-10-2018 18:10:00 19.6 C 74 % 14.84 C
1941 06-10-2018 18:15:00 19.4 C 74 % 14.65 C
1942 06-10-2018 18:20:00 19.2 C 74 % 14.46 C
1943 06-10-2018 18:25:00 19.1 C 75 % 14.57 C
1944 06-10-2018 18:30:00 19 C 76 % 14.68 C
1945 06-10-2018 18:35:00 19 C 76 % 14.68 C
1946 06-10-2018 18:40:00 18.9 C 76 % 14.58 C
1947 06-10-2018 18:45:00 18.8 C 77 % 14.68 C
1948 06-10-2018 18:50:00 18.7 C 77 % 14.59 C
1949 06-10-2018 18:55:00 18.5 C 77 % 14.39 C
1950 06-10-2018 19:00:00 18.3 C 78 % 14.4 C
Sensor: Nr:Datum:Temp:Feuchte:Taupunkt:
Aussen-T/F 1951 06-10-2018 19:05:00 18.1 C 78 % 14.21 C
1952 06-10-2018 19:10:00 17.8 C 79 % 14.11 C
1953 06-10-2018 19:15:00 17.7 C 80 % 14.21 C
1954 06-10-2018 19:20:00 17.5 C 80 % 14.01 C
1955 06-10-2018 19:25:00 17.3 C 81 % 14.01 C
1956 06-10-2018 19:30:00 17.1 C 81 % 13.82 C
1957 06-10-2018 19:35:00 16.9 C 81 % 13.62 C
1958 06-10-2018 19:40:00 16.8 C 82 % 13.71 C
1959 06-10-2018 19:45:00 16.7 C 82 % 13.61 C
1960 06-10-2018 19:50:00 16.6 C 83 % 13.7 C
1961 06-10-2018 19:55:00 16.5 C 83 % 13.6 C
1962 06-10-2018 20:00:00 16.4 C 83 % 13.51 C
1963 06-10-2018 20:05:00 16.3 C 84 % 13.59 C
1964 06-10-2018 20:10:00 16.2 C 84 % 13.5 C
1965 06-10-2018 20:15:00 16.1 C 84 % 13.4 C
1966 06-10-2018 20:20:00 16 C 84 % 13.3 C
1967 06-10-2018 20:25:00 15.9 C 84 % 13.2 C
1968 06-10-2018 20:30:00 15.7 C 85 % 13.19 C
1969 06-10-2018 20:35:00 15.5 C 85 % 12.99 C
1970 06-10-2018 20:40:00 15.3 C 86 % 12.97 C
1971 06-10-2018 20:45:00 15.2 C 86 % 12.88 C
1972 06-10-2018 20:50:00 15.1 C 86 % 12.78 C
1973 06-10-2018 20:55:00 14.9 C 87 % 12.76 C
1974 06-10-2018 21:00:00 14.8 C 87 % 12.66 C
1975 06-10-2018 21:05:00 14.8 C 88 % 12.83 C
Sensor: Nr:Datum:Temp:Feuchte:Taupunkt:
Aussen-T/F 1976 06-10-2018 21:10:00 14.7 C 88 % 12.73 C
1977 06-10-2018 21:15:00 14.6 C 88 % 12.64 C
1978 06-10-2018 21:20:00 14.5 C 88 % 12.54 C
1979 06-10-2018 21:25:00 14.4 C 89 % 12.61 C
1980 06-10-2018 21:30:00 14.4 C 89 % 12.61 C
1981 06-10-2018 21:35:00 14.4 C 89 % 12.61 C
1982 06-10-2018 21:40:00 14.3 C 89 % 12.51 C
1983 06-10-2018 21:45:00 14.3 C 89 % 12.51 C
1984 06-10-2018 21:50:00 14.2 C 89 % 12.41 C
1985 06-10-2018 21:55:00 14.1 C 89 % 12.32 C
1986 06-10-2018 22:00:00 14.1 C 89 % 12.32 C
1987 06-10-2018 22:05:00 14 C 90 % 12.39 C
1988 06-10-2018 22:10:00 13.9 C 90 % 12.29 C
1989 06-10-2018 22:15:00 13.9 C 90 % 12.29 C
1990 06-10-2018 22:20:00 13.9 C 90 % 12.29 C
1991 06-10-2018 22:25:00 13.9 C 90 % 12.29 C
1992 06-10-2018 22:30:00 13.9 C 90 % 12.29 C
1993 06-10-2018 22:35:00 13.8 C 90 % 12.19 C
1994 06-10-2018 22:40:00 13.7 C 90 % 12.09 C
1995 06-10-2018 22:45:00 13.6 C 90 % 11.99 C
1996 06-10-2018 22:50:00 13.6 C 90 % 11.99 C
1997 06-10-2018 22:55:00 13.6 C 90 % 11.99 C
1998 06-10-2018 23:00:00 13.5 C 90 % 11.89 C
1999 06-10-2018 23:05:00 13.4 C 90 % 11.79 C
2000 06-10-2018 23:10:00 13.3 C 90 % 11.7 C
Sensor: Nr:Datum:Temp:Feuchte:Taupunkt:
Aussen-T/F 2001 06-10-2018 23:15:00 13.2 C 90 % 11.6 C
2002 06-10-2018 23:20:00 13.1 C 90 % 11.5 C
2003 06-10-2018 23:25:00 12.9 C 91 % 11.47 C
2004 06-10-2018 23:30:00 12.9 C 91 % 11.47 C
2005 06-10-2018 23:35:00 12.9 C 91 % 11.47 C
2006 06-10-2018 23:40:00 12.8 C 91 % 11.37 C
2007 06-10-2018 23:45:00 12.7 C 91 % 11.27 C
2008 06-10-2018 23:50:00 12.6 C 91 % 11.17 C
2009 06-10-2018 23:55:00 12.6 C 92 % 11.34 C
2010 07-10-2018 00:00:00 12.6 C 92 % 11.34 C
2011 07-10-2018 00:05:00 12.4 C 92 % 11.14 C
2012 07-10-2018 00:10:00 12.4 C 92 % 11.14 C
2013 07-10-2018 00:15:00 12.4 C 92 % 11.14 C
2014 07-10-2018 00:20:00 12.3 C 92 % 11.04 C
2015 07-10-2018 00:25:00 12.2 C 92 % 10.94 C
2016 07-10-2018 00:30:00 12.1 C 92 % 10.84 C
2017 07-10-2018 00:35:00 12.1 C 93 % 11 C
2018 07-10-2018 00:40:00 11.9 C 92 % 10.64 C
2019 07-10-2018 00:45:00 11.9 C 93 % 10.81 C
2020 07-10-2018 00:50:00 11.9 C 93 % 10.81 C
2021 07-10-2018 00:55:00 11.8 C 92 % 10.54 C
2022 07-10-2018 01:00:00 11.6 C 92 % 10.35 C
2023 07-10-2018 01:05:00 11.6 C 93 % 10.51 C
2024 07-10-2018 01:10:00 11.6 C 93 % 10.51 C
2025 07-10-2018 01:15:00 11.6 C 93 % 10.51 C
Sensor: Nr:Datum:Temp:Feuchte:Taupunkt:
Aussen-T/F 2026 07-10-2018 01:20:00 11.6 C 93 % 10.51 C
2027 07-10-2018 01:25:00 11.6 C 94 % 10.67 C
2028 07-10-2018 01:30:00 11.6 C 94 % 10.67 C
2029 07-10-2018 01:35:00 11.6 C 94 % 10.67 C
2030 07-10-2018 01:40:00 11.6 C 94 % 10.67 C
2031 07-10-2018 01:45:00 11.5 C 94 % 10.57 C
2032 07-10-2018 01:50:00 11.4 C 94 % 10.47 C
2033 07-10-2018 01:55:00 11.4 C 94 % 10.47 C
2034 07-10-2018 02:00:00 11.4 C 94 % 10.47 C
2035 07-10-2018 02:05:00 11.3 C 94 % 10.37 C
2036 07-10-2018 02:10:00 11.6 C 95 % 10.83 C
2037 07-10-2018 02:15:00 11.7 C 95 % 10.93 C
2038 07-10-2018 02:20:00 11.8 C 95 % 11.03 C
2039 07-10-2018 02:25:00 11.8 C 95 % 11.03 C
2040 07-10-2018 02:30:00 11.9 C 95 % 11.13 C
2041 07-10-2018 02:35:00 11.9 C 95 % 11.13 C
2042 07-10-2018 02:40:00 11.9 C 95 % 11.13 C
2043 07-10-2018 02:45:00 11.9 C 95 % 11.13 C
2044 07-10-2018 02:50:00 11.9 C 95 % 11.13 C
2045 07-10-2018 02:55:00 11.9 C 95 % 11.13 C
2046 07-10-2018 03:00:00 11.9 C 95 % 11.13 C
2047 07-10-2018 03:05:00 11.8 C 95 % 11.03 C
2048 07-10-2018 03:10:00 11.8 C 95 % 11.03 C
2049 07-10-2018 03:15:00 11.8 C 95 % 11.03 C
2050 07-10-2018 03:20:00 11.8 C 95 % 11.03 C
Sensor: Nr:Datum:Temp:Feuchte:Taupunkt:
Aussen-T/F 2051 07-10-2018 03:25:00 11.8 C 95 % 11.03 C
2052 07-10-2018 03:30:00 11.9 C 95 % 11.13 C
2053 07-10-2018 03:35:00 12.1 C 95 % 11.32 C
2054 07-10-2018 03:40:00 12.1 C 95 % 11.32 C
2055 07-10-2018 03:45:00 12.2 C 95 % 11.42 C
2056 07-10-2018 03:50:00 12.1 C 95 % 11.32 C
2057 07-10-2018 03:55:00 12.1 C 95 % 11.32 C
2058 07-10-2018 04:00:00 11.9 C 94 % 10.97 C
2059 07-10-2018 04:05:00 11.9 C 95 % 11.13 C
2060 07-10-2018 04:10:00 11.9 C 95 % 11.13 C
2061 07-10-2018 04:15:00 12 C 95 % 11.22 C
2062 07-10-2018 04:20:00 12.1 C 95 % 11.32 C
2063 07-10-2018 04:25:00 12.1 C 95 % 11.32 C
2064 07-10-2018 04:30:00 12.2 C 95 % 11.42 C
2065 07-10-2018 04:35:00 12.3 C 95 % 11.52 C
2066 07-10-2018 04:40:00 12.3 C 95 % 11.52 C
2067 07-10-2018 04:45:00 12.3 C 95 % 11.52 C
2068 07-10-2018 04:50:00 12.2 C 95 % 11.42 C
2069 07-10-2018 04:55:00 12.1 C 95 % 11.32 C
2070 07-10-2018 05:00:00 12.1 C 95 % 11.32 C
2071 07-10-2018 05:05:00 12 C 95 % 11.22 C
2072 07-10-2018 05:10:00 11.8 C 94 % 10.87 C
2073 07-10-2018 05:15:00 11.7 C 94 % 10.77 C
2074 07-10-2018 05:20:00 11.6 C 94 % 10.67 C
2075 07-10-2018 05:25:00 11.7 C 95 % 10.93 C
Sensor: Nr:Datum:Temp:Feuchte:Taupunkt:
Aussen-T/F 2076 07-10-2018 05:30:00 11.7 C 95 % 10.93 C
2077 07-10-2018 05:35:00 11.5 C 94 % 10.57 C
2078 07-10-2018 05:40:00 11.6 C 95 % 10.83 C
2079 07-10-2018 05:45:00 11.4 C 95 % 10.63 C
2080 07-10-2018 05:50:00 11.4 C 95 % 10.63 C
2081 07-10-2018 05:55:00 11.3 C 94 % 10.37 C
2082 07-10-2018 06:00:00 11.2 C 94 % 10.27 C
2083 07-10-2018 06:05:00 11.2 C 95 % 10.43 C
2084 07-10-2018 06:10:00 11.3 C 95 % 10.53 C
2085 07-10-2018 06:15:00 11.3 C 95 % 10.53 C
2086 07-10-2018 06:20:00 11.2 C 95 % 10.43 C
2087 07-10-2018 06:25:00 11.2 C 95 % 10.43 C
2088 07-10-2018 06:30:00 11.1 C 95 % 10.33 C
2089 07-10-2018 06:35:00 10.9 C 95 % 10.13 C
2090 07-10-2018 06:40:00 11 C 95 % 10.23 C
2091 07-10-2018 06:45:00 11.1 C 95 % 10.33 C
2092 07-10-2018 06:50:00 11.1 C 95 % 10.33 C
2093 07-10-2018 06:55:00 11.1 C 95 % 10.33 C
2094 07-10-2018 07:00:00 11.1 C 95 % 10.33 C
2095 07-10-2018 07:05:00 11.1 C 95 % 10.33 C
2096 07-10-2018 07:10:00 11.2 C 96 % 10.59 C
2097 07-10-2018 07:15:00 11.2 C 96 % 10.59 C
2098 07-10-2018 07:20:00 11.2 C 96 % 10.59 C
2099 07-10-2018 07:25:00 11.3 C 96 % 10.69 C
2100 07-10-2018 07:30:00 11.4 C 96 % 10.79 C
Sensor: Nr:Datum:Temp:Feuchte:Taupunkt:
Aussen-T/F 2101 07-10-2018 07:35:00 11.8 C 96 % 11.18 C
2102 07-10-2018 07:40:00 12.1 C 97 % 11.64 C
2103 07-10-2018 07:45:00 12.3 C 97 % 11.84 C
2104 07-10-2018 07:50:00 12.3 C 96 % 11.68 C
2105 07-10-2018 07:55:00 12.4 C 97 % 11.94 C
2106 07-10-2018 08:00:00 12.6 C 97 % 12.14 C
2107 07-10-2018 08:05:00 12.8 C 97 % 12.34 C
2108 07-10-2018 08:10:00 12.9 C 97 % 12.44 C
2109 07-10-2018 08:15:00 13.1 C 97 % 12.63 C
2110 07-10-2018 08:20:00 13.1 C 96 % 12.48 C
2111 07-10-2018 08:25:00 13.1 C 96 % 12.48 C
2112 07-10-2018 08:30:00 13.1 C 96 % 12.48 C
2113 07-10-2018 08:35:00 13.1 C 96 % 12.48 C
2114 07-10-2018 08:40:00 13.1 C 96 % 12.48 C
2115 07-10-2018 08:45:00 13.1 C 96 % 12.48 C
2116 07-10-2018 08:50:00 13.1 C 95 % 12.32 C
2117 07-10-2018 08:55:00 13.2 C 95 % 12.42 C
2118 07-10-2018 09:00:00 13.2 C 95 % 12.42 C
2119 07-10-2018 09:05:00 13.2 C 95 % 12.42 C
2120 07-10-2018 09:10:00 13.3 C 95 % 12.52 C
2121 07-10-2018 09:15:00 13.3 C 95 % 12.52 C
2122 07-10-2018 09:20:00 13.3 C 94 % 12.36 C
2123 07-10-2018 09:25:00 13.4 C 94 % 12.45 C
2124 07-10-2018 09:30:00 13.4 C 94 % 12.45 C
2125 07-10-2018 09:35:00 13.4 C 94 % 12.45 C
Sensor: Nr:Datum:Temp:Feuchte:Taupunkt:
Aussen-T/F 2126 07-10-2018 09:40:00 13.4 C 94 % 12.45 C
2127 07-10-2018 09:45:00 13.5 C 94 % 12.55 C
2128 07-10-2018 09:50:00 13.6 C 94 % 12.65 C
2129 07-10-2018 09:55:00 13.6 C 94 % 12.65 C
2130 07-10-2018 10:00:00 13.7 C 94 % 12.75 C
2131 07-10-2018 10:05:00 13.7 C 93 % 12.59 C
2132 07-10-2018 10:10:00 13.8 C 93 % 12.69 C
2133 07-10-2018 10:15:00 13.9 C 93 % 12.79 C
2134 07-10-2018 10:20:00 14 C 93 % 12.89 C
2135 07-10-2018 10:25:00 14.1 C 92 % 12.82 C
2136 07-10-2018 10:30:00 14.2 C 92 % 12.92 C
2137 07-10-2018 10:35:00 14.2 C 92 % 12.92 C
2138 07-10-2018 10:40:00 14.3 C 92 % 13.02 C
2139 07-10-2018 10:45:00 14.3 C 92 % 13.02 C
2140 07-10-2018 10:50:00 14.4 C 91 % 12.95 C
2141 07-10-2018 10:55:00 14.4 C 91 % 12.95 C
2142 07-10-2018 11:00:00 14.5 C 91 % 13.05 C
2143 07-10-2018 11:05:00 14.6 C 91 % 13.15 C
2144 07-10-2018 11:10:00 14.6 C 91 % 13.15 C
2145 07-10-2018 11:15:00 14.7 C 91 % 13.25 C
2146 07-10-2018 11:20:00 14.7 C 91 % 13.25 C
2147 07-10-2018 11:25:00 14.7 C 91 % 13.25 C
2148 07-10-2018 11:30:00 14.8 C 90 % 13.18 C
2149 07-10-2018 11:35:00 14.8 C 90 % 13.18 C
2150 07-10-2018 11:40:00 14.8 C 90 % 13.18 C
Sensor: Nr:Datum:Temp:Feuchte:Taupunkt:
Aussen-T/F 2151 07-10-2018 11:45:00 14.8 C 90 % 13.18 C
2152 07-10-2018 11:50:00 14.8 C 89 % 13.01 C
2153 07-10-2018 11:55:00 14.8 C 89 % 13.01 C
2154 07-10-2018 12:00:00 14.8 C 89 % 13.01 C
2155 07-10-2018 12:05:00 14.8 C 89 % 13.01 C
2156 07-10-2018 12:10:00 14.7 C 90 % 13.08 C
2157 07-10-2018 12:15:00 14.6 C 90 % 12.98 C
2158 07-10-2018 12:20:00 14.4 C 89 % 12.61 C
2159 07-10-2018 12:25:00 14.1 C 89 % 12.32 C
2160 07-10-2018 12:30:00 13.9 C 89 % 12.12 C
2161 07-10-2018 12:35:00 13.9 C 89 % 12.12 C
2162 07-10-2018 12:40:00 13.8 C 89 % 12.02 C
2163 07-10-2018 12:45:00 13.8 C 89 % 12.02 C
2164 07-10-2018 12:50:00 13.9 C 89 % 12.12 C
2165 07-10-2018 12:55:00 13.9 C 89 % 12.12 C
2166 07-10-2018 13:00:00 13.9 C 88 % 11.95 C
2167 07-10-2018 13:05:00 13.9 C 88 % 11.95 C
2168 07-10-2018 13:10:00 13.9 C 88 % 11.95 C
2169 07-10-2018 13:15:00 14 C 88 % 12.05 C
2170 07-10-2018 13:20:00 14.1 C 88 % 12.14 C
2171 07-10-2018 13:25:00 14.2 C 88 % 12.24 C
2172 07-10-2018 13:30:00 14.3 C 87 % 12.17 C
2173 07-10-2018 13:35:00 14.4 C 87 % 12.27 C
2174 07-10-2018 13:40:00 14.6 C 86 % 12.29 C
2175 07-10-2018 13:45:00 14.6 C 86 % 12.29 C
Sensor: Nr:Datum:Temp:Feuchte:Taupunkt:
Aussen-T/F 2176 07-10-2018 13:50:00 14.7 C 86 % 12.38 C
2177 07-10-2018 13:55:00 14.7 C 85 % 12.21 C
2178 07-10-2018 14:00:00 14.6 C 85 % 12.11 C
2179 07-10-2018 14:05:00 14.6 C 85 % 12.11 C
2180 07-10-2018 14:10:00 14.7 C 85 % 12.21 C
2181 07-10-2018 14:15:00 14.7 C 85 % 12.21 C
2182 07-10-2018 14:20:00 14.6 C 85 % 12.11 C
2183 07-10-2018 14:25:00 14.6 C 85 % 12.11 C
2184 07-10-2018 14:30:00 14.6 C 84 % 11.93 C
2185 07-10-2018 14:35:00 14.6 C 84 % 11.93 C
2186 07-10-2018 14:40:00 14.6 C 84 % 11.93 C
2187 07-10-2018 14:45:00 14.6 C 84 % 11.93 C
2188 07-10-2018 14:50:00 14.6 C 84 % 11.93 C
2189 07-10-2018 14:55:00 14.7 C 84 % 12.03 C
2190 07-10-2018 15:00:00 14.7 C 84 % 12.03 C
2191 07-10-2018 15:05:00 14.6 C 83 % 11.75 C
2192 07-10-2018 15:10:00 14.6 C 83 % 11.75 C
2193 07-10-2018 15:15:00 14.6 C 83 % 11.75 C
2194 07-10-2018 15:20:00 14.5 C 83 % 11.65 C
2195 07-10-2018 15:25:00 14.4 C 83 % 11.55 C
2196 07-10-2018 15:30:00 14.4 C 82 % 11.37 C
2197 07-10-2018 15:35:00 14.4 C 82 % 11.37 C
2198 07-10-2018 15:40:00 14.3 C 82 % 11.27 C
2199 07-10-2018 15:45:00 14.3 C 82 % 11.27 C
2200 07-10-2018 15:50:00 14.2 C 83 % 11.36 C
Sensor: Nr:Datum:Temp:Feuchte:Taupunkt:
Aussen-T/F 2201 07-10-2018 15:55:00 14.3 C 82 % 11.27 C
2202 07-10-2018 16:00:00 14.3 C 81 % 11.09 C
2203 07-10-2018 16:05:00 14.3 C 81 % 11.09 C
2204 07-10-2018 16:10:00 14.2 C 81 % 10.99 C
2205 07-10-2018 16:15:00 14.2 C 81 % 10.99 C
2206 07-10-2018 16:20:00 14.3 C 81 % 11.09 C
2207 07-10-2018 16:25:00 14.3 C 80 % 10.9 C
2208 07-10-2018 16:30:00 14.3 C 81 % 11.09 C
2209 07-10-2018 16:35:00 14.4 C 80 % 11 C
2210 07-10-2018 16:40:00 14.4 C 80 % 11 C
2211 07-10-2018 16:45:00 14.5 C 79 % 10.91 C
2212 07-10-2018 16:50:00 14.5 C 79 % 10.91 C
2213 07-10-2018 16:55:00 14.6 C 79 % 11 C
2214 07-10-2018 17:00:00 14.6 C 78 % 10.81 C
2215 07-10-2018 17:05:00 14.6 C 79 % 11 C
2216 07-10-2018 17:10:00 14.6 C 79 % 11 C
2217 07-10-2018 17:15:00 14.6 C 79 % 11 C
2218 07-10-2018 17:20:00 14.6 C 78 % 10.81 C
2219 07-10-2018 17:25:00 14.6 C 78 % 10.81 C
2220 07-10-2018 17:30:00 14.5 C 79 % 10.91 C
2221 07-10-2018 17:35:00 14.5 C 78 % 10.71 C
2222 07-10-2018 17:40:00 14.5 C 79 % 10.91 C
2223 07-10-2018 17:45:00 14.4 C 78 % 10.62 C
2224 07-10-2018 17:50:00 14.4 C 79 % 10.81 C
2225 07-10-2018 17:55:00 14.4 C 79 % 10.81 C
Sensor: Nr:Datum:Temp:Feuchte:Taupunkt:
Aussen-T/F 2226 07-10-2018 18:00:00 14.3 C 79 % 10.71 C
2227 07-10-2018 18:05:00 14.3 C 79 % 10.71 C
2228 07-10-2018 18:10:00 14.3 C 79 % 10.71 C
2229 07-10-2018 18:15:00 14.3 C 79 % 10.71 C
2230 07-10-2018 18:20:00 14.3 C 79 % 10.71 C
2231 07-10-2018 18:25:00 14.3 C 79 % 10.71 C
2232 07-10-2018 18:30:00 14.2 C 79 % 10.61 C
2233 07-10-2018 18:35:00 14.2 C 79 % 10.61 C
2234 07-10-2018 18:40:00 14.2 C 79 % 10.61 C
2235 07-10-2018 18:45:00 14.2 C 80 % 10.8 C
2236 07-10-2018 18:50:00 14.2 C 80 % 10.8 C
2237 07-10-2018 18:55:00 14.1 C 80 % 10.71 C
2238 07-10-2018 19:00:00 14.1 C 81 % 10.89 C
2239 07-10-2018 19:05:00 14.1 C 82 % 11.08 C
2240 07-10-2018 19:10:00 13.9 C 82 % 10.88 C
2241 07-10-2018 19:15:00 13.9 C 82 % 10.88 C
2242 07-10-2018 19:20:00 13.8 C 83 % 10.97 C
2243 07-10-2018 19:25:00 13.7 C 83 % 10.87 C
2244 07-10-2018 19:30:00 13.7 C 83 % 10.87 C
2245 07-10-2018 19:35:00 13.6 C 83 % 10.77 C
2246 07-10-2018 19:40:00 13.5 C 84 % 10.85 C
2247 07-10-2018 19:45:00 13.4 C 84 % 10.75 C
2248 07-10-2018 19:50:00 13.4 C 84 % 10.75 C
2249 07-10-2018 19:55:00 13.4 C 84 % 10.75 C
2250 07-10-2018 20:00:00 13.3 C 84 % 10.66 C
Sensor: Nr:Datum:Temp:Feuchte:Taupunkt:
Aussen-T/F 2251 07-10-2018 20:05:00 13.3 C 84 % 10.66 C
2252 07-10-2018 20:10:00 13.3 C 85 % 10.83 C
2253 07-10-2018 20:15:00 13.2 C 85 % 10.74 C
2254 07-10-2018 20:20:00 13.2 C 85 % 10.74 C
2255 07-10-2018 20:25:00 13.2 C 85 % 10.74 C
2256 07-10-2018 20:30:00 13.2 C 85 % 10.74 C
2257 07-10-2018 20:35:00 13.1 C 85 % 10.64 C
2258 07-10-2018 20:40:00 13.1 C 85 % 10.64 C
2259 07-10-2018 20:45:00 13.1 C 85 % 10.64 C
2260 07-10-2018 20:50:00 13 C 85 % 10.54 C
2261 07-10-2018 20:55:00 12.9 C 85 % 10.44 C
2262 07-10-2018 21:00:00 12.9 C 86 % 10.62 C
2263 07-10-2018 21:05:00 12.9 C 86 % 10.62 C
2264 07-10-2018 21:10:00 12.9 C 86 % 10.62 C
2265 07-10-2018 21:15:00 12.8 C 86 % 10.52 C
2266 07-10-2018 21:20:00 12.8 C 86 % 10.52 C
2267 07-10-2018 21:25:00 12.7 C 86 % 10.42 C
2268 07-10-2018 21:30:00 12.7 C 86 % 10.42 C
2269 07-10-2018 21:35:00 12.7 C 86 % 10.42 C
2270 07-10-2018 21:40:00 12.7 C 86 % 10.42 C
2271 07-10-2018 21:45:00 12.7 C 86 % 10.42 C
2272 07-10-2018 21:50:00 12.7 C 86 % 10.42 C
2273 07-10-2018 21:55:00 12.7 C 86 % 10.42 C
2274 07-10-2018 22:00:00 12.7 C 86 % 10.42 C
2275 07-10-2018 22:05:00 12.7 C 86 % 10.42 C
Sensor: Nr:Datum:Temp:Feuchte:Taupunkt:
Aussen-T/F 2276 07-10-2018 22:10:00 12.6 C 85 % 10.15 C
2277 07-10-2018 22:15:00 12.4 C 85 % 9.95 C
2278 07-10-2018 22:20:00 12.3 C 85 % 9.85 C
2279 07-10-2018 22:25:00 12.1 C 85 % 9.66 C
2280 07-10-2018 22:30:00 11.9 C 86 % 9.64 C
2281 07-10-2018 22:35:00 11.7 C 86 % 9.44 C
2282 07-10-2018 22:40:00 11.6 C 86 % 9.34 C
2283 07-10-2018 22:45:00 11.5 C 87 % 9.41 C
2284 07-10-2018 22:50:00 11.4 C 87 % 9.32 C
2285 07-10-2018 22:55:00 11.3 C 87 % 9.22 C
2286 07-10-2018 23:00:00 11.2 C 87 % 9.12 C
2287 07-10-2018 23:05:00 11.1 C 87 % 9.02 C
2288 07-10-2018 23:10:00 10.9 C 87 % 8.82 C
2289 07-10-2018 23:15:00 10.8 C 88 % 8.89 C
2290 07-10-2018 23:20:00 10.7 C 87 % 8.63 C
2291 07-10-2018 23:25:00 10.6 C 87 % 8.53 C
2292 07-10-2018 23:30:00 10.5 C 88 % 8.6 C
2293 07-10-2018 23:35:00 10.4 C 88 % 8.5 C
2294 07-10-2018 23:40:00 10.3 C 88 % 8.4 C
2295 07-10-2018 23:45:00 10.2 C 88 % 8.3 C
2296 07-10-2018 23:50:00 10.1 C 88 % 8.21 C
2297 07-10-2018 23:55:00 10.1 C 88 % 8.21 C
2298 08-10-2018 00:00:00 9.9 C 88 % 8.01 C
2299 08-10-2018 00:05:00 9.9 C 88 % 8.01 C
2300 08-10-2018 00:10:00 9.8 C 89 % 8.08 C
Sensor: Nr:Datum:Temp:Feuchte:Taupunkt:
Aussen-T/F 2301 08-10-2018 00:15:00 9.8 C 89 % 8.08 C
2302 08-10-2018 00:20:00 9.7 C 89 % 7.98 C
2303 08-10-2018 00:25:00 9.7 C 89 % 7.98 C
2304 08-10-2018 00:30:00 9.6 C 89 % 7.88 C
2305 08-10-2018 00:35:00 9.4 C 89 % 7.68 C
2306 08-10-2018 00:40:00 9.4 C 90 % 7.85 C
2307 08-10-2018 00:45:00 9.3 C 90 % 7.75 C
2308 08-10-2018 00:50:00 9.2 C 90 % 7.65 C
2309 08-10-2018 00:55:00 9.2 C 90 % 7.65 C
2310 08-10-2018 01:00:00 9.2 C 90 % 7.65 C
2311 08-10-2018 01:05:00 9.1 C 90 % 7.55 C
2312 08-10-2018 01:10:00 9 C 90 % 7.45 C
2313 08-10-2018 01:15:00 8.9 C 90 % 7.35 C
2314 08-10-2018 01:20:00 8.8 C 91 % 7.41 C
2315 08-10-2018 01:25:00 8.8 C 91 % 7.41 C
2316 08-10-2018 01:30:00 8.8 C 91 % 7.41 C
2317 08-10-2018 01:35:00 8.8 C 91 % 7.41 C
2318 08-10-2018 01:40:00 8.8 C 91 % 7.41 C
2319 08-10-2018 01:45:00 8.7 C 91 % 7.32 C
2320 08-10-2018 01:50:00 8.6 C 90 % 7.06 C
2321 08-10-2018 01:55:00 8.6 C 91 % 7.22 C
2322 08-10-2018 02:00:00 8.4 C 91 % 7.02 C
2323 08-10-2018 02:05:00 8.4 C 91 % 7.02 C
2324 08-10-2018 02:10:00 8.3 C 91 % 6.92 C
2325 08-10-2018 02:15:00 8.3 C 91 % 6.92 C
Sensor: Nr:Datum:Temp:Feuchte:Taupunkt:
Aussen-T/F 2326 08-10-2018 02:20:00 8.2 C 91 % 6.82 C
2327 08-10-2018 02:25:00 8.1 C 91 % 6.72 C
2328 08-10-2018 02:30:00 8 C 91 % 6.62 C
2329 08-10-2018 02:35:00 7.9 C 92 % 6.68 C
2330 08-10-2018 02:40:00 7.8 C 92 % 6.58 C
2331 08-10-2018 02:45:00 7.8 C 92 % 6.58 C
2332 08-10-2018 02:50:00 7.8 C 92 % 6.58 C
2333 08-10-2018 02:55:00 7.7 C 92 % 6.48 C
2334 08-10-2018 03:00:00 7.7 C 92 % 6.48 C
2335 08-10-2018 03:05:00 7.6 C 92 % 6.39 C
2336 08-10-2018 03:10:00 7.5 C 92 % 6.29 C
2337 08-10-2018 03:15:00 7.4 C 92 % 6.19 C
2338 08-10-2018 03:20:00 7.4 C 93 % 6.34 C
2339 08-10-2018 03:25:00 7.4 C 93 % 6.34 C
2340 08-10-2018 03:30:00 7.3 C 93 % 6.25 C
2341 08-10-2018 03:35:00 7.3 C 93 % 6.25 C
2342 08-10-2018 03:40:00 7.2 C 93 % 6.15 C
2343 08-10-2018 03:45:00 7.2 C 93 % 6.15 C
2344 08-10-2018 03:50:00 7.1 C 93 % 6.05 C
2345 08-10-2018 03:55:00 7.1 C 93 % 6.05 C
2346 08-10-2018 04:00:00 7.1 C 93 % 6.05 C
2347 08-10-2018 04:05:00 7 C 93 % 5.95 C
2348 08-10-2018 04:10:00 6.9 C 93 % 5.85 C
2349 08-10-2018 04:15:00 6.9 C 93 % 5.85 C
2350 08-10-2018 04:20:00 6.9 C 94 % 6 C
Sensor: Nr:Datum:Temp:Feuchte:Taupunkt:
Aussen-T/F 2351 08-10-2018 04:25:00 6.9 C 94 % 6 C
2352 08-10-2018 04:30:00 6.8 C 93 % 5.75 C
2353 08-10-2018 04:35:00 6.8 C 94 % 5.9 C
2354 08-10-2018 04:40:00 6.8 C 94 % 5.9 C
2355 08-10-2018 04:45:00 6.8 C 94 % 5.9 C
2356 08-10-2018 04:50:00 6.8 C 94 % 5.9 C
2357 08-10-2018 04:55:00 6.7 C 94 % 5.8 C
2358 08-10-2018 05:00:00 6.7 C 94 % 5.8 C
2359 08-10-2018 05:05:00 6.7 C 94 % 5.8 C
2360 08-10-2018 05:10:00 6.6 C 94 % 5.71 C
2361 08-10-2018 05:15:00 6.6 C 94 % 5.71 C
2362 08-10-2018 05:20:00 6.5 C 94 % 5.61 C
2363 08-10-2018 05:25:00 6.4 C 94 % 5.51 C
2364 08-10-2018 05:30:00 6.4 C 94 % 5.51 C
2365 08-10-2018 05:35:00 6.4 C 94 % 5.51 C
2366 08-10-2018 05:40:00 6.4 C 94 % 5.51 C
2367 08-10-2018 05:45:00 6.3 C 94 % 5.41 C
2368 08-10-2018 05:50:00 6.3 C 94 % 5.41 C
2369 08-10-2018 05:55:00 6.3 C 94 % 5.41 C
2370 08-10-2018 06:00:00 6.3 C 95 % 5.56 C
2371 08-10-2018 06:05:00 6.2 C 94 % 5.31 C
2372 08-10-2018 06:10:00 6.2 C 94 % 5.31 C
2373 08-10-2018 06:15:00 6.1 C 94 % 5.21 C
2374 08-10-2018 06:20:00 6.1 C 94 % 5.21 C
2375 08-10-2018 06:25:00 6 C 94 % 5.11 C
Sensor: Nr:Datum:Temp:Feuchte:Taupunkt:
Aussen-T/F 2376 08-10-2018 06:30:00 6 C 95 % 5.26 C
2377 08-10-2018 06:35:00 5.9 C 95 % 5.16 C
2378 08-10-2018 06:40:00 5.9 C 95 % 5.16 C
2379 08-10-2018 06:45:00 5.9 C 95 % 5.16 C
2380 08-10-2018 06:50:00 5.9 C 95 % 5.16 C
2381 08-10-2018 06:55:00 6 C 95 % 5.26 C
2382 08-10-2018 07:00:00 6.1 C 95 % 5.36 C
2383 08-10-2018 07:05:00 6.2 C 95 % 5.46 C
2384 08-10-2018 07:10:00 6.2 C 95 % 5.46 C
2385 08-10-2018 07:15:00 6.3 C 95 % 5.56 C
2386 08-10-2018 07:20:00 6.3 C 95 % 5.56 C
2387 08-10-2018 07:25:00 6.3 C 95 % 5.56 C
2388 08-10-2018 07:30:00 6.3 C 95 % 5.56 C
2389 08-10-2018 07:35:00 6.3 C 95 % 5.56 C
2390 08-10-2018 07:40:00 6.2 C 95 % 5.46 C
2391 08-10-2018 07:45:00 6.2 C 95 % 5.46 C
2392 08-10-2018 07:50:00 6.1 C 95 % 5.36 C
2393 08-10-2018 07:55:00 6.1 C 95 % 5.36 C
2394 08-10-2018 08:00:00 6.1 C 95 % 5.36 C
2395 08-10-2018 08:05:00 6.1 C 95 % 5.36 C
2396 08-10-2018 08:10:00 6.2 C 95 % 5.46 C
2397 08-10-2018 08:15:00 6.2 C 95 % 5.46 C
2398 08-10-2018 08:20:00 6.2 C 95 % 5.46 C
2399 08-10-2018 08:25:00 6.2 C 95 % 5.46 C
2400 08-10-2018 08:30:00 6.2 C 95 % 5.46 C
Sensor: Nr:Datum:Temp:Feuchte:Taupunkt:
Aussen-T/F 2401 08-10-2018 08:35:00 6.2 C 95 % 5.46 C
2402 08-10-2018 08:40:00 6.2 C 95 % 5.46 C
2403 08-10-2018 08:45:00 6.2 C 96 % 5.61 C
2404 08-10-2018 08:50:00 6.3 C 96 % 5.71 C
2405 08-10-2018 08:55:00 6.3 C 96 % 5.71 C
2406 08-10-2018 09:00:00 6.4 C 96 % 5.81 C
2407 08-10-2018 09:05:00 6.5 C 96 % 5.91 C
2408 08-10-2018 09:10:00 6.5 C 96 % 5.91 C
2409 08-10-2018 09:15:00 6.6 C 96 % 6.01 C
2410 08-10-2018 09:20:00 6.6 C 96 % 6.01 C
2411 08-10-2018 09:25:00 6.8 C 96 % 6.21 C
2412 08-10-2018 09:30:00 6.9 C 96 % 6.31 C
2413 08-10-2018 09:35:00 7.1 C 96 % 6.51 C
2414 08-10-2018 09:40:00 7.3 C 96 % 6.71 C
2415 08-10-2018 09:45:00 7.4 C 96 % 6.8 C
2416 08-10-2018 09:50:00 7.4 C 96 % 6.8 C
2417 08-10-2018 09:55:00 7.5 C 96 % 6.9 C
2418 08-10-2018 10:00:00 7.6 C 96 % 7 C
2419 08-10-2018 10:05:00 7.6 C 96 % 7 C
2420 08-10-2018 10:10:00 7.6 C 96 % 7 C
2421 08-10-2018 10:15:00 7.7 C 96 % 7.1 C
2422 08-10-2018 10:20:00 7.7 C 96 % 7.1 C
2423 08-10-2018 10:25:00 7.8 C 96 % 7.2 C
2424 08-10-2018 10:30:00 7.8 C 96 % 7.2 C
2425 08-10-2018 10:35:00 7.8 C 96 % 7.2 C
Sensor: Nr:Datum:Temp:Feuchte:Taupunkt:
Aussen-T/F 2426 08-10-2018 10:40:00 7.9 C 96 % 7.3 C
2427 08-10-2018 10:45:00 7.9 C 96 % 7.3 C
2428 08-10-2018 10:50:00 8.1 C 96 % 7.5 C
2429 08-10-2018 10:55:00 8.1 C 96 % 7.5 C
2430 08-10-2018 11:00:00 8.2 C 96 % 7.6 C
2431 08-10-2018 11:05:00 8.2 C 96 % 7.6 C
2432 08-10-2018 11:10:00 8.3 C 96 % 7.7 C
2433 08-10-2018 11:15:00 8.4 C 96 % 7.8 C
2434 08-10-2018 11:20:00 8.6 C 96 % 8 C
2435 08-10-2018 11:25:00 8.7 C 96 % 8.1 C
2436 08-10-2018 11:30:00 8.8 C 96 % 8.2 C
2437 08-10-2018 11:35:00 8.9 C 96 % 8.3 C
2438 08-10-2018 11:40:00 9.1 C 96 % 8.5 C
2439 08-10-2018 11:45:00 9.2 C 96 % 8.6 C
2440 08-10-2018 11:50:00 9.4 C 96 % 8.8 C
2441 08-10-2018 11:55:00 9.6 C 96 % 8.99 C
2442 08-10-2018 12:00:00 9.7 C 96 % 9.09 C
2443 08-10-2018 12:05:00 9.8 C 96 % 9.19 C
2444 08-10-2018 12:10:00 10 C 95 % 9.24 C
2445 08-10-2018 12:15:00 10.2 C 95 % 9.44 C
2446 08-10-2018 12:20:00 10.3 C 95 % 9.54 C
2447 08-10-2018 12:25:00 10.4 C 95 % 9.63 C
2448 08-10-2018 12:30:00 10.6 C 95 % 9.83 C
2449 08-10-2018 12:35:00 10.7 C 95 % 9.93 C
2450 08-10-2018 12:40:00 10.8 C 94 % 9.87 C
Sensor: Nr:Datum:Temp:Feuchte:Taupunkt:
Aussen-T/F 2451 08-10-2018 12:45:00 11 C 94 % 10.07 C
2452 08-10-2018 12:50:00 11.2 C 94 % 10.27 C
2453 08-10-2018 12:55:00 11.3 C 93 % 10.21 C
2454 08-10-2018 13:00:00 11.5 C 93 % 10.41 C
2455 08-10-2018 13:05:00 11.7 C 92 % 10.44 C
2456 08-10-2018 13:10:00 11.9 C 92 % 10.64 C
2457 08-10-2018 13:15:00 12.2 C 91 % 10.78 C
2458 08-10-2018 13:20:00 12.5 C 91 % 11.07 C
2459 08-10-2018 13:25:00 12.7 C 88 % 10.77 C
2460 08-10-2018 13:30:00 12.9 C 89 % 11.13 C
2461 08-10-2018 13:35:00 13.1 C 87 % 10.99 C
2462 08-10-2018 13:40:00 13.3 C 84 % 10.66 C
2463 08-10-2018 13:45:00 13.7 C 84 % 11.05 C
2464 08-10-2018 13:50:00 14 C 83 % 11.16 C
2465 08-10-2018 13:55:00 14.2 C 81 % 10.99 C
2466 08-10-2018 14:00:00 14.4 C 80 % 11 C
2467 08-10-2018 14:05:00 14.7 C 79 % 11.1 C
2468 08-10-2018 14:10:00 14.9 C 80 % 11.48 C
2469 08-10-2018 14:15:00 15.2 C 79 % 11.59 C
2470 08-10-2018 14:20:00 15.5 C 78 % 11.68 C
2471 08-10-2018 14:25:00 15.7 C 76 % 11.48 C
2472 08-10-2018 14:30:00 15.9 C 74 % 11.28 C
2473 08-10-2018 14:35:00 16.2 C 76 % 11.97 C
2474 08-10-2018 14:40:00 16.4 C 76 % 12.16 C
2475 08-10-2018 14:45:00 16.6 C 72 % 11.54 C
Sensor: Nr:Datum:Temp:Feuchte:Taupunkt:
Aussen-T/F 2476 08-10-2018 14:50:00 16.6 C 72 % 11.54 C
2477 08-10-2018 14:55:00 16.6 C 73 % 11.74 C
2478 08-10-2018 15:00:00 16.6 C 74 % 11.95 C
2479 08-10-2018 15:05:00 16.6 C 74 % 11.95 C
2480 08-10-2018 15:10:00 16.6 C 72 % 11.54 C
2481 08-10-2018 15:15:00 16.7 C 75 % 12.25 C
2482 08-10-2018 15:20:00 16.7 C 76 % 12.45 C
2483 08-10-2018 15:25:00 16.7 C 73 % 11.84 C
2484 08-10-2018 15:30:00 16.7 C 72 % 11.63 C
2485 08-10-2018 15:35:00 16.7 C 71 % 11.42 C
2486 08-10-2018 15:40:00 16.8 C 71 % 11.52 C
2487 08-10-2018 15:45:00 16.9 C 72 % 11.82 C
2488 08-10-2018 15:50:00 16.9 C 72 % 11.82 C
2489 08-10-2018 15:55:00 16.9 C 74 % 12.24 C
2490 08-10-2018 16:00:00 17 C 71 % 11.71 C
2491 08-10-2018 16:05:00 17.1 C 70 % 11.59 C
2492 08-10-2018 16:10:00 17.2 C 72 % 12.11 C
2493 08-10-2018 16:15:00 17.2 C 72 % 12.11 C
2494 08-10-2018 16:20:00 17.2 C 72 % 12.11 C
2495 08-10-2018 16:25:00 17.2 C 73 % 12.32 C
2496 08-10-2018 16:30:00 17.2 C 73 % 12.32 C
2497 08-10-2018 16:35:00 17.3 C 75 % 12.83 C
2498 08-10-2018 16:40:00 17.3 C 76 % 13.03 C
2499 08-10-2018 16:45:00 17.2 C 72 % 12.11 C
2500 08-10-2018 16:50:00 17.2 C 75 % 12.73 C
Sensor: Nr:Datum:Temp:Feuchte:Taupunkt:
Aussen-T/F 2501 08-10-2018 16:55:00 17.2 C 76 % 12.94 C
2502 08-10-2018 17:00:00 17.2 C 76 % 12.94 C
2503 08-10-2018 17:05:00 17.2 C 76 % 12.94 C
2504 08-10-2018 17:10:00 17.1 C 76 % 12.84 C
2505 08-10-2018 17:15:00 17 C 77 % 12.94 C
2506 08-10-2018 17:20:00 16.9 C 77 % 12.84 C
2507 08-10-2018 17:25:00 16.8 C 77 % 12.75 C
2508 08-10-2018 17:30:00 16.8 C 78 % 12.94 C
2509 08-10-2018 17:35:00 16.7 C 78 % 12.85 C
2510 08-10-2018 17:40:00 16.6 C 79 % 12.95 C
2511 08-10-2018 17:45:00 16.5 C 79 % 12.85 C
2512 08-10-2018 17:50:00 16.5 C 79 % 12.85 C
2513 08-10-2018 17:55:00 16.5 C 79 % 12.85 C
2514 08-10-2018 18:00:00 16.4 C 79 % 12.75 C
2515 08-10-2018 18:05:00 16.4 C 79 % 12.75 C
2516 08-10-2018 18:10:00 16.4 C 80 % 12.94 C
2517 08-10-2018 18:15:00 16.4 C 79 % 12.75 C
2518 08-10-2018 18:20:00 16.4 C 79 % 12.75 C
2519 08-10-2018 18:25:00 16.3 C 78 % 12.46 C
2520 08-10-2018 18:30:00 16.2 C 78 % 12.36 C
2521 08-10-2018 18:35:00 16.1 C 78 % 12.27 C
2522 08-10-2018 18:40:00 15.8 C 79 % 12.17 C
2523 08-10-2018 18:45:00 15.5 C 79 % 11.88 C
2524 08-10-2018 18:50:00 15.3 C 80 % 11.87 C
2525 08-10-2018 18:55:00 15 C 80 % 11.58 C
Sensor: Nr:Datum:Temp:Feuchte:Taupunkt:
Aussen-T/F 2526 08-10-2018 19:00:00 14.8 C 81 % 11.57 C
2527 08-10-2018 19:05:00 14.6 C 81 % 11.38 C
2528 08-10-2018 19:10:00 14.4 C 81 % 11.18 C
2529 08-10-2018 19:15:00 14.2 C 81 % 10.99 C
2530 08-10-2018 19:20:00 14 C 81 % 10.79 C
2531 08-10-2018 19:25:00 13.8 C 82 % 10.78 C
2532 08-10-2018 19:30:00 13.7 C 82 % 10.69 C
2533 08-10-2018 19:35:00 13.7 C 83 % 10.87 C
2534 08-10-2018 19:40:00 13.6 C 82 % 10.59 C
2535 08-10-2018 19:45:00 13.5 C 83 % 10.67 C
2536 08-10-2018 19:50:00 13.4 C 83 % 10.57 C
2537 08-10-2018 19:55:00 13.3 C 83 % 10.48 C
2538 08-10-2018 20:00:00 13.3 C 83 % 10.48 C
2539 08-10-2018 20:05:00 13.2 C 84 % 10.56 C
2540 08-10-2018 20:10:00 13 C 84 % 10.36 C
2541 08-10-2018 20:15:00 12.8 C 85 % 10.34 C
2542 08-10-2018 20:20:00 12.7 C 85 % 10.25 C
2543 08-10-2018 20:25:00 12.4 C 86 % 10.13 C
2544 08-10-2018 20:30:00 12.3 C 86 % 10.03 C
2545 08-10-2018 20:35:00 12.1 C 86 % 9.83 C
2546 08-10-2018 20:40:00 12 C 87 % 9.91 C
2547 08-10-2018 20:45:00 11.8 C 87 % 9.71 C
2548 08-10-2018 20:50:00 11.8 C 88 % 9.88 C
2549 08-10-2018 20:55:00 11.7 C 88 % 9.78 C
2550 08-10-2018 21:00:00 11.7 C 88 % 9.78 C
Sensor: Nr:Datum:Temp:Feuchte:Taupunkt:
Aussen-T/F 2551 08-10-2018 21:05:00 11.7 C 88 % 9.78 C
2552 08-10-2018 21:10:00 11.5 C 88 % 9.58 C
2553 08-10-2018 21:15:00 11.4 C 88 % 9.49 C
2554 08-10-2018 21:20:00 11.3 C 88 % 9.39 C
2555 08-10-2018 21:25:00 11.3 C 89 % 9.55 C
2556 08-10-2018 21:30:00 11.2 C 89 % 9.46 C
2557 08-10-2018 21:35:00 11 C 89 % 9.26 C
2558 08-10-2018 21:40:00 10.9 C 89 % 9.16 C
2559 08-10-2018 21:45:00 10.8 C 89 % 9.06 C
2560 08-10-2018 21:50:00 10.8 C 90 % 9.23 C
2561 08-10-2018 21:55:00 10.7 C 90 % 9.13 C
2562 08-10-2018 22:00:00 10.6 C 90 % 9.03 C
2563 08-10-2018 22:05:00 10.5 C 90 % 8.93 C
2564 08-10-2018 22:10:00 10.4 C 90 % 8.83 C
2565 08-10-2018 22:15:00 10.3 C 91 % 8.9 C
2566 08-10-2018 22:20:00 10.3 C 91 % 8.9 C
2567 08-10-2018 22:25:00 10.3 C 91 % 8.9 C
2568 08-10-2018 22:30:00 10.2 C 91 % 8.8 C
2569 08-10-2018 22:35:00 10.2 C 91 % 8.8 C
2570 08-10-2018 22:40:00 10.1 C 91 % 8.7 C
2571 08-10-2018 22:45:00 9.9 C 91 % 8.5 C
2572 08-10-2018 22:50:00 9.8 C 91 % 8.4 C
2573 08-10-2018 22:55:00 9.7 C 91 % 8.3 C
2574 08-10-2018 23:00:00 9.7 C 92 % 8.46 C
2575 08-10-2018 23:05:00 9.7 C 92 % 8.46 C
Sensor: Nr:Datum:Temp:Feuchte:Taupunkt:
Aussen-T/F 2576 08-10-2018 23:10:00 9.7 C 92 % 8.46 C
2577 08-10-2018 23:15:00 9.6 C 92 % 8.37 C
2578 08-10-2018 23:20:00 9.5 C 92 % 8.27 C
2579 08-10-2018 23:25:00 9.4 C 92 % 8.17 C
2580 08-10-2018 23:30:00 9.4 C 92 % 8.17 C
2581 08-10-2018 23:35:00 9.3 C 92 % 8.07 C
2582 08-10-2018 23:40:00 9.3 C 92 % 8.07 C
2583 08-10-2018 23:45:00 9.3 C 93 % 8.23 C
2584 08-10-2018 23:50:00 9.3 C 93 % 8.23 C
2585 08-10-2018 23:55:00 9.2 C 93 % 8.13 C
2586 09-10-2018 00:00:00 9.3 C 93 % 8.23 C
2587 09-10-2018 00:05:00 9.2 C 93 % 8.13 C
2588 09-10-2018 00:10:00 9.2 C 93 % 8.13 C
2589 09-10-2018 00:15:00 9.2 C 93 % 8.13 C
2590 09-10-2018 00:20:00 9.1 C 93 % 8.03 C
2591 09-10-2018 00:25:00 9 C 93 % 7.93 C
2592 09-10-2018 00:30:00 8.9 C 93 % 7.83 C
2593 09-10-2018 00:35:00 8.9 C 93 % 7.83 C
2594 09-10-2018 00:40:00 8.9 C 93 % 7.83 C
2595 09-10-2018 00:45:00 8.8 C 93 % 7.73 C
2596 09-10-2018 00:50:00 8.8 C 93 % 7.73 C
2597 09-10-2018 00:55:00 8.7 C 93 % 7.63 C
2598 09-10-2018 01:00:00 8.7 C 94 % 7.79 C
2599 09-10-2018 01:05:00 8.8 C 94 % 7.89 C
2600 09-10-2018 01:10:00 8.9 C 94 % 7.99 C
Sensor: Nr:Datum:Temp:Feuchte:Taupunkt:
Aussen-T/F 2601 09-10-2018 01:15:00 9.2 C 95 % 8.44 C
2602 09-10-2018 01:20:00 9.2 C 95 % 8.44 C
2603 09-10-2018 01:25:00 9.2 C 94 % 8.29 C
2604 09-10-2018 01:30:00 9.2 C 94 % 8.29 C
2605 09-10-2018 01:35:00 9.1 C 94 % 8.19 C
2606 09-10-2018 01:40:00 9 C 94 % 8.09 C
2607 09-10-2018 01:45:00 8.9 C 94 % 7.99 C
2608 09-10-2018 01:50:00 8.8 C 94 % 7.89 C
2609 09-10-2018 01:55:00 8.9 C 95 % 8.14 C
2610 09-10-2018 02:00:00 8.9 C 94 % 7.99 C
2611 09-10-2018 02:05:00 8.7 C 94 % 7.79 C
2612 09-10-2018 02:10:00 8.6 C 94 % 7.69 C
2613 09-10-2018 02:15:00 8.7 C 94 % 7.79 C
2614 09-10-2018 02:20:00 8.7 C 95 % 7.94 C
2615 09-10-2018 02:25:00 8.8 C 95 % 8.04 C
2616 09-10-2018 02:30:00 8.9 C 95 % 8.14 C
2617 09-10-2018 02:35:00 8.9 C 95 % 8.14 C
2618 09-10-2018 02:40:00 8.9 C 95 % 8.14 C
2619 09-10-2018 02:45:00 8.8 C 95 % 8.04 C
2620 09-10-2018 02:50:00 8.7 C 94 % 7.79 C
2621 09-10-2018 02:55:00 8.5 C 94 % 7.59 C
2622 09-10-2018 03:00:00 8.4 C 94 % 7.49 C
2623 09-10-2018 03:05:00 8.3 C 94 % 7.39 C
2624 09-10-2018 03:10:00 8.3 C 95 % 7.55 C
2625 09-10-2018 03:15:00 8.2 C 95 % 7.45 C
Sensor: Nr:Datum:Temp:Feuchte:Taupunkt:
Aussen-T/F 2626 09-10-2018 03:20:00 8.2 C 95 % 7.45 C
2627 09-10-2018 03:25:00 8.2 C 95 % 7.45 C
2628 09-10-2018 03:30:00 8.2 C 95 % 7.45 C
2629 09-10-2018 03:35:00 8.2 C 95 % 7.45 C
2630 09-10-2018 03:40:00 8.1 C 95 % 7.35 C
2631 09-10-2018 03:45:00 7.9 C 95 % 7.15 C
2632 09-10-2018 03:50:00 7.8 C 95 % 7.05 C
2633 09-10-2018 03:55:00 7.8 C 95 % 7.05 C
2634 09-10-2018 04:00:00 8 C 95 % 7.25 C
2635 09-10-2018 04:05:00 8.2 C 96 % 7.6 C
2636 09-10-2018 04:10:00 8.2 C 95 % 7.45 C
2637 09-10-2018 04:15:00 8 C 95 % 7.25 C
2638 09-10-2018 04:20:00 7.8 C 94 % 6.9 C
2639 09-10-2018 04:25:00 7.6 C 95 % 6.85 C
2640 09-10-2018 04:30:00 7.8 C 95 % 7.05 C
2641 09-10-2018 04:35:00 8 C 95 % 7.25 C
2642 09-10-2018 04:40:00 7.8 C 95 % 7.05 C
2643 09-10-2018 04:45:00 7.7 C 95 % 6.95 C
2644 09-10-2018 04:50:00 7.6 C 95 % 6.85 C
2645 09-10-2018 04:55:00 7.6 C 95 % 6.85 C
2646 09-10-2018 05:00:00 7.6 C 95 % 6.85 C
2647 09-10-2018 05:05:00 7.6 C 95 % 6.85 C
2648 09-10-2018 05:10:00 7.6 C 95 % 6.85 C
2649 09-10-2018 05:15:00 7.5 C 95 % 6.75 C
2650 09-10-2018 05:20:00 7.4 C 95 % 6.65 C
Sensor: Nr:Datum:Temp:Feuchte:Taupunkt:
Aussen-T/F 2651 09-10-2018 05:25:00 7.3 C 95 % 6.55 C
2652 09-10-2018 05:30:00 7.2 C 95 % 6.45 C
2653 09-10-2018 05:35:00 7.2 C 95 % 6.45 C
2654 09-10-2018 05:40:00 7.2 C 95 % 6.45 C
2655 09-10-2018 05:45:00 7.1 C 95 % 6.35 C
2656 09-10-2018 05:50:00 7.1 C 95 % 6.35 C
2657 09-10-2018 05:55:00 7.1 C 95 % 6.35 C
2658 09-10-2018 06:00:00 6.9 C 95 % 6.16 C
2659 09-10-2018 06:05:00 6.8 C 95 % 6.06 C
2660 09-10-2018 06:10:00 6.8 C 95 % 6.06 C
2661 09-10-2018 06:15:00 6.8 C 95 % 6.06 C
2662 09-10-2018 06:20:00 6.8 C 95 % 6.06 C
2663 09-10-2018 06:25:00 6.7 C 95 % 5.96 C
2664 09-10-2018 06:30:00 6.7 C 95 % 5.96 C
2665 09-10-2018 06:35:00 6.7 C 95 % 5.96 C
2666 09-10-2018 06:40:00 6.7 C 95 % 5.96 C
2667 09-10-2018 06:45:00 6.8 C 96 % 6.21 C
2668 09-10-2018 06:50:00 6.9 C 96 % 6.31 C
2669 09-10-2018 06:55:00 6.8 C 96 % 6.21 C
2670 09-10-2018 07:00:00 6.7 C 96 % 6.11 C
2671 09-10-2018 07:05:00 6.8 C 96 % 6.21 C
2672 09-10-2018 07:10:00 6.9 C 96 % 6.31 C
2673 09-10-2018 07:15:00 7.1 C 96 % 6.51 C
2674 09-10-2018 07:20:00 7.1 C 96 % 6.51 C
2675 09-10-2018 07:25:00 7 C 96 % 6.41 C
Sensor: Nr:Datum:Temp:Feuchte:Taupunkt:
Aussen-T/F 2676 09-10-2018 07:30:00 6.9 C 96 % 6.31 C
2677 09-10-2018 07:35:00 6.8 C 96 % 6.21 C
2678 09-10-2018 07:40:00 6.8 C 96 % 6.21 C
2679 09-10-2018 07:45:00 6.8 C 96 % 6.21 C
2680 09-10-2018 07:50:00 6.7 C 96 % 6.11 C
2681 09-10-2018 07:55:00 6.7 C 96 % 6.11 C
2682 09-10-2018 08:00:00 6.8 C 96 % 6.21 C
2683 09-10-2018 08:05:00 6.9 C 96 % 6.31 C
2684 09-10-2018 08:10:00 7 C 96 % 6.41 C
2685 09-10-2018 08:15:00 7.1 C 96 % 6.51 C
2686 09-10-2018 08:20:00 7.2 C 96 % 6.61 C
2687 09-10-2018 08:25:00 7.2 C 96 % 6.61 C
2688 09-10-2018 08:30:00 7.2 C 96 % 6.61 C
2689 09-10-2018 08:35:00 7.3 C 96 % 6.71 C
2690 09-10-2018 08:40:00 7.3 C 96 % 6.71 C
2691 09-10-2018 08:45:00 7.3 C 96 % 6.71 C
2692 09-10-2018 08:50:00 7.3 C 96 % 6.71 C
2693 09-10-2018 08:55:00 7.3 C 96 % 6.71 C
2694 09-10-2018 09:00:00 7.4 C 96 % 6.8 C
2695 09-10-2018 09:05:00 7.4 C 96 % 6.8 C
2696 09-10-2018 09:10:00 7.5 C 96 % 6.9 C
2697 09-10-2018 09:15:00 7.6 C 96 % 7 C
2698 09-10-2018 09:20:00 7.6 C 96 % 7 C
2699 09-10-2018 09:25:00 7.6 C 96 % 7 C
2700 09-10-2018 09:30:00 7.6 C 96 % 7 C
Sensor: Nr:Datum:Temp:Feuchte:Taupunkt:
Aussen-T/F 2701 09-10-2018 09:35:00 7.6 C 97 % 7.16 C
2702 09-10-2018 09:40:00 7.7 C 96 % 7.1 C
2703 09-10-2018 09:45:00 7.7 C 97 % 7.25 C
2704 09-10-2018 09:50:00 7.8 C 97 % 7.35 C
2705 09-10-2018 09:55:00 7.8 C 97 % 7.35 C
2706 09-10-2018 10:00:00 7.9 C 96 % 7.3 C
2707 09-10-2018 10:05:00 8 C 96 % 7.4 C
2708 09-10-2018 10:10:00 8.1 C 97 % 7.65 C
2709 09-10-2018 10:15:00 8.2 C 97 % 7.75 C
2710 09-10-2018 10:20:00 8.3 C 97 % 7.85 C
2711 09-10-2018 10:25:00 8.4 C 97 % 7.95 C
2712 09-10-2018 10:30:00 8.6 C 97 % 8.15 C
2713 09-10-2018 10:35:00 8.6 C 97 % 8.15 C
2714 09-10-2018 10:40:00 8.7 C 97 % 8.25 C
2715 09-10-2018 10:45:00 8.8 C 97 % 8.35 C
2716 09-10-2018 10:50:00 8.9 C 97 % 8.45 C
2717 09-10-2018 10:55:00 8.9 C 97 % 8.45 C
2718 09-10-2018 11:00:00 9 C 97 % 8.55 C
2719 09-10-2018 11:05:00 9.1 C 97 % 8.65 C
2720 09-10-2018 11:10:00 9.2 C 97 % 8.75 C
2721 09-10-2018 11:15:00 9.3 C 97 % 8.85 C
2722 09-10-2018 11:20:00 9.4 C 97 % 8.95 C
2723 09-10-2018 11:25:00 9.5 C 97 % 9.05 C
2724 09-10-2018 11:30:00 9.7 C 97 % 9.25 C
2725 09-10-2018 11:35:00 9.8 C 97 % 9.35 C
Sensor: Nr:Datum:Temp:Feuchte:Taupunkt:
Aussen-T/F 2726 09-10-2018 11:40:00 10 C 97 % 9.55 C
2727 09-10-2018 11:45:00 10.2 C 97 % 9.75 C
2728 09-10-2018 11:50:00 10.3 C 97 % 9.85 C
2729 09-10-2018 11:55:00 10.5 C 97 % 10.04 C
2730 09-10-2018 12:00:00 10.7 C 97 % 10.24 C
2731 09-10-2018 12:05:00 10.8 C 97 % 10.34 C
2732 09-10-2018 12:10:00 10.9 C 97 % 10.44 C
2733 09-10-2018 12:15:00 11.1 C 97 % 10.64 C
2734 09-10-2018 12:20:00 11.3 C 97 % 10.84 C
2735 09-10-2018 12:25:00 11.4 C 97 % 10.94 C
2736 09-10-2018 12:30:00 11.6 C 97 % 11.14 C
2737 09-10-2018 12:35:00 11.7 C 97 % 11.24 C
2738 09-10-2018 12:40:00 11.9 C 97 % 11.44 C
2739 09-10-2018 12:45:00 12 C 97 % 11.54 C
2740 09-10-2018 12:50:00 12.1 C 97 % 11.64 C
2741 09-10-2018 12:55:00 12.2 C 96 % 11.58 C
2742 09-10-2018 13:00:00 12.3 C 96 % 11.68 C
2743 09-10-2018 13:05:00 12.4 C 96 % 11.78 C
2744 09-10-2018 13:10:00 12.5 C 96 % 11.88 C
2745 09-10-2018 13:15:00 12.7 C 95 % 11.92 C
2746 09-10-2018 13:20:00 12.8 C 95 % 12.02 C
2747 09-10-2018 13:25:00 13 C 95 % 12.22 C
2748 09-10-2018 13:30:00 13.2 C 95 % 12.42 C
2749 09-10-2018 13:35:00 13.4 C 94 % 12.45 C
2750 09-10-2018 13:40:00 13.7 C 94 % 12.75 C
Sensor: Nr:Datum:Temp:Feuchte:Taupunkt:
Aussen-T/F 2751 09-10-2018 13:45:00 13.9 C 93 % 12.79 C
2752 09-10-2018 13:50:00 14.2 C 93 % 13.08 C
2753 09-10-2018 13:55:00 14.4 C 93 % 13.28 C
2754 09-10-2018 14:00:00 14.7 C 93 % 13.58 C
2755 09-10-2018 14:05:00 14.8 C 91 % 13.35 C
2756 09-10-2018 14:10:00 15.2 C 90 % 13.57 C
2757 09-10-2018 14:15:00 15.6 C 91 % 14.14 C
2758 09-10-2018 14:20:00 15.8 C 90 % 14.16 C
2759 09-10-2018 14:25:00 16.1 C 89 % 14.29 C
2760 09-10-2018 14:30:00 16.3 C 88 % 14.31 C
2761 09-10-2018 14:35:00 16.4 C 88 % 14.41 C
2762 09-10-2018 14:40:00 16.6 C 88 % 14.6 C
2763 09-10-2018 14:45:00 16.9 C 88 % 14.9 C
2764 09-10-2018 14:50:00 17.1 C 87 % 14.92 C
2765 09-10-2018 14:55:00 17.3 C 86 % 14.94 C
2766 09-10-2018 15:00:00 17.4 C 85 % 14.85 C
2767 09-10-2018 15:05:00 17.5 C 85 % 14.95 C
2768 09-10-2018 15:10:00 17.6 C 85 % 15.05 C
2769 09-10-2018 15:15:00 17.7 C 85 % 15.15 C
2770 09-10-2018 15:20:00 17.8 C 85 % 15.25 C
2771 09-10-2018 15:25:00 17.8 C 85 % 15.25 C
2772 09-10-2018 15:30:00 17.9 C 85 % 15.34 C
2773 09-10-2018 15:35:00 17.9 C 85 % 15.34 C
2774 09-10-2018 15:40:00 18.1 C 85 % 15.54 C
2775 09-10-2018 15:45:00 18.2 C 83 % 15.27 C
Sensor: Nr:Datum:Temp:Feuchte:Taupunkt:
Aussen-T/F 2776 09-10-2018 15:50:00 18.4 C 82 % 15.27 C
2777 09-10-2018 15:55:00 18.8 C 82 % 15.66 C
2778 09-10-2018 16:00:00 19.1 C 82 % 15.96 C
2779 09-10-2018 16:05:00 19.2 C 80 % 15.67 C
2780 09-10-2018 16:10:00 19.2 C 78 % 15.27 C
2781 09-10-2018 16:15:00 19.4 C 80 % 15.86 C
2782 09-10-2018 16:20:00 19.5 C 79 % 15.76 C
2783 09-10-2018 16:25:00 19.6 C 79 % 15.86 C
2784 09-10-2018 16:30:00 19.6 C 80 % 16.06 C
2785 09-10-2018 16:35:00 19.5 C 80 % 15.96 C
2786 09-10-2018 16:40:00 19.4 C 80 % 15.86 C
2787 09-10-2018 16:45:00 19.3 C 80 % 15.76 C
2788 09-10-2018 16:50:00 19.2 C 80 % 15.67 C
2789 09-10-2018 16:55:00 19.2 C 81 % 15.86 C
2790 09-10-2018 17:00:00 19.1 C 81 % 15.76 C
2791 09-10-2018 17:05:00 19.1 C 81 % 15.76 C
2792 09-10-2018 17:10:00 19 C 81 % 15.67 C
2793 09-10-2018 17:15:00 19 C 81 % 15.67 C
2794 09-10-2018 17:20:00 18.9 C 81 % 15.57 C
2795 09-10-2018 17:25:00 18.9 C 81 % 15.57 C
2796 09-10-2018 17:30:00 18.9 C 80 % 15.38 C
2797 09-10-2018 17:35:00 18.9 C 81 % 15.57 C
2798 09-10-2018 17:40:00 18.9 C 81 % 15.57 C
2799 09-10-2018 17:45:00 18.9 C 80 % 15.38 C
2800 09-10-2018 17:50:00 19.1 C 81 % 15.76 C
Sensor: Nr:Datum:Temp:Feuchte:Taupunkt:
Aussen-T/F 2801 09-10-2018 17:55:00 19.3 C 80 % 15.76 C
2802 09-10-2018 18:00:00 19.4 C 79 % 15.66 C
2803 09-10-2018 18:05:00 19.5 C 78 % 15.56 C
2804 09-10-2018 18:10:00 19.4 C 77 % 15.27 C
2805 09-10-2018 18:15:00 19.3 C 77 % 15.17 C
2806 09-10-2018 18:20:00 19.1 C 77 % 14.97 C
2807 09-10-2018 18:25:00 18.9 C 78 % 14.98 C
2808 09-10-2018 18:30:00 18.7 C 78 % 14.79 C
2809 09-10-2018 18:35:00 18.4 C 79 % 14.69 C
2810 09-10-2018 18:40:00 18.2 C 79 % 14.5 C
2811 09-10-2018 18:45:00 17.9 C 80 % 14.4 C
2812 09-10-2018 18:50:00 17.7 C 81 % 14.4 C
2813 09-10-2018 18:55:00 17.4 C 82 % 14.3 C
2814 09-10-2018 19:00:00 17.2 C 82 % 14.1 C
2815 09-10-2018 19:05:00 17.1 C 83 % 14.19 C
2816 09-10-2018 19:10:00 17.1 C 83 % 14.19 C
2817 09-10-2018 19:15:00 17 C 83 % 14.09 C
2818 09-10-2018 19:20:00 16.9 C 83 % 14 C
2819 09-10-2018 19:25:00 16.8 C 83 % 13.9 C
2820 09-10-2018 19:30:00 16.8 C 83 % 13.9 C
2821 09-10-2018 19:35:00 16.7 C 83 % 13.8 C
2822 09-10-2018 19:40:00 16.6 C 83 % 13.7 C
2823 09-10-2018 19:45:00 16.5 C 83 % 13.6 C
2824 09-10-2018 19:50:00 16.4 C 84 % 13.69 C
2825 09-10-2018 19:55:00 16.3 C 84 % 13.59 C
Sensor: Nr:Datum:Temp:Feuchte:Taupunkt:
Aussen-T/F 2826 09-10-2018 20:00:00 16.3 C 84 % 13.59 C
2827 09-10-2018 20:05:00 16.2 C 85 % 13.68 C
2828 09-10-2018 20:10:00 16.1 C 85 % 13.58 C
2829 09-10-2018 20:15:00 15.9 C 85 % 13.38 C
2830 09-10-2018 20:20:00 15.8 C 85 % 13.28 C
2831 09-10-2018 20:25:00 15.6 C 85 % 13.09 C
2832 09-10-2018 20:30:00 15.3 C 85 % 12.79 C
2833 09-10-2018 20:35:00 15 C 86 % 12.68 C
2834 09-10-2018 20:40:00 14.7 C 87 % 12.56 C
2835 09-10-2018 20:45:00 14.5 C 87 % 12.36 C
2836 09-10-2018 20:50:00 14.3 C 88 % 12.34 C
2837 09-10-2018 20:55:00 14.1 C 88 % 12.14 C
2838 09-10-2018 21:00:00 13.9 C 89 % 12.12 C
2839 09-10-2018 21:05:00 13.8 C 90 % 12.19 C
2840 09-10-2018 21:10:00 13.7 C 90 % 12.09 C
2841 09-10-2018 21:15:00 13.7 C 91 % 12.26 C
2842 09-10-2018 21:20:00 13.6 C 91 % 12.16 C
2843 09-10-2018 21:25:00 13.4 C 90 % 11.79 C
2844 09-10-2018 21:30:00 13.3 C 91 % 11.86 C
2845 09-10-2018 21:35:00 13.2 C 91 % 11.76 C
2846 09-10-2018 21:40:00 13.1 C 91 % 11.67 C
2847 09-10-2018 21:45:00 12.9 C 91 % 11.47 C
2848 09-10-2018 21:50:00 12.9 C 92 % 11.63 C
2849 09-10-2018 21:55:00 12.8 C 92 % 11.53 C
2850 09-10-2018 22:00:00 12.7 C 92 % 11.43 C
Sensor: Nr:Datum:Temp:Feuchte:Taupunkt:
Aussen-T/F 2851 09-10-2018 22:05:00 12.6 C 92 % 11.34 C
2852 09-10-2018 22:10:00 12.6 C 93 % 11.5 C
2853 09-10-2018 22:15:00 12.7 C 93 % 11.6 C
2854 09-10-2018 22:20:00 12.7 C 93 % 11.6 C
2855 09-10-2018 22:25:00 12.6 C 93 % 11.5 C
2856 09-10-2018 22:30:00 12.5 C 93 % 11.4 C
2857 09-10-2018 22:35:00 12.4 C 93 % 11.3 C
2858 09-10-2018 22:40:00 12.4 C 94 % 11.46 C
2859 09-10-2018 22:45:00 12.7 C 94 % 11.76 C
2860 09-10-2018 22:50:00 12.5 C 93 % 11.4 C
2861 09-10-2018 22:55:00 12.4 C 93 % 11.3 C
2862 09-10-2018 23:00:00 12.4 C 94 % 11.46 C
2863 09-10-2018 23:05:00 12.2 C 93 % 11.1 C
2864 09-10-2018 23:10:00 11.9 C 92 % 10.64 C
2865 09-10-2018 23:15:00 11.7 C 93 % 10.61 C
2866 09-10-2018 23:20:00 11.7 C 93 % 10.61 C
2867 09-10-2018 23:25:00 11.8 C 94 % 10.87 C
2868 09-10-2018 23:30:00 11.8 C 94 % 10.87 C
2869 09-10-2018 23:35:00 11.8 C 94 % 10.87 C
2870 09-10-2018 23:40:00 11.6 C 94 % 10.67 C
2871 09-10-2018 23:45:00 11.4 C 94 % 10.47 C
2872 09-10-2018 23:50:00 11.2 C 93 % 10.11 C
2873 09-10-2018 23:55:00 11 C 93 % 9.91 C
2874 10-10-2018 00:00:00 11 C 94 % 10.07 C
2875 10-10-2018 00:05:00 11.2 C 95 % 10.43 C
Sensor: Nr:Datum:Temp:Feuchte:Taupunkt:
Aussen-T/F 2876 10-10-2018 00:10:00 11.2 C 95 % 10.43 C
2877 10-10-2018 00:15:00 11 C 94 % 10.07 C
2878 10-10-2018 00:20:00 10.8 C 94 % 9.87 C
2879 10-10-2018 00:25:00 10.8 C 94 % 9.87 C
2880 10-10-2018 00:30:00 10.7 C 94 % 9.77 C
2881 10-10-2018 00:35:00 10.6 C 94 % 9.68 C
2882 10-10-2018 00:40:00 10.6 C 94 % 9.68 C
2883 10-10-2018 00:45:00 10.5 C 94 % 9.58 C
2884 10-10-2018 00:50:00 10.4 C 94 % 9.48 C
2885 10-10-2018 00:55:00 10.3 C 94 % 9.38 C
2886 10-10-2018 01:00:00 10.2 C 94 % 9.28 C
2887 10-10-2018 01:05:00 10.3 C 95 % 9.54 C
2888 10-10-2018 01:10:00 10.2 C 95 % 9.44 C
2889 10-10-2018 01:15:00 10.2 C 95 % 9.44 C
2890 10-10-2018 01:20:00 10.2 C 95 % 9.44 C
2891 10-10-2018 01:25:00 10.4 C 95 % 9.63 C
2892 10-10-2018 01:30:00 10.5 C 96 % 9.89 C
2893 10-10-2018 01:35:00 10.4 C 95 % 9.63 C
2894 10-10-2018 01:40:00 10.3 C 95 % 9.54 C
2895 10-10-2018 01:45:00 10.3 C 95 % 9.54 C
2896 10-10-2018 01:50:00 10.4 C 95 % 9.63 C
2897 10-10-2018 01:55:00 10.3 C 95 % 9.54 C
2898 10-10-2018 02:00:00 10.2 C 95 % 9.44 C
2899 10-10-2018 02:05:00 9.9 C 95 % 9.14 C
2900 10-10-2018 02:10:00 9.8 C 95 % 9.04 C
Sensor: Nr:Datum:Temp:Feuchte:Taupunkt:
Aussen-T/F 2901 10-10-2018 02:15:00 9.9 C 95 % 9.14 C
2902 10-10-2018 02:20:00 9.9 C 95 % 9.14 C
2903 10-10-2018 02:25:00 9.8 C 95 % 9.04 C
2904 10-10-2018 02:30:00 9.7 C 95 % 8.94 C
2905 10-10-2018 02:35:00 9.5 C 95 % 8.74 C
2906 10-10-2018 02:40:00 9.3 C 95 % 8.54 C
2907 10-10-2018 02:45:00 9.2 C 95 % 8.44 C
2908 10-10-2018 02:50:00 9.2 C 95 % 8.44 C
2909 10-10-2018 02:55:00 9.2 C 95 % 8.44 C
2910 10-10-2018 03:00:00 9.1 C 95 % 8.34 C
2911 10-10-2018 03:05:00 9 C 95 % 8.24 C
2912 10-10-2018 03:10:00 8.9 C 95 % 8.14 C
2913 10-10-2018 03:15:00 8.9 C 95 % 8.14 C
2914 10-10-2018 03:20:00 8.8 C 95 % 8.04 C
2915 10-10-2018 03:25:00 8.9 C 95 % 8.14 C
2916 10-10-2018 03:30:00 9 C 96 % 8.4 C
2917 10-10-2018 03:35:00 8.9 C 96 % 8.3 C
2918 10-10-2018 03:40:00 8.7 C 95 % 7.94 C
2919 10-10-2018 03:45:00 8.6 C 95 % 7.85 C
2920 10-10-2018 03:50:00 8.6 C 95 % 7.85 C
2921 10-10-2018 03:55:00 8.5 C 95 % 7.75 C
2922 10-10-2018 04:00:00 8.4 C 95 % 7.65 C
2923 10-10-2018 04:05:00 8.3 C 95 % 7.55 C
2924 10-10-2018 04:10:00 8.3 C 95 % 7.55 C
2925 10-10-2018 04:15:00 8.3 C 96 % 7.7 C
Sensor: Nr:Datum:Temp:Feuchte:Taupunkt:
Aussen-T/F 2926 10-10-2018 04:20:00 8.6 C 96 % 8 C
2927 10-10-2018 04:25:00 9 C 96 % 8.4 C
2928 10-10-2018 04:30:00 9.2 C 97 % 8.75 C
2929 10-10-2018 04:35:00 9.3 C 97 % 8.85 C
2930 10-10-2018 04:40:00 9.4 C 97 % 8.95 C
2931 10-10-2018 04:45:00 9.4 C 96 % 8.8 C
2932 10-10-2018 04:50:00 9.4 C 96 % 8.8 C
2933 10-10-2018 04:55:00 9.4 C 96 % 8.8 C
2934 10-10-2018 05:00:00 9.4 C 96 % 8.8 C
2935 10-10-2018 05:05:00 9.4 C 96 % 8.8 C
2936 10-10-2018 05:10:00 9.4 C 96 % 8.8 C
2937 10-10-2018 05:15:00 9.4 C 96 % 8.8 C
2938 10-10-2018 05:20:00 9.5 C 96 % 8.89 C
2939 10-10-2018 05:25:00 9.6 C 96 % 8.99 C
2940 10-10-2018 05:30:00 9.6 C 96 % 8.99 C
2941 10-10-2018 05:35:00 9.6 C 96 % 8.99 C
2942 10-10-2018 05:40:00 9.6 C 96 % 8.99 C
2943 10-10-2018 05:45:00 9.7 C 96 % 9.09 C
2944 10-10-2018 05:50:00 9.7 C 97 % 9.25 C
2945 10-10-2018 05:55:00 9.7 C 97 % 9.25 C
2946 10-10-2018 06:00:00 9.7 C 97 % 9.25 C
2947 10-10-2018 06:05:00 9.7 C 97 % 9.25 C
2948 10-10-2018 06:10:00 9.7 C 97 % 9.25 C
2949 10-10-2018 06:15:00 9.6 C 96 % 8.99 C
2950 10-10-2018 06:20:00 9.6 C 96 % 8.99 C
Sensor: Nr:Datum:Temp:Feuchte:Taupunkt:
Aussen-T/F 2951 10-10-2018 06:25:00 9.6 C 96 % 8.99 C
2952 10-10-2018 06:30:00 9.6 C 96 % 8.99 C
2953 10-10-2018 06:35:00 9.6 C 96 % 8.99 C
2954 10-10-2018 06:40:00 9.6 C 96 % 8.99 C
2955 10-10-2018 06:45:00 9.5 C 96 % 8.89 C
2956 10-10-2018 06:50:00 9.4 C 97 % 8.95 C
2957 10-10-2018 06:55:00 9.4 C 97 % 8.95 C
2958 10-10-2018 07:00:00 9.3 C 97 % 8.85 C
2959 10-10-2018 07:05:00 9.3 C 97 % 8.85 C
2960 10-10-2018 07:10:00 9.3 C 97 % 8.85 C
2961 10-10-2018 07:15:00 9.3 C 97 % 8.85 C
2962 10-10-2018 07:20:00 9.3 C 97 % 8.85 C
2963 10-10-2018 07:25:00 9.3 C 97 % 8.85 C
2964 10-10-2018 07:30:00 9.3 C 97 % 8.85 C
2965 10-10-2018 07:35:00 9.3 C 97 % 8.85 C
2966 10-10-2018 07:40:00 9.3 C 97 % 8.85 C
2967 10-10-2018 07:45:00 9.3 C 97 % 8.85 C
2968 10-10-2018 07:50:00 9.4 C 97 % 8.95 C
2969 10-10-2018 07:55:00 9.4 C 97 % 8.95 C
2970 10-10-2018 08:00:00 9.4 C 97 % 8.95 C
2971 10-10-2018 08:05:00 9.4 C 97 % 8.95 C
2972 10-10-2018 08:10:00 9.4 C 97 % 8.95 C
2973 10-10-2018 08:15:00 9.4 C 97 % 8.95 C
2974 10-10-2018 08:20:00 9.4 C 97 % 8.95 C
2975 10-10-2018 08:25:00 9.4 C 97 % 8.95 C
Sensor: Nr:Datum:Temp:Feuchte:Taupunkt:
Aussen-T/F 2976 10-10-2018 08:30:00 9.5 C 97 % 9.05 C
2977 10-10-2018 08:35:00 9.6 C 97 % 9.15 C
2978 10-10-2018 08:40:00 9.6 C 97 % 9.15 C
2979 10-10-2018 08:45:00 9.7 C 97 % 9.25 C
2980 10-10-2018 08:50:00 9.8 C 97 % 9.35 C
2981 10-10-2018 08:55:00 9.9 C 97 % 9.45 C
2982 10-10-2018 09:00:00 9.9 C 97 % 9.45 C
2983 10-10-2018 09:05:00 9.9 C 97 % 9.45 C
2984 10-10-2018 09:10:00 9.9 C 97 % 9.45 C
2985 10-10-2018 09:15:00 9.8 C 97 % 9.35 C
2986 10-10-2018 09:20:00 9.8 C 97 % 9.35 C
2987 10-10-2018 09:25:00 9.7 C 97 % 9.25 C
2988 10-10-2018 09:30:00 9.7 C 97 % 9.25 C
2989 10-10-2018 09:35:00 9.8 C 97 % 9.35 C
2990 10-10-2018 09:40:00 9.8 C 97 % 9.35 C
2991 10-10-2018 09:45:00 9.9 C 97 % 9.45 C
2992 10-10-2018 09:50:00 9.9 C 97 % 9.45 C
2993 10-10-2018 09:55:00 10 C 97 % 9.55 C
2994 10-10-2018 10:00:00 10.1 C 97 % 9.65 C
2995 10-10-2018 10:05:00 10.2 C 97 % 9.75 C
2996 10-10-2018 10:10:00 10.3 C 97 % 9.85 C
2997 10-10-2018 10:15:00 10.4 C 97 % 9.94 C
2998 10-10-2018 10:20:00 10.6 C 97 % 10.14 C
2999 10-10-2018 10:25:00 10.6 C 97 % 10.14 C
3000 10-10-2018 10:30:00 10.8 C 97 % 10.34 C
Sensor: Nr:Datum:Temp:Feuchte:Taupunkt:
Aussen-T/F 3001 10-10-2018 10:35:00 10.8 C 97 % 10.34 C
3002 10-10-2018 10:40:00 10.9 C 97 % 10.44 C
3003 10-10-2018 10:45:00 11.1 C 97 % 10.64 C
3004 10-10-2018 10:50:00 11.1 C 97 % 10.64 C
3005 10-10-2018 10:55:00 11.2 C 98 % 10.9 C
3006 10-10-2018 11:00:00 11.2 C 97 % 10.74 C
3007 10-10-2018 11:05:00 11.3 C 97 % 10.84 C
3008 10-10-2018 11:10:00 11.4 C 97 % 10.94 C
3009 10-10-2018 11:15:00 11.4 C 97 % 10.94 C
3010 10-10-2018 11:20:00 11.6 C 98 % 11.29 C
3011 10-10-2018 11:25:00 11.6 C 98 % 11.29 C
3012 10-10-2018 11:30:00 11.7 C 97 % 11.24 C
3013 10-10-2018 11:35:00 11.8 C 97 % 11.34 C
3014 10-10-2018 11:40:00 11.8 C 97 % 11.34 C
3015 10-10-2018 11:45:00 11.8 C 97 % 11.34 C
3016 10-10-2018 11:50:00 11.9 C 98 % 11.59 C
3017 10-10-2018 11:55:00 12.1 C 97 % 11.64 C
3018 10-10-2018 12:00:00 12.1 C 97 % 11.64 C
3019 10-10-2018 12:05:00 12.2 C 97 % 11.74 C
3020 10-10-2018 12:10:00 12.3 C 98 % 11.99 C
3021 10-10-2018 12:15:00 12.3 C 98 % 11.99 C
3022 10-10-2018 12:20:00 12.3 C 98 % 11.99 C
3023 10-10-2018 12:25:00 12.4 C 97 % 11.94 C
3024 10-10-2018 12:30:00 12.6 C 97 % 12.14 C
3025 10-10-2018 12:35:00 12.7 C 98 % 12.39 C
Sensor: Nr:Datum:Temp:Feuchte:Taupunkt:
Aussen-T/F 3026 10-10-2018 12:40:00 12.8 C 98 % 12.49 C
3027 10-10-2018 12:45:00 13 C 98 % 12.69 C
3028 10-10-2018 12:50:00 13.2 C 98 % 12.89 C
3029 10-10-2018 12:55:00 13.4 C 98 % 13.09 C
3030 10-10-2018 13:00:00 13.7 C 98 % 13.39 C
3031 10-10-2018 13:05:00 14.1 C 98 % 13.79 C
3032 10-10-2018 13:10:00 14.3 C 98 % 13.99 C
3033 10-10-2018 13:15:00 14.4 C 98 % 14.09 C
3034 10-10-2018 13:20:00 14.5 C 98 % 14.19 C
3035 10-10-2018 13:25:00 14.6 C 98 % 14.29 C
3036 10-10-2018 13:30:00 14.8 C 98 % 14.49 C
3037 10-10-2018 13:35:00 14.9 C 98 % 14.59 C
3038 10-10-2018 13:40:00 15.1 C 98 % 14.79 C
3039 10-10-2018 13:45:00 15.3 C 98 % 14.99 C
3040 10-10-2018 13:50:00 15.5 C 98 % 15.19 C
3041 10-10-2018 13:55:00 15.7 C 98 % 15.38 C
3042 10-10-2018 14:00:00 15.8 C 98 % 15.48 C
3043 10-10-2018 14:05:00 15.9 C 98 % 15.58 C
3044 10-10-2018 14:10:00 16 C 98 % 15.68 C
3045 10-10-2018 14:15:00 16.3 C 98 % 15.98 C
3046 10-10-2018 14:20:00 16.6 C 98 % 16.28 C
3047 10-10-2018 14:25:00 16.6 C 98 % 16.28 C
3048 10-10-2018 14:30:00 16.7 C 97 % 16.22 C
3049 10-10-2018 14:35:00 16.9 C 94 % 15.93 C
3050 10-10-2018 14:40:00 17.3 C 93 % 16.16 C
Sensor: Nr:Datum:Temp:Feuchte:Taupunkt:
Aussen-T/F 3051 10-10-2018 14:45:00 17.6 C 91 % 16.11 C
3052 10-10-2018 14:50:00 17.8 C 90 % 16.14 C
3053 10-10-2018 14:55:00 18.1 C 87 % 15.9 C
3054 10-10-2018 15:00:00 18.2 C 87 % 16 C
3055 10-10-2018 15:05:00 18.3 C 82 % 15.17 C
3056 10-10-2018 15:10:00 18.6 C 81 % 15.28 C
3057 10-10-2018 15:15:00 18.9 C 79 % 15.18 C
3058 10-10-2018 15:20:00 19.2 C 78 % 15.27 C
3059 10-10-2018 15:25:00 19.4 C 78 % 15.47 C
3060 10-10-2018 15:30:00 19.7 C 74 % 14.94 C
3061 10-10-2018 15:35:00 19.8 C 73 % 14.82 C
3062 10-10-2018 15:40:00 20.1 C 71 % 14.68 C
3063 10-10-2018 15:45:00 20.4 C 71 % 14.97 C
3064 10-10-2018 15:50:00 20.7 C 69 % 14.81 C
3065 10-10-2018 15:55:00 20.9 C 68 % 14.77 C
3066 10-10-2018 16:00:00 21.1 C 68 % 14.97 C
3067 10-10-2018 16:05:00 21.2 C 68 % 15.06 C
3068 10-10-2018 16:10:00 21.2 C 67 % 14.83 C
3069 10-10-2018 16:15:00 21.2 C 70 % 15.51 C
3070 10-10-2018 16:20:00 21.1 C 68 % 14.97 C
3071 10-10-2018 16:25:00 21.1 C 69 % 15.19 C
3072 10-10-2018 16:30:00 21 C 71 % 15.54 C
3073 10-10-2018 16:35:00 20.9 C 72 % 15.66 C
3074 10-10-2018 16:40:00 20.7 C 73 % 15.69 C
3075 10-10-2018 16:45:00 20.4 C 74 % 15.61 C
Sensor: Nr:Datum:Temp:Feuchte:Taupunkt:
Aussen-T/F 3076 10-10-2018 16:50:00 20.3 C 71 % 14.87 C
3077 10-10-2018 16:55:00 20.5 C 72 % 15.28 C
3078 10-10-2018 17:00:00 20.4 C 74 % 15.61 C
3079 10-10-2018 17:05:00 20.3 C 72 % 15.09 C
3080 10-10-2018 17:10:00 20.3 C 73 % 15.3 C
3081 10-10-2018 17:15:00 20.2 C 75 % 15.63 C
3082 10-10-2018 17:20:00 20.1 C 70 % 14.46 C
3083 10-10-2018 17:25:00 20.2 C 75 % 15.63 C
3084 10-10-2018 17:30:00 19.9 C 75 % 15.34 C
3085 10-10-2018 17:35:00 19.7 C 76 % 15.35 C
3086 10-10-2018 17:40:00 19.4 C 76 % 15.06 C
3087 10-10-2018 17:45:00 19.3 C 77 % 15.17 C
3088 10-10-2018 17:50:00 19.2 C 77 % 15.07 C
3089 10-10-2018 17:55:00 19.2 C 77 % 15.07 C
3090 10-10-2018 18:00:00 19.2 C 78 % 15.27 C
3091 10-10-2018 18:05:00 19.2 C 77 % 15.07 C
3092 10-10-2018 18:10:00 19.2 C 77 % 15.07 C
3093 10-10-2018 18:15:00 19.1 C 77 % 14.97 C
3094 10-10-2018 18:20:00 18.9 C 77 % 14.78 C
3095 10-10-2018 18:25:00 18.7 C 78 % 14.79 C
3096 10-10-2018 18:30:00 18.5 C 78 % 14.59 C
3097 10-10-2018 18:35:00 18.3 C 78 % 14.4 C
3098 10-10-2018 18:40:00 18.1 C 79 % 14.4 C
3099 10-10-2018 18:45:00 17.8 C 79 % 14.11 C
3100 10-10-2018 18:50:00 17.6 C 80 % 14.11 C
Sensor: Nr:Datum:Temp:Feuchte:Taupunkt:
Aussen-T/F 3101 10-10-2018 18:55:00 17.4 C 80 % 13.92 C
3102 10-10-2018 19:00:00 17.3 C 81 % 14.01 C
3103 10-10-2018 19:05:00 17.2 C 81 % 13.91 C
3104 10-10-2018 19:10:00 17 C 81 % 13.72 C
3105 10-10-2018 19:15:00 16.9 C 81 % 13.62 C
3106 10-10-2018 19:20:00 16.7 C 81 % 13.43 C
3107 10-10-2018 19:25:00 16.6 C 82 % 13.52 C
3108 10-10-2018 19:30:00 16.4 C 82 % 13.32 C
3109 10-10-2018 19:35:00 16.3 C 83 % 13.41 C
3110 10-10-2018 19:40:00 16.2 C 83 % 13.31 C
3111 10-10-2018 19:45:00 16.2 C 83 % 13.31 C
3112 10-10-2018 19:50:00 16.1 C 83 % 13.21 C
3113 10-10-2018 19:55:00 16 C 83 % 13.12 C
3114 10-10-2018 20:00:00 15.9 C 83 % 13.02 C
3115 10-10-2018 20:05:00 15.9 C 84 % 13.2 C
3116 10-10-2018 20:10:00 15.8 C 84 % 13.1 C
3117 10-10-2018 20:15:00 15.8 C 84 % 13.1 C
3118 10-10-2018 20:20:00 15.8 C 84 % 13.1 C
3119 10-10-2018 20:25:00 15.8 C 84 % 13.1 C
3120 10-10-2018 20:30:00 15.7 C 84 % 13.01 C
3121 10-10-2018 20:35:00 15.7 C 84 % 13.01 C
3122 10-10-2018 20:40:00 15.6 C 84 % 12.91 C
3123 10-10-2018 20:45:00 15.4 C 84 % 12.71 C
3124 10-10-2018 20:50:00 15.3 C 84 % 12.61 C
3125 10-10-2018 20:55:00 15.2 C 85 % 12.7 C
Sensor: Nr:Datum:Temp:Feuchte:Taupunkt:
Aussen-T/F 3126 10-10-2018 21:00:00 15.1 C 85 % 12.6 C
3127 10-10-2018 21:05:00 15.1 C 85 % 12.6 C
3128 10-10-2018 21:10:00 15 C 86 % 12.68 C
3129 10-10-2018 21:15:00 14.9 C 86 % 12.58 C
3130 10-10-2018 21:20:00 14.9 C 86 % 12.58 C
3131 10-10-2018 21:25:00 14.9 C 86 % 12.58 C
3132 10-10-2018 21:30:00 14.9 C 86 % 12.58 C
3133 10-10-2018 21:35:00 14.8 C 86 % 12.48 C
3134 10-10-2018 21:40:00 14.8 C 87 % 12.66 C
3135 10-10-2018 21:45:00 14.8 C 87 % 12.66 C
3136 10-10-2018 21:50:00 14.8 C 86 % 12.48 C
3137 10-10-2018 21:55:00 14.9 C 86 % 12.58 C
3138 10-10-2018 22:00:00 14.9 C 86 % 12.58 C
3139 10-10-2018 22:05:00 14.9 C 86 % 12.58 C
3140 10-10-2018 22:10:00 14.9 C 86 % 12.58 C
3141 10-10-2018 22:15:00 14.8 C 86 % 12.48 C
3142 10-10-2018 22:20:00 14.8 C 86 % 12.48 C
3143 10-10-2018 22:25:00 14.7 C 86 % 12.38 C
3144 10-10-2018 22:30:00 14.6 C 86 % 12.29 C
3145 10-10-2018 22:35:00 14.6 C 87 % 12.46 C
3146 10-10-2018 22:40:00 14.6 C 87 % 12.46 C
3147 10-10-2018 22:45:00 14.5 C 87 % 12.36 C
3148 10-10-2018 22:50:00 14.4 C 87 % 12.27 C
3149 10-10-2018 22:55:00 14.4 C 87 % 12.27 C
3150 10-10-2018 23:00:00 14.3 C 87 % 12.17 C
Sensor: Nr:Datum:Temp:Feuchte:Taupunkt:
Aussen-T/F 3151 10-10-2018 23:05:00 14.2 C 87 % 12.07 C
3152 10-10-2018 23:10:00 14.2 C 87 % 12.07 C
3153 10-10-2018 23:15:00 14.1 C 87 % 11.97 C
3154 10-10-2018 23:20:00 14 C 87 % 11.87 C
3155 10-10-2018 23:25:00 13.9 C 87 % 11.77 C
3156 10-10-2018 23:30:00 13.8 C 87 % 11.68 C
3157 10-10-2018 23:35:00 13.7 C 88 % 11.75 C
3158 10-10-2018 23:40:00 13.6 C 87 % 11.48 C
3159 10-10-2018 23:45:00 13.4 C 88 % 11.45 C
3160 10-10-2018 23:50:00 13.3 C 88 % 11.36 C
3161 10-10-2018 23:55:00 13.1 C 88 % 11.16 C
3162 11-10-2018 00:00:00 13.1 C 90 % 11.5 C
3163 11-10-2018 00:05:00 13 C 90 % 11.4 C
3164 11-10-2018 00:10:00 12.9 C 90 % 11.3 C
3165 11-10-2018 00:15:00 12.8 C 90 % 11.2 C
3166 11-10-2018 00:20:00 12.8 C 90 % 11.2 C
3167 11-10-2018 00:25:00 12.7 C 90 % 11.1 C
3168 11-10-2018 00:30:00 12.4 C 90 % 10.81 C
3169 11-10-2018 00:35:00 12.4 C 90 % 10.81 C
3170 11-10-2018 00:40:00 12.3 C 90 % 10.71 C
3171 11-10-2018 00:45:00 12.2 C 91 % 10.78 C
3172 11-10-2018 00:50:00 12.2 C 91 % 10.78 C
3173 11-10-2018 00:55:00 12.1 C 91 % 10.68 C
3174 11-10-2018 01:00:00 12.1 C 92 % 10.84 C
3175 11-10-2018 01:05:00 12.1 C 92 % 10.84 C
Sensor: Nr:Datum:Temp:Feuchte:Taupunkt:
Aussen-T/F 3176 11-10-2018 01:10:00 11.9 C 91 % 10.48 C
3177 11-10-2018 01:15:00 11.8 C 92 % 10.54 C
3178 11-10-2018 01:20:00 11.8 C 92 % 10.54 C
3179 11-10-2018 01:25:00 11.8 C 93 % 10.71 C
3180 11-10-2018 01:30:00 11.7 C 92 % 10.44 C
3181 11-10-2018 01:35:00 11.7 C 92 % 10.44 C
3182 11-10-2018 01:40:00 11.7 C 93 % 10.61 C
3183 11-10-2018 01:45:00 11.6 C 92 % 10.35 C
3184 11-10-2018 01:50:00 11.4 C 92 % 10.15 C
3185 11-10-2018 01:55:00 11.3 C 92 % 10.05 C
3186 11-10-2018 02:00:00 11.2 C 93 % 10.11 C
3187 11-10-2018 02:05:00 11.3 C 93 % 10.21 C
3188 11-10-2018 02:10:00 11.4 C 94 % 10.47 C
3189 11-10-2018 02:15:00 11.5 C 94 % 10.57 C
3190 11-10-2018 02:20:00 11.6 C 94 % 10.67 C
3191 11-10-2018 02:25:00 11.7 C 94 % 10.77 C
3192 11-10-2018 02:30:00 11.7 C 94 % 10.77 C
3193 11-10-2018 02:35:00 11.7 C 94 % 10.77 C
3194 11-10-2018 02:40:00 11.7 C 94 % 10.77 C
3195 11-10-2018 02:45:00 11.7 C 93 % 10.61 C
3196 11-10-2018 02:50:00 11.6 C 93 % 10.51 C
3197 11-10-2018 02:55:00 11.4 C 93 % 10.31 C
3198 11-10-2018 03:00:00 11.3 C 93 % 10.21 C
3199 11-10-2018 03:05:00 11.2 C 93 % 10.11 C
3200 11-10-2018 03:10:00 11.1 C 93 % 10.01 C
Sensor: Nr:Datum:Temp:Feuchte:Taupunkt:
Aussen-T/F 3201 11-10-2018 03:15:00 11.1 C 93 % 10.01 C
3202 11-10-2018 03:20:00 11.1 C 93 % 10.01 C
3203 11-10-2018 03:25:00 11.1 C 94 % 10.17 C
3204 11-10-2018 03:30:00 10.9 C 93 % 9.81 C
3205 11-10-2018 03:35:00 10.9 C 93 % 9.81 C
3206 11-10-2018 03:40:00 10.8 C 93 % 9.71 C
3207 11-10-2018 03:45:00 10.7 C 93 % 9.62 C
3208 11-10-2018 03:50:00 10.6 C 93 % 9.52 C
3209 11-10-2018 03:55:00 10.4 C 94 % 9.48 C
3210 11-10-2018 04:00:00 10.4 C 94 % 9.48 C
3211 11-10-2018 04:05:00 10.6 C 94 % 9.68 C
3212 11-10-2018 04:10:00 10.6 C 94 % 9.68 C
3213 11-10-2018 04:15:00 10.4 C 94 % 9.48 C
3214 11-10-2018 04:20:00 10.4 C 94 % 9.48 C
3215 11-10-2018 04:25:00 10.3 C 94 % 9.38 C
3216 11-10-2018 04:30:00 10.4 C 95 % 9.63 C
3217 11-10-2018 04:35:00 10.3 C 95 % 9.54 C
3218 11-10-2018 04:40:00 10.3 C 94 % 9.38 C
3219 11-10-2018 04:45:00 10.3 C 95 % 9.54 C
3220 11-10-2018 04:50:00 10.2 C 94 % 9.28 C
3221 11-10-2018 04:55:00 10.2 C 94 % 9.28 C
3222 11-10-2018 05:00:00 10 C 94 % 9.08 C
3223 11-10-2018 05:05:00 9.8 C 94 % 8.88 C
3224 11-10-2018 05:10:00 9.8 C 94 % 8.88 C
3225 11-10-2018 05:15:00 9.8 C 94 % 8.88 C
Sensor: Nr:Datum:Temp:Feuchte:Taupunkt:
Aussen-T/F 3226 11-10-2018 05:20:00 9.8 C 95 % 9.04 C
3227 11-10-2018 05:25:00 9.8 C 95 % 9.04 C
3228 11-10-2018 05:30:00 9.7 C 94 % 8.78 C
3229 11-10-2018 05:35:00 9.6 C 95 % 8.84 C
3230 11-10-2018 05:40:00 9.7 C 95 % 8.94 C
3231 11-10-2018 05:45:00 9.6 C 95 % 8.84 C
3232 11-10-2018 05:50:00 9.5 C 95 % 8.74 C
3233 11-10-2018 05:55:00 9.3 C 95 % 8.54 C
3234 11-10-2018 06:00:00 9.2 C 94 % 8.29 C
3235 11-10-2018 06:05:00 9.1 C 94 % 8.19 C
3236 11-10-2018 06:10:00 9 C 95 % 8.24 C
3237 11-10-2018 06:15:00 8.9 C 95 % 8.14 C
3238 11-10-2018 06:20:00 8.9 C 95 % 8.14 C
3239 11-10-2018 06:25:00 9 C 95 % 8.24 C
3240 11-10-2018 06:30:00 9.1 C 96 % 8.5 C
3241 11-10-2018 06:35:00 9.2 C 96 % 8.6 C
3242 11-10-2018 06:40:00 9.2 C 96 % 8.6 C
3243 11-10-2018 06:45:00 9.1 C 95 % 8.34 C
3244 11-10-2018 06:50:00 9 C 95 % 8.24 C
3245 11-10-2018 06:55:00 8.9 C 95 % 8.14 C
3246 11-10-2018 07:00:00 8.9 C 95 % 8.14 C
3247 11-10-2018 07:05:00 8.9 C 95 % 8.14 C
3248 11-10-2018 07:10:00 8.9 C 95 % 8.14 C
3249 11-10-2018 07:15:00 8.9 C 96 % 8.3 C
3250 11-10-2018 07:20:00 8.9 C 96 % 8.3 C
Sensor: Nr:Datum:Temp:Feuchte:Taupunkt:
Aussen-T/F 3251 11-10-2018 07:25:00 8.8 C 96 % 8.2 C
3252 11-10-2018 07:30:00 8.8 C 95 % 8.04 C
3253 11-10-2018 07:35:00 8.7 C 95 % 7.94 C
3254 11-10-2018 07:40:00 8.7 C 95 % 7.94 C
3255 11-10-2018 07:45:00 8.6 C 95 % 7.85 C
3256 11-10-2018 07:50:00 8.7 C 96 % 8.1 C
3257 11-10-2018 07:55:00 8.7 C 95 % 7.94 C
3258 11-10-2018 08:00:00 8.6 C 96 % 8 C
3259 11-10-2018 08:05:00 8.8 C 96 % 8.2 C
3260 11-10-2018 08:10:00 8.8 C 96 % 8.2 C
3261 11-10-2018 08:15:00 8.9 C 96 % 8.3 C
3262 11-10-2018 08:20:00 8.9 C 96 % 8.3 C
3263 11-10-2018 08:25:00 8.9 C 96 % 8.3 C
3264 11-10-2018 08:30:00 8.8 C 96 % 8.2 C
3265 11-10-2018 08:35:00 8.8 C 96 % 8.2 C
3266 11-10-2018 08:40:00 8.8 C 96 % 8.2 C
3267 11-10-2018 08:45:00 8.8 C 96 % 8.2 C
3268 11-10-2018 08:50:00 8.9 C 96 % 8.3 C
3269 11-10-2018 08:55:00 9 C 96 % 8.4 C
3270 11-10-2018 09:00:00 9.1 C 96 % 8.5 C
3271 11-10-2018 09:05:00 9.2 C 96 % 8.6 C
3272 11-10-2018 09:10:00 9.2 C 96 % 8.6 C
3273 11-10-2018 09:15:00 9.3 C 96 % 8.7 C
3274 11-10-2018 09:20:00 9.3 C 96 % 8.7 C
3275 11-10-2018 09:25:00 9.3 C 96 % 8.7 C
Sensor: Nr:Datum:Temp:Feuchte:Taupunkt:
Aussen-T/F 3276 11-10-2018 09:30:00 9.3 C 96 % 8.7 C
3277 11-10-2018 09:35:00 9.3 C 96 % 8.7 C
3278 11-10-2018 09:40:00 9.3 C 96 % 8.7 C
3279 11-10-2018 09:45:00 9.4 C 96 % 8.8 C
3280 11-10-2018 09:50:00 9.6 C 96 % 8.99 C
3281 11-10-2018 09:55:00 9.6 C 96 % 8.99 C
3282 11-10-2018 10:00:00 9.7 C 97 % 9.25 C
3283 11-10-2018 10:05:00 9.7 C 97 % 9.25 C
3284 11-10-2018 10:10:00 9.7 C 97 % 9.25 C
3285 11-10-2018 10:15:00 9.8 C 97 % 9.35 C
3286 11-10-2018 10:20:00 9.8 C 97 % 9.35 C
3287 11-10-2018 10:25:00 10 C 97 % 9.55 C
3288 11-10-2018 10:30:00 10.2 C 97 % 9.75 C
3289 11-10-2018 10:35:00 10.4 C 97 % 9.94 C
3290 11-10-2018 10:40:00 10.6 C 97 % 10.14 C
3291 11-10-2018 10:45:00 10.7 C 97 % 10.24 C
3292 11-10-2018 10:50:00 10.9 C 97 % 10.44 C
3293 11-10-2018 10:55:00 11.1 C 97 % 10.64 C
3294 11-10-2018 11:00:00 11.4 C 97 % 10.94 C
3295 11-10-2018 11:05:00 11.6 C 97 % 11.14 C
3296 11-10-2018 11:10:00 11.8 C 97 % 11.34 C
3297 11-10-2018 11:15:00 11.9 C 97 % 11.44 C
3298 11-10-2018 11:20:00 12.2 C 97 % 11.74 C
3299 11-10-2018 11:25:00 12.4 C 97 % 11.94 C
3300 11-10-2018 11:30:00 12.6 C 97 % 12.14 C
Sensor: Nr:Datum:Temp:Feuchte:Taupunkt:
Aussen-T/F 3301 11-10-2018 11:35:00 12.7 C 97 % 12.24 C
3302 11-10-2018 11:40:00 12.8 C 97 % 12.34 C
3303 11-10-2018 11:45:00 13 C 97 % 12.54 C
3304 11-10-2018 11:50:00 13.1 C 97 % 12.63 C
3305 11-10-2018 11:55:00 13.2 C 97 % 12.73 C
3306 11-10-2018 12:00:00 13.3 C 97 % 12.83 C
3307 11-10-2018 12:05:00 13.5 C 97 % 13.03 C
3308 11-10-2018 12:10:00 13.8 C 97 % 13.33 C
3309 11-10-2018 12:15:00 13.9 C 97 % 13.43 C
3310 11-10-2018 12:20:00 14.1 C 97 % 13.63 C
3311 11-10-2018 12:25:00 14.3 C 97 % 13.83 C
3312 11-10-2018 12:30:00 14.4 C 97 % 13.93 C
3313 11-10-2018 12:35:00 14.5 C 97 % 14.03 C
3314 11-10-2018 12:40:00 14.7 C 97 % 14.23 C
3315 11-10-2018 12:45:00 14.8 C 97 % 14.33 C
3316 11-10-2018 12:50:00 15 C 97 % 14.53 C
3317 11-10-2018 12:55:00 15.2 C 97 % 14.73 C
3318 11-10-2018 13:00:00 15.5 C 97 % 15.03 C
3319 11-10-2018 13:05:00 15.9 C 97 % 15.42 C
3320 11-10-2018 13:10:00 16.1 C 97 % 15.62 C
3321 11-10-2018 13:15:00 16.3 C 97 % 15.82 C
3322 11-10-2018 13:20:00 16.3 C 97 % 15.82 C
3323 11-10-2018 13:25:00 16.5 C 96 % 15.86 C
3324 11-10-2018 13:30:00 16.6 C 96 % 15.96 C
3325 11-10-2018 13:35:00 16.7 C 95 % 15.9 C
Sensor: Nr:Datum:Temp:Feuchte:Taupunkt:
Aussen-T/F 3326 11-10-2018 13:40:00 16.8 C 94 % 15.83 C
3327 11-10-2018 13:45:00 17 C 93 % 15.86 C
3328 11-10-2018 13:50:00 17.1 C 93 % 15.96 C
3329 11-10-2018 13:55:00 17.3 C 93 % 16.16 C
3330 11-10-2018 14:00:00 17.6 C 93 % 16.45 C
3331 11-10-2018 14:05:00 17.9 C 91 % 16.41 C
3332 11-10-2018 14:10:00 18.2 C 90 % 16.53 C
3333 11-10-2018 14:15:00 18.6 C 88 % 16.57 C
3334 11-10-2018 14:20:00 18.9 C 86 % 16.51 C
3335 11-10-2018 14:25:00 19.3 C 84 % 16.53 C
3336 11-10-2018 14:30:00 19.6 C 84 % 16.82 C
3337 11-10-2018 14:35:00 19.9 C 82 % 16.74 C
3338 11-10-2018 14:40:00 20.2 C 81 % 16.84 C
3339 11-10-2018 14:45:00 20.3 C 79 % 16.54 C
3340 11-10-2018 14:50:00 20.3 C 79 % 16.54 C
3341 11-10-2018 14:55:00 20.3 C 78 % 16.34 C
3342 11-10-2018 15:00:00 20.2 C 79 % 16.44 C
3343 11-10-2018 15:05:00 20.2 C 80 % 16.64 C
3344 11-10-2018 15:10:00 20.3 C 77 % 16.14 C
3345 11-10-2018 15:15:00 20.4 C 75 % 15.82 C
3346 11-10-2018 15:20:00 20.6 C 70 % 14.94 C
3347 11-10-2018 15:25:00 20.8 C 72 % 15.57 C
3348 11-10-2018 15:30:00 21 C 75 % 16.4 C
3349 11-10-2018 15:35:00 21.1 C 74 % 16.29 C
3350 11-10-2018 15:40:00 21.1 C 76 % 16.7 C
Sensor: Nr:Datum:Temp:Feuchte:Taupunkt:
Aussen-T/F 3351 11-10-2018 15:45:00 21.2 C 76 % 16.8 C
3352 11-10-2018 15:50:00 21.2 C 75 % 16.59 C
3353 11-10-2018 15:55:00 21.3 C 75 % 16.69 C
3354 11-10-2018 16:00:00 21.3 C 72 % 16.05 C
3355 11-10-2018 16:05:00 21.4 C 69 % 15.48 C
3356 11-10-2018 16:10:00 21.7 C 72 % 16.43 C
3357 11-10-2018 16:15:00 21.9 C 72 % 16.62 C
3358 11-10-2018 16:20:00 22 C 69 % 16.05 C
3359 11-10-2018 16:25:00 22 C 68 % 15.82 C
3360 11-10-2018 16:30:00 22.1 C 70 % 16.37 C
3361 11-10-2018 16:35:00 22.1 C 73 % 17.03 C
3362 11-10-2018 16:40:00 21.9 C 73 % 16.84 C
3363 11-10-2018 16:45:00 21.8 C 72 % 16.53 C
3364 11-10-2018 16:50:00 21.7 C 73 % 16.65 C
3365 11-10-2018 16:55:00 21.6 C 74 % 16.77 C
3366 11-10-2018 17:00:00 21.4 C 74 % 16.57 C
3367 11-10-2018 17:05:00 21.3 C 74 % 16.48 C
3368 11-10-2018 17:10:00 21.2 C 76 % 16.8 C
3369 11-10-2018 17:15:00 21.1 C 76 % 16.7 C
3370 11-10-2018 17:20:00 20.9 C 75 % 16.3 C
3371 11-10-2018 17:25:00 20.9 C 76 % 16.51 C
3372 11-10-2018 17:30:00 20.8 C 76 % 16.41 C
3373 11-10-2018 17:35:00 20.8 C 75 % 16.21 C
3374 11-10-2018 17:40:00 20.7 C 71 % 15.25 C
3375 11-10-2018 17:45:00 21 C 74 % 16.19 C
Sensor: Nr:Datum:Temp:Feuchte:Taupunkt:
Aussen-T/F 3376 11-10-2018 17:50:00 21.3 C 69 % 15.38 C
3377 11-10-2018 17:55:00 21.6 C 69 % 15.67 C
3378 11-10-2018 18:00:00 21.8 C 67 % 15.4 C
3379 11-10-2018 18:05:00 21.9 C 69 % 15.96 C
3380 11-10-2018 18:10:00 21.9 C 68 % 15.73 C
3381 11-10-2018 18:15:00 21.8 C 67 % 15.4 C
3382 11-10-2018 18:20:00 21.6 C 67 % 15.21 C
3383 11-10-2018 18:25:00 21.5 C 68 % 15.35 C
3384 11-10-2018 18:30:00 21.2 C 68 % 15.06 C
3385 11-10-2018 18:35:00 20.8 C 68 % 14.68 C
3386 11-10-2018 18:40:00 20.5 C 69 % 14.62 C
3387 11-10-2018 18:45:00 20.3 C 70 % 14.65 C
3388 11-10-2018 18:50:00 19.9 C 70 % 14.27 C
3389 11-10-2018 18:55:00 19.7 C 72 % 14.51 C
3390 11-10-2018 19:00:00 19.4 C 73 % 14.44 C
3391 11-10-2018 19:05:00 19.2 C 72 % 14.03 C
3392 11-10-2018 19:10:00 19 C 74 % 14.26 C
3393 11-10-2018 19:15:00 18.8 C 74 % 14.07 C
3394 11-10-2018 19:20:00 18.6 C 75 % 14.08 C
3395 11-10-2018 19:25:00 18.2 C 76 % 13.9 C
3396 11-10-2018 19:30:00 17.8 C 77 % 13.72 C
3397 11-10-2018 19:35:00 17.4 C 78 % 13.53 C
3398 11-10-2018 19:40:00 17.1 C 79 % 13.43 C
3399 11-10-2018 19:45:00 16.8 C 81 % 13.52 C
3400 11-10-2018 19:50:00 16.6 C 81 % 13.33 C
Sensor: Nr:Datum:Temp:Feuchte:Taupunkt:
Aussen-T/F 3401 11-10-2018 19:55:00 16.4 C 82 % 13.32 C
3402 11-10-2018 20:00:00 16.3 C 83 % 13.41 C
3403 11-10-2018 20:05:00 16.3 C 84 % 13.59 C
3404 11-10-2018 20:10:00 16.3 C 83 % 13.41 C
3405 11-10-2018 20:15:00 16.4 C 84 % 13.69 C
3406 11-10-2018 20:20:00 16.4 C 84 % 13.69 C
3407 11-10-2018 20:25:00 16.4 C 84 % 13.69 C
3408 11-10-2018 20:30:00 16.4 C 84 % 13.69 C
3409 11-10-2018 20:35:00 16.5 C 84 % 13.79 C
3410 11-10-2018 20:40:00 16.5 C 84 % 13.79 C
3411 11-10-2018 20:45:00 16.4 C 84 % 13.69 C
3412 11-10-2018 20:50:00 16.4 C 84 % 13.69 C
3413 11-10-2018 20:55:00 16.3 C 84 % 13.59 C
3414 11-10-2018 21:00:00 16.3 C 84 % 13.59 C
3415 11-10-2018 21:05:00 16.2 C 84 % 13.5 C
3416 11-10-2018 21:10:00 16.2 C 85 % 13.68 C
3417 11-10-2018 21:15:00 16.3 C 84 % 13.59 C
3418 11-10-2018 21:20:00 16.4 C 85 % 13.87 C
3419 11-10-2018 21:25:00 16.4 C 84 % 13.69 C
3420 11-10-2018 21:30:00 16.4 C 85 % 13.87 C
3421 11-10-2018 21:35:00 16.4 C 85 % 13.87 C
3422 11-10-2018 21:40:00 16.3 C 85 % 13.77 C
3423 11-10-2018 21:45:00 16.3 C 84 % 13.59 C
3424 11-10-2018 21:50:00 16.3 C 84 % 13.59 C
3425 11-10-2018 21:55:00 16.2 C 84 % 13.5 C
Sensor: Nr:Datum:Temp:Feuchte:Taupunkt:
Aussen-T/F 3426 11-10-2018 22:00:00 16.2 C 85 % 13.68 C
3427 11-10-2018 22:05:00 16.2 C 85 % 13.68 C
3428 11-10-2018 22:10:00 16.2 C 85 % 13.68 C
3429 11-10-2018 22:15:00 16.2 C 85 % 13.68 C
3430 11-10-2018 22:20:00 16.2 C 85 % 13.68 C
3431 11-10-2018 22:25:00 16.1 C 85 % 13.58 C
3432 11-10-2018 22:30:00 16.1 C 85 % 13.58 C
3433 11-10-2018 22:35:00 15.9 C 85 % 13.38 C
3434 11-10-2018 22:40:00 15.8 C 86 % 13.46 C
3435 11-10-2018 22:45:00 15.7 C 86 % 13.37 C
3436 11-10-2018 22:50:00 15.6 C 85 % 13.09 C
3437 11-10-2018 22:55:00 15.3 C 85 % 12.79 C
3438 11-10-2018 23:00:00 15.2 C 86 % 12.88 C
3439 11-10-2018 23:05:00 15 C 86 % 12.68 C
3440 11-10-2018 23:10:00 14.9 C 86 % 12.58 C
3441 11-10-2018 23:15:00 14.7 C 87 % 12.56 C
3442 11-10-2018 23:20:00 14.5 C 87 % 12.36 C
3443 11-10-2018 23:25:00 14.4 C 88 % 12.44 C
3444 11-10-2018 23:30:00 14.2 C 88 % 12.24 C
3445 11-10-2018 23:35:00 14.1 C 88 % 12.14 C
3446 11-10-2018 23:40:00 13.9 C 88 % 11.95 C
3447 11-10-2018 23:45:00 13.8 C 89 % 12.02 C
3448 11-10-2018 23:50:00 13.8 C 90 % 12.19 C
3449 11-10-2018 23:55:00 13.8 C 90 % 12.19 C
3450 12-10-2018 00:00:00 13.8 C 90 % 12.19 C
Sensor: Nr:Datum:Temp:Feuchte:Taupunkt:
Aussen-T/F 3451 12-10-2018 00:05:00 13.7 C 89 % 11.92 C
3452 12-10-2018 00:10:00 13.6 C 90 % 11.99 C
3453 12-10-2018 00:15:00 13.5 C 90 % 11.89 C
3454 12-10-2018 00:20:00 13.3 C 90 % 11.7 C
3455 12-10-2018 00:25:00 13.3 C 91 % 11.86 C
3456 12-10-2018 00:30:00 13.3 C 91 % 11.86 C
3457 12-10-2018 00:35:00 13.2 C 91 % 11.76 C
3458 12-10-2018 00:40:00 13.1 C 90 % 11.5 C
3459 12-10-2018 00:45:00 12.9 C 90 % 11.3 C
3460 12-10-2018 00:50:00 12.9 C 91 % 11.47 C
3461 12-10-2018 00:55:00 13 C 92 % 11.73 C
3462 12-10-2018 01:00:00 12.9 C 91 % 11.47 C
3463 12-10-2018 01:05:00 12.8 C 91 % 11.37 C
3464 12-10-2018 01:10:00 12.7 C 91 % 11.27 C
3465 12-10-2018 01:15:00 12.6 C 91 % 11.17 C
3466 12-10-2018 01:20:00 12.4 C 91 % 10.97 C
3467 12-10-2018 01:25:00 12.3 C 92 % 11.04 C
3468 12-10-2018 01:30:00 12.3 C 92 % 11.04 C
3469 12-10-2018 01:35:00 12.3 C 92 % 11.04 C
3470 12-10-2018 01:40:00 12.2 C 92 % 10.94 C
3471 12-10-2018 01:45:00 12.2 C 92 % 10.94 C
3472 12-10-2018 01:50:00 12.1 C 93 % 11 C
3473 12-10-2018 01:55:00 12.1 C 93 % 11 C
3474 12-10-2018 02:00:00 12.1 C 93 % 11 C
3475 12-10-2018 02:05:00 12.1 C 93 % 11 C
Sensor: Nr:Datum:Temp:Feuchte:Taupunkt:
Aussen-T/F 3476 12-10-2018 02:10:00 12.2 C 94 % 11.26 C
3477 12-10-2018 02:15:00 12.3 C 94 % 11.36 C
3478 12-10-2018 02:20:00 12.3 C 94 % 11.36 C
3479 12-10-2018 02:25:00 12.3 C 94 % 11.36 C
3480 12-10-2018 02:30:00 12.3 C 94 % 11.36 C
3481 12-10-2018 02:35:00 12.2 C 93 % 11.1 C
3482 12-10-2018 02:40:00 12.1 C 93 % 11 C
3483 12-10-2018 02:45:00 12 C 93 % 10.9 C
3484 12-10-2018 02:50:00 11.9 C 94 % 10.97 C
3485 12-10-2018 02:55:00 11.9 C 94 % 10.97 C
3486 12-10-2018 03:00:00 11.8 C 94 % 10.87 C
3487 12-10-2018 03:05:00 11.9 C 94 % 10.97 C
3488 12-10-2018 03:10:00 11.8 C 94 % 10.87 C
3489 12-10-2018 03:15:00 11.8 C 94 % 10.87 C
3490 12-10-2018 03:20:00 11.8 C 94 % 10.87 C
3491 12-10-2018 03:25:00 11.8 C 94 % 10.87 C
3492 12-10-2018 03:30:00 11.8 C 94 % 10.87 C
3493 12-10-2018 03:35:00 11.8 C 94 % 10.87 C
3494 12-10-2018 03:40:00 11.7 C 94 % 10.77 C
3495 12-10-2018 03:45:00 11.6 C 94 % 10.67 C
3496 12-10-2018 03:50:00 11.6 C 94 % 10.67 C
3497 12-10-2018 03:55:00 11.5 C 94 % 10.57 C
3498 12-10-2018 04:00:00 11.4 C 94 % 10.47 C
3499 12-10-2018 04:05:00 11.4 C 94 % 10.47 C
3500 12-10-2018 04:10:00 11.3 C 94 % 10.37 C
Sensor: Nr:Datum:Temp:Feuchte:Taupunkt:
Aussen-T/F 3501 12-10-2018 04:15:00 11.3 C 94 % 10.37 C
3502 12-10-2018 04:20:00 11.3 C 94 % 10.37 C
3503 12-10-2018 04:25:00 11.3 C 94 % 10.37 C
3504 12-10-2018 04:30:00 11.2 C 94 % 10.27 C
3505 12-10-2018 04:35:00 11.2 C 95 % 10.43 C
3506 12-10-2018 04:40:00 11.2 C 94 % 10.27 C
3507 12-10-2018 04:45:00 11.1 C 94 % 10.17 C
3508 12-10-2018 04:50:00 11 C 94 % 10.07 C
3509 12-10-2018 04:55:00 11.1 C 95 % 10.33 C
3510 12-10-2018 05:00:00 11.2 C 95 % 10.43 C
3511 12-10-2018 05:05:00 11.2 C 95 % 10.43 C
3512 12-10-2018 05:10:00 11.2 C 95 % 10.43 C
3513 12-10-2018 05:15:00 11.1 C 95 % 10.33 C
3514 12-10-2018 05:20:00 10.9 C 94 % 9.97 C
3515 12-10-2018 05:25:00 10.9 C 95 % 10.13 C
3516 12-10-2018 05:30:00 10.9 C 95 % 10.13 C
3517 12-10-2018 05:35:00 10.8 C 95 % 10.03 C
3518 12-10-2018 05:40:00 10.8 C 95 % 10.03 C
3519 12-10-2018 05:45:00 11 C 96 % 10.39 C
3520 12-10-2018 05:50:00 11.1 C 95 % 10.33 C
3521 12-10-2018 05:55:00 11.1 C 95 % 10.33 C
3522 12-10-2018 06:00:00 11.1 C 95 % 10.33 C
3523 12-10-2018 06:05:00 11.1 C 95 % 10.33 C
3524 12-10-2018 06:10:00 11.1 C 95 % 10.33 C
3525 12-10-2018 06:15:00 11.2 C 96 % 10.59 C
Sensor: Nr:Datum:Temp:Feuchte:Taupunkt:
Aussen-T/F 3526 12-10-2018 06:20:00 11.2 C 96 % 10.59 C
3527 12-10-2018 06:25:00 11.1 C 96 % 10.49 C
3528 12-10-2018 06:30:00 10.9 C 95 % 10.13 C
3529 12-10-2018 06:35:00 11.1 C 96 % 10.49 C
3530 12-10-2018 06:40:00 11.2 C 96 % 10.59 C
3531 12-10-2018 06:45:00 11.2 C 96 % 10.59 C
3532 12-10-2018 06:50:00 11.3 C 96 % 10.69 C
3533 12-10-2018 06:55:00 11.2 C 96 % 10.59 C
3534 12-10-2018 07:00:00 11.1 C 95 % 10.33 C
3535 12-10-2018 07:05:00 11.2 C 96 % 10.59 C
3536 12-10-2018 07:10:00 11.2 C 96 % 10.59 C
3537 12-10-2018 07:15:00 11.2 C 96 % 10.59 C
3538 12-10-2018 07:20:00 11.2 C 96 % 10.59 C
3539 12-10-2018 07:25:00 11.2 C 96 % 10.59 C
3540 12-10-2018 07:30:00 11.2 C 96 % 10.59 C
3541 12-10-2018 07:35:00 11.2 C 96 % 10.59 C
3542 12-10-2018 07:40:00 11.2 C 96 % 10.59 C
3543 12-10-2018 07:45:00 11.2 C 96 % 10.59 C
3544 12-10-2018 07:50:00 11.1 C 96 % 10.49 C
3545 12-10-2018 07:55:00 11.1 C 96 % 10.49 C
3546 12-10-2018 08:00:00 11.1 C 96 % 10.49 C
3547 12-10-2018 08:05:00 10.9 C 96 % 10.29 C
3548 12-10-2018 08:10:00 10.9 C 96 % 10.29 C
3549 12-10-2018 08:15:00 10.9 C 96 % 10.29 C
3550 12-10-2018 08:20:00 10.9 C 96 % 10.29 C
Sensor: Nr:Datum:Temp:Feuchte:Taupunkt:
Aussen-T/F 3551 12-10-2018 08:25:00 10.9 C 96 % 10.29 C
3552 12-10-2018 08:30:00 10.8 C 96 % 10.19 C
3553 12-10-2018 08:35:00 10.8 C 96 % 10.19 C
3554 12-10-2018 08:40:00 10.9 C 96 % 10.29 C
3555 12-10-2018 08:45:00 11 C 96 % 10.39 C
3556 12-10-2018 08:50:00 11.1 C 96 % 10.49 C
3557 12-10-2018 08:55:00 11.1 C 96 % 10.49 C
3558 12-10-2018 09:00:00 11.2 C 96 % 10.59 C
3559 12-10-2018 09:05:00 11.3 C 96 % 10.69 C
3560 12-10-2018 09:10:00 11.3 C 96 % 10.69 C
3561 12-10-2018 09:15:00 11.3 C 96 % 10.69 C
3562 12-10-2018 09:20:00 11.3 C 96 % 10.69 C
3563 12-10-2018 09:25:00 11.4 C 96 % 10.79 C
3564 12-10-2018 09:30:00 11.6 C 96 % 10.98 C
3565 12-10-2018 09:35:00 11.7 C 97 % 11.24 C
3566 12-10-2018 09:40:00 11.8 C 97 % 11.34 C
3567 12-10-2018 09:45:00 11.9 C 96 % 11.28 C
3568 12-10-2018 09:50:00 12 C 96 % 11.38 C
3569 12-10-2018 09:55:00 12.1 C 97 % 11.64 C
3570 12-10-2018 10:00:00 12.3 C 97 % 11.84 C
3571 12-10-2018 10:05:00 12.6 C 97 % 12.14 C
3572 12-10-2018 10:10:00 12.8 C 97 % 12.34 C
3573 12-10-2018 10:15:00 12.9 C 97 % 12.44 C
3574 12-10-2018 10:20:00 13 C 97 % 12.54 C
3575 12-10-2018 10:25:00 13.1 C 97 % 12.63 C
Sensor: Nr:Datum:Temp:Feuchte:Taupunkt:
Aussen-T/F 3576 12-10-2018 10:30:00 13.2 C 97 % 12.73 C
3577 12-10-2018 10:35:00 13.3 C 97 % 12.83 C
3578 12-10-2018 10:40:00 13.4 C 97 % 12.93 C
3579 12-10-2018 10:45:00 13.6 C 97 % 13.13 C
3580 12-10-2018 10:50:00 13.7 C 97 % 13.23 C
3581 12-10-2018 10:55:00 13.8 C 97 % 13.33 C
3582 12-10-2018 11:00:00 13.9 C 97 % 13.43 C
3583 12-10-2018 11:05:00 14.1 C 97 % 13.63 C
3584 12-10-2018 11:10:00 14.2 C 97 % 13.73 C
3585 12-10-2018 11:15:00 14.3 C 97 % 13.83 C
3586 12-10-2018 11:20:00 14.4 C 97 % 13.93 C
3587 12-10-2018 11:25:00 14.6 C 97 % 14.13 C
3588 12-10-2018 11:30:00 14.8 C 97 % 14.33 C
3589 12-10-2018 11:35:00 14.9 C 97 % 14.43 C
3590 12-10-2018 11:40:00 15.1 C 97 % 14.63 C
3591 12-10-2018 11:45:00 15.3 C 97 % 14.83 C
3592 12-10-2018 11:50:00 15.5 C 97 % 15.03 C
3593 12-10-2018 11:55:00 15.7 C 97 % 15.23 C
3594 12-10-2018 12:00:00 15.9 C 96 % 15.26 C
3595 12-10-2018 12:05:00 16.1 C 96 % 15.46 C
3596 12-10-2018 12:10:00 16.3 C 96 % 15.66 C
3597 12-10-2018 12:15:00 16.6 C 95 % 15.8 C
3598 12-10-2018 12:20:00 16.9 C 95 % 16.09 C
3599 12-10-2018 12:25:00 17.2 C 94 % 16.23 C
3600 12-10-2018 12:30:00 17.4 C 93 % 16.26 C
Sensor: Nr:Datum:Temp:Feuchte:Taupunkt:
Aussen-T/F 3601 12-10-2018 12:35:00 17.8 C 90 % 16.14 C
3602 12-10-2018 12:40:00 18.2 C 89 % 16.36 C
3603 12-10-2018 12:45:00 18.6 C 88 % 16.57 C
3604 12-10-2018 12:50:00 18.9 C 87 % 16.69 C
3605 12-10-2018 12:55:00 19.2 C 84 % 16.43 C
3606 12-10-2018 13:00:00 19.6 C 83 % 16.63 C
3607 12-10-2018 13:05:00 19.8 C 82 % 16.64 C
3608 12-10-2018 13:10:00 20.3 C 79 % 16.54 C
3609 12-10-2018 13:15:00 20.7 C 79 % 16.93 C
3610 12-10-2018 13:20:00 21 C 76 % 16.61 C
3611 12-10-2018 13:25:00 21.2 C 78 % 17.21 C
3612 12-10-2018 13:30:00 21.3 C 75 % 16.69 C
3613 12-10-2018 13:35:00 21.4 C 76 % 16.99 C
3614 12-10-2018 13:40:00 21.6 C 76 % 17.19 C
3615 12-10-2018 13:45:00 21.7 C 74 % 16.86 C
3616 12-10-2018 13:50:00 21.9 C 72 % 16.62 C
3617 12-10-2018 13:55:00 22.4 C 74 % 17.54 C
3618 12-10-2018 14:00:00 22.6 C 69 % 16.62 C
3619 12-10-2018 14:05:00 22.7 C 72 % 17.39 C
3620 12-10-2018 14:10:00 22.8 C 71 % 17.27 C
3621 12-10-2018 14:15:00 23 C 70 % 17.23 C
3622 12-10-2018 14:20:00 23.2 C 66 % 16.5 C
3623 12-10-2018 14:25:00 23.4 C 65 % 16.45 C
3624 12-10-2018 14:30:00 23.7 C 66 % 16.97 C
3625 12-10-2018 14:35:00 23.8 C 66 % 17.07 C
Sensor: Nr:Datum:Temp:Feuchte:Taupunkt:
Aussen-T/F 3626 12-10-2018 14:40:00 23.8 C 65 % 16.83 C
3627 12-10-2018 14:45:00 23.9 C 66 % 17.16 C
3628 12-10-2018 14:50:00 23.8 C 65 % 16.83 C
3629 12-10-2018 14:55:00 23.7 C 67 % 17.21 C
3630 12-10-2018 15:00:00 23.6 C 65 % 16.64 C
3631 12-10-2018 15:05:00 23.6 C 67 % 17.11 C
3632 12-10-2018 15:10:00 23.6 C 68 % 17.35 C
3633 12-10-2018 15:15:00 23.6 C 68 % 17.35 C
3634 12-10-2018 15:20:00 23.4 C 67 % 16.92 C
3635 12-10-2018 15:25:00 23.4 C 68 % 17.16 C
3636 12-10-2018 15:30:00 23.3 C 66 % 16.59 C
3637 12-10-2018 15:35:00 23.2 C 69 % 17.2 C
3638 12-10-2018 15:40:00 23.1 C 68 % 16.87 C
3639 12-10-2018 15:45:00 23.1 C 70 % 17.33 C
3640 12-10-2018 15:50:00 23 C 71 % 17.46 C
3641 12-10-2018 15:55:00 23 C 67 % 16.54 C
3642 12-10-2018 16:00:00 23.1 C 68 % 16.87 C
3643 12-10-2018 16:05:00 23.1 C 69 % 17.1 C
3644 12-10-2018 16:10:00 23.2 C 67 % 16.73 C
3645 12-10-2018 16:15:00 23.2 C 69 % 17.2 C
3646 12-10-2018 16:20:00 23.1 C 69 % 17.1 C
3647 12-10-2018 16:25:00 23.1 C 67 % 16.64 C
3648 12-10-2018 16:30:00 23.2 C 68 % 16.97 C
3649 12-10-2018 16:35:00 23.2 C 69 % 17.2 C
3650 12-10-2018 16:40:00 23.2 C 69 % 17.2 C
Sensor: Nr:Datum:Temp:Feuchte:Taupunkt:
Aussen-T/F 3651 12-10-2018 16:45:00 23 C 70 % 17.23 C
3652 12-10-2018 16:50:00 22.8 C 70 % 17.04 C
3653 12-10-2018 16:55:00 22.7 C 71 % 17.17 C
3654 12-10-2018 17:00:00 22.7 C 71 % 17.17 C
3655 12-10-2018 17:05:00 22.7 C 72 % 17.39 C
3656 12-10-2018 17:10:00 22.7 C 71 % 17.17 C
3657 12-10-2018 17:15:00 22.8 C 71 % 17.27 C
3658 12-10-2018 17:20:00 22.8 C 71 % 17.27 C
3659 12-10-2018 17:25:00 22.8 C 71 % 17.27 C
3660 12-10-2018 17:30:00 22.8 C 70 % 17.04 C
3661 12-10-2018 17:35:00 22.7 C 70 % 16.95 C
3662 12-10-2018 17:40:00 22.6 C 70 % 16.85 C
3663 12-10-2018 17:45:00 22.4 C 71 % 16.88 C
3664 12-10-2018 17:50:00 22.3 C 71 % 16.79 C
3665 12-10-2018 17:55:00 22.1 C 71 % 16.6 C
3666 12-10-2018 18:00:00 21.9 C 72 % 16.62 C
3667 12-10-2018 18:05:00 21.8 C 73 % 16.75 C
3668 12-10-2018 18:10:00 21.7 C 72 % 16.43 C
3669 12-10-2018 18:15:00 21.6 C 73 % 16.55 C
3670 12-10-2018 18:20:00 21.5 C 73 % 16.46 C
3671 12-10-2018 18:25:00 21.3 C 73 % 16.26 C
3672 12-10-2018 18:30:00 21.2 C 73 % 16.17 C
3673 12-10-2018 18:35:00 20.9 C 74 % 16.09 C
3674 12-10-2018 18:40:00 20.7 C 74 % 15.9 C
3675 12-10-2018 18:45:00 20.5 C 74 % 15.71 C
Sensor: Nr:Datum:Temp:Feuchte:Taupunkt:
Aussen-T/F 3676 12-10-2018 18:50:00 20.3 C 75 % 15.72 C
3677 12-10-2018 18:55:00 20.2 C 75 % 15.63 C
3678 12-10-2018 19:00:00 20.1 C 75 % 15.53 C
3679 12-10-2018 19:05:00 19.9 C 75 % 15.34 C
3680 12-10-2018 19:10:00 19.7 C 76 % 15.35 C
3681 12-10-2018 19:15:00 19.6 C 76 % 15.26 C
3682 12-10-2018 19:20:00 19.5 C 76 % 15.16 C
3683 12-10-2018 19:25:00 19.4 C 76 % 15.06 C
3684 12-10-2018 19:30:00 19.3 C 77 % 15.17 C
3685 12-10-2018 19:35:00 19.3 C 77 % 15.17 C
3686 12-10-2018 19:40:00 19.2 C 77 % 15.07 C
3687 12-10-2018 19:45:00 19.1 C 77 % 14.97 C
3688 12-10-2018 19:50:00 19 C 78 % 15.08 C
3689 12-10-2018 19:55:00 18.9 C 78 % 14.98 C
3690 12-10-2018 20:00:00 18.8 C 78 % 14.88 C
3691 12-10-2018 20:05:00 18.8 C 78 % 14.88 C
3692 12-10-2018 20:10:00 18.7 C 78 % 14.79 C
3693 12-10-2018 20:15:00 18.7 C 78 % 14.79 C
3694 12-10-2018 20:20:00 18.6 C 79 % 14.89 C
3695 12-10-2018 20:25:00 18.6 C 79 % 14.89 C
3696 12-10-2018 20:30:00 18.5 C 79 % 14.79 C
3697 12-10-2018 20:35:00 18.4 C 79 % 14.69 C
3698 12-10-2018 20:40:00 18.4 C 79 % 14.69 C
3699 12-10-2018 20:45:00 18.3 C 79 % 14.6 C
3700 12-10-2018 20:50:00 18.2 C 80 % 14.69 C
Sensor: Nr:Datum:Temp:Feuchte:Taupunkt:
Aussen-T/F 3701 12-10-2018 20:55:00 18 C 80 % 14.5 C
3702 12-10-2018 21:00:00 17.8 C 81 % 14.5 C
3703 12-10-2018 21:05:00 17.6 C 81 % 14.3 C
3704 12-10-2018 21:10:00 17.4 C 82 % 14.3 C
3705 12-10-2018 21:15:00 17.2 C 82 % 14.1 C
3706 12-10-2018 21:20:00 17.1 C 83 % 14.19 C
3707 12-10-2018 21:25:00 16.9 C 83 % 14 C
3708 12-10-2018 21:30:00 16.7 C 84 % 13.98 C
3709 12-10-2018 21:35:00 16.5 C 84 % 13.79 C
3710 12-10-2018 21:40:00 16.4 C 85 % 13.87 C
3711 12-10-2018 21:45:00 16.3 C 85 % 13.77 C
3712 12-10-2018 21:50:00 16.2 C 85 % 13.68 C
3713 12-10-2018 21:55:00 16.1 C 86 % 13.76 C
3714 12-10-2018 22:00:00 15.9 C 86 % 13.56 C
3715 12-10-2018 22:05:00 15.9 C 86 % 13.56 C
3716 12-10-2018 22:10:00 15.8 C 87 % 13.64 C
3717 12-10-2018 22:15:00 15.7 C 86 % 13.37 C
3718 12-10-2018 22:20:00 15.6 C 86 % 13.27 C
3719 12-10-2018 22:25:00 15.4 C 87 % 13.25 C
3720 12-10-2018 22:30:00 15.3 C 88 % 13.33 C
3721 12-10-2018 22:35:00 15.3 C 88 % 13.33 C
3722 12-10-2018 22:40:00 15.2 C 88 % 13.23 C
3723 12-10-2018 22:45:00 15.2 C 89 % 13.4 C
3724 12-10-2018 22:50:00 15 C 88 % 13.03 C
3725 12-10-2018 22:55:00 14.8 C 88 % 12.83 C
Sensor: Nr:Datum:Temp:Feuchte:Taupunkt:
Aussen-T/F 3726 12-10-2018 23:00:00 14.7 C 89 % 12.91 C
3727 12-10-2018 23:05:00 14.7 C 89 % 12.91 C
3728 12-10-2018 23:10:00 14.5 C 89 % 12.71 C
3729 12-10-2018 23:15:00 14.4 C 90 % 12.78 C
3730 12-10-2018 23:20:00 14.3 C 90 % 12.68 C
3731 12-10-2018 23:25:00 14.4 C 91 % 12.95 C
3732 12-10-2018 23:30:00 14.3 C 91 % 12.85 C
3733 12-10-2018 23:35:00 14.2 C 90 % 12.58 C
3734 12-10-2018 23:40:00 14.2 C 91 % 12.75 C
3735 12-10-2018 23:45:00 14.1 C 91 % 12.65 C
3736 12-10-2018 23:50:00 14.1 C 92 % 12.82 C
3737 12-10-2018 23:55:00 14.1 C 91 % 12.65 C
3738 13-10-2018 00:00:00 14 C 92 % 12.72 C
3739 13-10-2018 00:05:00 14 C 92 % 12.72 C
3740 13-10-2018 00:10:00 14.1 C 92 % 12.82 C
3741 13-10-2018 00:15:00 14 C 92 % 12.72 C
3742 13-10-2018 00:20:00 13.9 C 91 % 12.46 C
3743 13-10-2018 00:25:00 13.8 C 91 % 12.36 C
3744 13-10-2018 00:30:00 13.8 C 92 % 12.52 C
3745 13-10-2018 00:35:00 13.7 C 92 % 12.42 C
3746 13-10-2018 00:40:00 13.7 C 92 % 12.42 C
3747 13-10-2018 00:45:00 13.7 C 92 % 12.42 C
3748 13-10-2018 00:50:00 13.6 C 92 % 12.33 C
3749 13-10-2018 00:55:00 13.6 C 93 % 12.49 C
3750 13-10-2018 01:00:00 13.6 C 93 % 12.49 C
Sensor: Nr:Datum:Temp:Feuchte:Taupunkt:
Aussen-T/F 3751 13-10-2018 01:05:00 13.6 C 93 % 12.49 C
3752 13-10-2018 01:10:00 13.4 C 92 % 12.13 C
3753 13-10-2018 01:15:00 13.3 C 92 % 12.03 C
3754 13-10-2018 01:20:00 13.3 C 93 % 12.19 C
3755 13-10-2018 01:25:00 13.2 C 93 % 12.09 C
3756 13-10-2018 01:30:00 13.2 C 93 % 12.09 C
3757 13-10-2018 01:35:00 13.1 C 93 % 11.99 C
3758 13-10-2018 01:40:00 13 C 93 % 11.9 C
3759 13-10-2018 01:45:00 13 C 93 % 11.9 C
3760 13-10-2018 01:50:00 13 C 93 % 11.9 C
3761 13-10-2018 01:55:00 12.9 C 93 % 11.8 C
3762 13-10-2018 02:00:00 12.9 C 93 % 11.8 C
3763 13-10-2018 02:05:00 12.9 C 93 % 11.8 C
3764 13-10-2018 02:10:00 12.8 C 93 % 11.7 C
3765 13-10-2018 02:15:00 12.7 C 94 % 11.76 C
3766 13-10-2018 02:20:00 12.7 C 93 % 11.6 C
3767 13-10-2018 02:25:00 12.6 C 93 % 11.5 C
3768 13-10-2018 02:30:00 12.5 C 93 % 11.4 C
3769 13-10-2018 02:35:00 12.5 C 94 % 11.56 C
3770 13-10-2018 02:40:00 12.5 C 94 % 11.56 C
3771 13-10-2018 02:45:00 12.4 C 94 % 11.46 C
3772 13-10-2018 02:50:00 12.5 C 94 % 11.56 C
3773 13-10-2018 02:55:00 12.5 C 94 % 11.56 C
3774 13-10-2018 03:00:00 12.6 C 94 % 11.66 C
3775 13-10-2018 03:05:00 12.4 C 94 % 11.46 C
Sensor: Nr:Datum:Temp:Feuchte:Taupunkt:
Aussen-T/F 3776 13-10-2018 03:10:00 12.3 C 94 % 11.36 C
3777 13-10-2018 03:15:00 12.2 C 94 % 11.26 C
3778 13-10-2018 03:20:00 12.2 C 94 % 11.26 C
3779 13-10-2018 03:25:00 12.1 C 94 % 11.16 C
3780 13-10-2018 03:30:00 12 C 94 % 11.07 C
3781 13-10-2018 03:35:00 12 C 94 % 11.07 C
3782 13-10-2018 03:40:00 12 C 94 % 11.07 C
3783 13-10-2018 03:45:00 11.9 C 94 % 10.97 C
3784 13-10-2018 03:50:00 11.8 C 94 % 10.87 C
3785 13-10-2018 03:55:00 11.8 C 94 % 10.87 C
3786 13-10-2018 04:00:00 11.8 C 94 % 10.87 C
3787 13-10-2018 04:05:00 11.8 C 95 % 11.03 C
3788 13-10-2018 04:10:00 11.7 C 94 % 10.77 C
3789 13-10-2018 04:15:00 11.7 C 95 % 10.93 C
3790 13-10-2018 04:20:00 11.7 C 95 % 10.93 C
3791 13-10-2018 04:25:00 11.7 C 95 % 10.93 C
3792 13-10-2018 04:30:00 11.6 C 94 % 10.67 C
3793 13-10-2018 04:35:00 11.6 C 95 % 10.83 C
3794 13-10-2018 04:40:00 11.8 C 95 % 11.03 C
3795 13-10-2018 04:45:00 11.8 C 95 % 11.03 C
3796 13-10-2018 04:50:00 11.7 C 95 % 10.93 C
3797 13-10-2018 04:55:00 11.6 C 95 % 10.83 C
3798 13-10-2018 05:00:00 11.5 C 95 % 10.73 C
3799 13-10-2018 05:05:00 11.5 C 95 % 10.73 C
3800 13-10-2018 05:10:00 11.4 C 95 % 10.63 C
Sensor: Nr:Datum:Temp:Feuchte:Taupunkt:
Aussen-T/F 3801 13-10-2018 05:15:00 11.4 C 95 % 10.63 C
3802 13-10-2018 05:20:00 11.4 C 95 % 10.63 C
3803 13-10-2018 05:25:00 11.4 C 95 % 10.63 C
3804 13-10-2018 05:30:00 11.4 C 95 % 10.63 C
3805 13-10-2018 05:35:00 11.4 C 95 % 10.63 C
3806 13-10-2018 05:40:00 11.4 C 95 % 10.63 C
3807 13-10-2018 05:45:00 11.4 C 95 % 10.63 C
3808 13-10-2018 05:50:00 11.3 C 95 % 10.53 C
3809 13-10-2018 05:55:00 11.2 C 95 % 10.43 C
3810 13-10-2018 06:00:00 11.2 C 95 % 10.43 C
3811 13-10-2018 06:05:00 11.2 C 95 % 10.43 C
3812 13-10-2018 06:10:00 11.1 C 95 % 10.33 C
3813 13-10-2018 06:15:00 11.1 C 95 % 10.33 C
3814 13-10-2018 06:20:00 11 C 95 % 10.23 C
3815 13-10-2018 06:25:00 10.9 C 95 % 10.13 C
3816 13-10-2018 06:30:00 10.9 C 96 % 10.29 C
3817 13-10-2018 06:35:00 11 C 96 % 10.39 C
3818 13-10-2018 06:40:00 10.9 C 96 % 10.29 C
3819 13-10-2018 06:45:00 10.9 C 96 % 10.29 C
3820 13-10-2018 06:50:00 10.9 C 96 % 10.29 C
3821 13-10-2018 06:55:00 11.1 C 96 % 10.49 C
3822 13-10-2018 07:00:00 11.2 C 96 % 10.59 C
3823 13-10-2018 07:05:00 11.2 C 96 % 10.59 C
3824 13-10-2018 07:10:00 11.2 C 96 % 10.59 C
3825 13-10-2018 07:15:00 11.1 C 96 % 10.49 C
Sensor: Nr:Datum:Temp:Feuchte:Taupunkt:
Aussen-T/F 3826 13-10-2018 07:20:00 10.9 C 95 % 10.13 C
3827 13-10-2018 07:25:00 10.8 C 96 % 10.19 C
3828 13-10-2018 07:30:00 10.8 C 96 % 10.19 C
3829 13-10-2018 07:35:00 10.8 C 96 % 10.19 C
3830 13-10-2018 07:40:00 10.7 C 95 % 9.93 C
3831 13-10-2018 07:45:00 10.7 C 96 % 10.09 C
3832 13-10-2018 07:50:00 10.6 C 96 % 9.99 C
3833 13-10-2018 07:55:00 10.5 C 96 % 9.89 C
3834 13-10-2018 08:00:00 10.6 C 96 % 9.99 C
3835 13-10-2018 08:05:00 10.7 C 96 % 10.09 C
3836 13-10-2018 08:10:00 10.8 C 96 % 10.19 C
3837 13-10-2018 08:15:00 10.8 C 96 % 10.19 C
3838 13-10-2018 08:20:00 10.9 C 96 % 10.29 C
3839 13-10-2018 08:25:00 10.8 C 96 % 10.19 C
3840 13-10-2018 08:30:00 10.8 C 96 % 10.19 C
3841 13-10-2018 08:35:00 10.7 C 96 % 10.09 C
3842 13-10-2018 08:40:00 10.7 C 96 % 10.09 C
3843 13-10-2018 08:45:00 10.7 C 96 % 10.09 C
3844 13-10-2018 08:50:00 10.7 C 96 % 10.09 C
3845 13-10-2018 08:55:00 10.6 C 96 % 9.99 C
3846 13-10-2018 09:00:00 10.6 C 96 % 9.99 C
3847 13-10-2018 09:05:00 10.7 C 96 % 10.09 C
3848 13-10-2018 09:10:00 10.7 C 96 % 10.09 C
3849 13-10-2018 09:15:00 10.7 C 96 % 10.09 C
3850 13-10-2018 09:20:00 10.8 C 96 % 10.19 C
Sensor: Nr:Datum:Temp:Feuchte:Taupunkt:
Aussen-T/F 3851 13-10-2018 09:25:00 10.9 C 96 % 10.29 C
3852 13-10-2018 09:30:00 11 C 97 % 10.54 C
3853 13-10-2018 09:35:00 11.1 C 97 % 10.64 C
3854 13-10-2018 09:40:00 11.1 C 97 % 10.64 C
3855 13-10-2018 09:45:00 11.2 C 97 % 10.74 C
3856 13-10-2018 09:50:00 11.3 C 97 % 10.84 C
3857 13-10-2018 09:55:00 11.5 C 97 % 11.04 C
3858 13-10-2018 10:00:00 11.7 C 97 % 11.24 C
3859 13-10-2018 10:05:00 11.8 C 97 % 11.34 C
3860 13-10-2018 10:10:00 11.9 C 97 % 11.44 C
3861 13-10-2018 10:15:00 12.1 C 97 % 11.64 C
3862 13-10-2018 10:20:00 12.2 C 97 % 11.74 C
3863 13-10-2018 10:25:00 12.3 C 97 % 11.84 C
3864 13-10-2018 10:30:00 12.5 C 97 % 12.04 C
3865 13-10-2018 10:35:00 12.7 C 97 % 12.24 C
3866 13-10-2018 10:40:00 12.8 C 97 % 12.34 C
3867 13-10-2018 10:45:00 12.9 C 97 % 12.44 C
3868 13-10-2018 10:50:00 13.1 C 97 % 12.63 C
3869 13-10-2018 10:55:00 13.2 C 97 % 12.73 C
3870 13-10-2018 11:00:00 13.4 C 97 % 12.93 C
3871 13-10-2018 11:05:00 13.7 C 97 % 13.23 C
3872 13-10-2018 11:10:00 13.9 C 97 % 13.43 C
3873 13-10-2018 11:15:00 14.1 C 97 % 13.63 C
3874 13-10-2018 11:20:00 14.3 C 97 % 13.83 C
3875 13-10-2018 11:25:00 14.4 C 97 % 13.93 C
Sensor: Nr:Datum:Temp:Feuchte:Taupunkt:
Aussen-T/F 3876 13-10-2018 11:30:00 14.7 C 97 % 14.23 C
3877 13-10-2018 11:35:00 14.8 C 97 % 14.33 C
3878 13-10-2018 11:40:00 14.9 C 97 % 14.43 C
3879 13-10-2018 11:45:00 15.1 C 97 % 14.63 C
3880 13-10-2018 11:50:00 15.3 C 97 % 14.83 C
3881 13-10-2018 11:55:00 15.4 C 97 % 14.93 C
3882 13-10-2018 12:00:00 15.6 C 97 % 15.13 C
3883 13-10-2018 12:05:00 15.8 C 97 % 15.32 C
3884 13-10-2018 12:10:00 15.9 C 97 % 15.42 C
3885 13-10-2018 12:15:00 16.2 C 96 % 15.56 C
3886 13-10-2018 12:20:00 16.4 C 96 % 15.76 C
3887 13-10-2018 12:25:00 16.7 C 96 % 16.06 C
3888 13-10-2018 12:30:00 16.8 C